<?xml version="1.0" encoding="UTF-8" standalone="no" ?>
<gpx xmlns="http://www.topografix.com/GPX/1/1" xmlns:xsi="http://www.w3.org/2001/XMLSchema-instance" xsi:schemaLocation="http://www.topografix.com/GPX/1/1 http://www.topografix.com/GPX/1/1/gpx.xsd" version="1.1" creator="VisuGPX - https://www.visugpx.com">
  <metadata>
    <name>Mount Agut</name>
    <desc><![CDATA[Mount Agut de Betpouey en ski de rando]]></desc>
  </metadata>
  <trk>
    <name><![CDATA[TracA- actuel- 03 FEV 2013 07-48]]></name>
    <trkseg>
      <trkpt lat="42.8828" lon="0.03808">
        <ele>976.84</ele>
        <time>2013-02-03T08:37:17Z</time>
      </trkpt>
      <trkpt lat="42.88281" lon="0.03809">
        <ele>976.84</ele>
        <time>2013-02-03T08:37:39Z</time>
      </trkpt>
      <trkpt lat="42.88281" lon="0.03809">
        <ele>977.32</ele>
        <time>2013-02-03T08:37:56Z</time>
      </trkpt>
      <trkpt lat="42.88279" lon="0.03811">
        <ele>976.84</ele>
        <time>2013-02-03T08:38:09Z</time>
      </trkpt>
      <trkpt lat="42.88281" lon="0.03811">
        <ele>976.36</ele>
        <time>2013-02-03T08:38:21Z</time>
      </trkpt>
      <trkpt lat="42.88282" lon="0.03812">
        <ele>976.36</ele>
        <time>2013-02-03T08:38:42Z</time>
      </trkpt>
      <trkpt lat="42.88281" lon="0.03814">
        <ele>976.36</ele>
        <time>2013-02-03T08:39:01Z</time>
      </trkpt>
      <trkpt lat="42.88283" lon="0.03814">
        <ele>976.36</ele>
        <time>2013-02-03T08:39:26Z</time>
      </trkpt>
      <trkpt lat="42.88281" lon="0.03816">
        <ele>976.84</ele>
        <time>2013-02-03T08:39:37Z</time>
      </trkpt>
      <trkpt lat="42.88282" lon="0.03812">
        <ele>975.88</ele>
        <time>2013-02-03T08:39:55Z</time>
      </trkpt>
      <trkpt lat="42.88279" lon="0.03812">
        <ele>975.88</ele>
        <time>2013-02-03T08:40:10Z</time>
      </trkpt>
      <trkpt lat="42.88279" lon="0.03813">
        <ele>975.88</ele>
        <time>2013-02-03T08:40:30Z</time>
      </trkpt>
      <trkpt lat="42.88278" lon="0.0381">
        <ele>976.84</ele>
        <time>2013-02-03T08:40:48Z</time>
      </trkpt>
      <trkpt lat="42.88278" lon="0.03811">
        <ele>975.88</ele>
        <time>2013-02-03T08:41:07Z</time>
      </trkpt>
      <trkpt lat="42.8828" lon="0.0381">
        <ele>976.36</ele>
        <time>2013-02-03T08:41:36Z</time>
      </trkpt>
      <trkpt lat="42.88279" lon="0.03812">
        <ele>976.36</ele>
        <time>2013-02-03T08:42:03Z</time>
      </trkpt>
      <trkpt lat="42.8828" lon="0.03809">
        <ele>975.39</ele>
        <time>2013-02-03T08:42:18Z</time>
      </trkpt>
      <trkpt lat="42.88278" lon="0.03808">
        <ele>975.39</ele>
        <time>2013-02-03T08:42:34Z</time>
      </trkpt>
      <trkpt lat="42.8828" lon="0.03808">
        <ele>975.39</ele>
        <time>2013-02-03T08:42:56Z</time>
      </trkpt>
      <trkpt lat="42.88278" lon="0.03809">
        <ele>974.91</ele>
        <time>2013-02-03T08:43:20Z</time>
      </trkpt>
      <trkpt lat="42.88281" lon="0.03812">
        <ele>974.91</ele>
        <time>2013-02-03T08:43:38Z</time>
      </trkpt>
      <trkpt lat="42.88281" lon="0.0381">
        <ele>975.39</ele>
        <time>2013-02-03T08:43:55Z</time>
      </trkpt>
      <trkpt lat="42.88279" lon="0.0381">
        <ele>974.43</ele>
        <time>2013-02-03T08:44:19Z</time>
      </trkpt>
      <trkpt lat="42.88281" lon="0.0381">
        <ele>974.91</ele>
        <time>2013-02-03T08:44:44Z</time>
      </trkpt>
      <trkpt lat="42.8828" lon="0.03809">
        <ele>974.91</ele>
        <time>2013-02-03T08:45:07Z</time>
      </trkpt>
      <trkpt lat="42.88281" lon="0.03808">
        <ele>974.91</ele>
        <time>2013-02-03T08:45:24Z</time>
      </trkpt>
      <trkpt lat="42.88281" lon="0.03809">
        <ele>974.91</ele>
        <time>2013-02-03T08:45:51Z</time>
      </trkpt>
      <trkpt lat="42.8828" lon="0.03808">
        <ele>974.43</ele>
        <time>2013-02-03T08:46:16Z</time>
      </trkpt>
      <trkpt lat="42.88281" lon="0.03808">
        <ele>974.43</ele>
        <time>2013-02-03T08:46:41Z</time>
      </trkpt>
      <trkpt lat="42.88283" lon="0.03808">
        <ele>973.95</ele>
        <time>2013-02-03T08:47:10Z</time>
      </trkpt>
      <trkpt lat="42.88281" lon="0.03808">
        <ele>974.43</ele>
        <time>2013-02-03T08:47:27Z</time>
      </trkpt>
      <trkpt lat="42.8828" lon="0.0381">
        <ele>973.95</ele>
        <time>2013-02-03T08:47:45Z</time>
      </trkpt>
      <trkpt lat="42.8828" lon="0.0381">
        <ele>973.95</ele>
        <time>2013-02-03T08:48:06Z</time>
      </trkpt>
      <trkpt lat="42.8828" lon="0.03812">
        <ele>973.95</ele>
        <time>2013-02-03T08:48:25Z</time>
      </trkpt>
      <trkpt lat="42.88281" lon="0.0381">
        <ele>973.47</ele>
        <time>2013-02-03T08:48:46Z</time>
      </trkpt>
      <trkpt lat="42.88282" lon="0.0381">
        <ele>973.95</ele>
        <time>2013-02-03T08:48:59Z</time>
      </trkpt>
      <trkpt lat="42.88281" lon="0.03811">
        <ele>973.47</ele>
        <time>2013-02-03T08:49:16Z</time>
      </trkpt>
      <trkpt lat="42.88279" lon="0.03813">
        <ele>972.99</ele>
        <time>2013-02-03T08:49:36Z</time>
      </trkpt>
      <trkpt lat="42.88281" lon="0.03817">
        <ele>973.47</ele>
        <time>2013-02-03T08:49:57Z</time>
      </trkpt>
      <trkpt lat="42.88281" lon="0.03813">
        <ele>973.47</ele>
        <time>2013-02-03T08:50:23Z</time>
      </trkpt>
      <trkpt lat="42.88283" lon="0.03811">
        <ele>973.47</ele>
        <time>2013-02-03T08:50:43Z</time>
      </trkpt>
      <trkpt lat="42.88283" lon="0.03811">
        <ele>972.99</ele>
        <time>2013-02-03T08:51:06Z</time>
      </trkpt>
      <trkpt lat="42.88278" lon="0.03809">
        <ele>973.47</ele>
        <time>2013-02-03T08:51:18Z</time>
      </trkpt>
      <trkpt lat="42.88275" lon="0.03807">
        <ele>974.43</ele>
        <time>2013-02-03T08:51:26Z</time>
      </trkpt>
      <trkpt lat="42.88265" lon="0.03803">
        <ele>977.32</ele>
        <time>2013-02-03T08:51:41Z</time>
      </trkpt>
      <trkpt lat="42.88263" lon="0.03815">
        <ele>979.24</ele>
        <time>2013-02-03T08:51:56Z</time>
      </trkpt>
      <trkpt lat="42.88258" lon="0.03829">
        <ele>982.12</ele>
        <time>2013-02-03T08:52:13Z</time>
      </trkpt>
      <trkpt lat="42.88255" lon="0.03838">
        <ele>984.05</ele>
        <time>2013-02-03T08:52:28Z</time>
      </trkpt>
      <trkpt lat="42.88253" lon="0.03847">
        <ele>985.49</ele>
        <time>2013-02-03T08:52:42Z</time>
      </trkpt>
      <trkpt lat="42.88252" lon="0.03858">
        <ele>988.37</ele>
        <time>2013-02-03T08:52:57Z</time>
      </trkpt>
      <trkpt lat="42.88247" lon="0.03872">
        <ele>989.33</ele>
        <time>2013-02-03T08:53:11Z</time>
      </trkpt>
      <trkpt lat="42.88243" lon="0.03885">
        <ele>990.3</ele>
        <time>2013-02-03T08:53:26Z</time>
      </trkpt>
      <trkpt lat="42.88243" lon="0.03899">
        <ele>992.7</ele>
        <time>2013-02-03T08:53:43Z</time>
      </trkpt>
      <trkpt lat="42.88241" lon="0.03915">
        <ele>995.58</ele>
        <time>2013-02-03T08:53:58Z</time>
      </trkpt>
      <trkpt lat="42.8824" lon="0.03929">
        <ele>997.02</ele>
        <time>2013-02-03T08:54:08Z</time>
      </trkpt>
      <trkpt lat="42.88234" lon="0.03942">
        <ele>999.43</ele>
        <time>2013-02-03T08:54:23Z</time>
      </trkpt>
      <trkpt lat="42.88228" lon="0.03954">
        <ele>1001.83</ele>
        <time>2013-02-03T08:54:38Z</time>
      </trkpt>
      <trkpt lat="42.88223" lon="0.03964">
        <ele>1004.72</ele>
        <time>2013-02-03T08:54:55Z</time>
      </trkpt>
      <trkpt lat="42.88217" lon="0.03969">
        <ele>1007.6</ele>
        <time>2013-02-03T08:55:12Z</time>
      </trkpt>
      <trkpt lat="42.88211" lon="0.03968">
        <ele>1010.48</ele>
        <time>2013-02-03T08:55:27Z</time>
      </trkpt>
      <trkpt lat="42.88203" lon="0.0398">
        <ele>1012.41</ele>
        <time>2013-02-03T08:55:41Z</time>
      </trkpt>
      <trkpt lat="42.88197" lon="0.03989">
        <ele>1015.29</ele>
        <time>2013-02-03T08:55:56Z</time>
      </trkpt>
      <trkpt lat="42.88193" lon="0.03987">
        <ele>1017.21</ele>
        <time>2013-02-03T08:56:08Z</time>
      </trkpt>
      <trkpt lat="42.88195" lon="0.03976">
        <ele>1019.13</ele>
        <time>2013-02-03T08:56:24Z</time>
      </trkpt>
      <trkpt lat="42.88192" lon="0.03968">
        <ele>1021.06</ele>
        <time>2013-02-03T08:56:40Z</time>
      </trkpt>
      <trkpt lat="42.88195" lon="0.03957">
        <ele>1023.46</ele>
        <time>2013-02-03T08:56:53Z</time>
      </trkpt>
      <trkpt lat="42.88194" lon="0.03945">
        <ele>1025.86</ele>
        <time>2013-02-03T08:57:08Z</time>
      </trkpt>
      <trkpt lat="42.88191" lon="0.03932">
        <ele>1028.27</ele>
        <time>2013-02-03T08:57:24Z</time>
      </trkpt>
      <trkpt lat="42.88184" lon="0.03933">
        <ele>1031.63</ele>
        <time>2013-02-03T08:57:38Z</time>
      </trkpt>
      <trkpt lat="42.88182" lon="0.03936">
        <ele>1034.52</ele>
        <time>2013-02-03T08:57:53Z</time>
      </trkpt>
      <trkpt lat="42.88183" lon="0.03929">
        <ele>1035.48</ele>
        <time>2013-02-03T08:58:08Z</time>
      </trkpt>
      <trkpt lat="42.88181" lon="0.03926">
        <ele>1035.96</ele>
        <time>2013-02-03T08:58:20Z</time>
      </trkpt>
      <trkpt lat="42.88176" lon="0.03913">
        <ele>1036.92</ele>
        <time>2013-02-03T08:58:31Z</time>
      </trkpt>
      <trkpt lat="42.88173" lon="0.03897">
        <ele>1038.36</ele>
        <time>2013-02-03T08:58:43Z</time>
      </trkpt>
      <trkpt lat="42.88173" lon="0.03883">
        <ele>1040.76</ele>
        <time>2013-02-03T08:58:58Z</time>
      </trkpt>
      <trkpt lat="42.88178" lon="0.0387">
        <ele>1043.65</ele>
        <time>2013-02-03T08:59:14Z</time>
      </trkpt>
      <trkpt lat="42.8818" lon="0.03857">
        <ele>1043.17</ele>
        <time>2013-02-03T08:59:29Z</time>
      </trkpt>
      <trkpt lat="42.8818" lon="0.03853">
        <ele>1042.69</ele>
        <time>2013-02-03T08:59:32Z</time>
      </trkpt>
      <trkpt lat="42.88176" lon="0.03842">
        <ele>1046.53</ele>
        <time>2013-02-03T08:59:45Z</time>
      </trkpt>
      <trkpt lat="42.88172" lon="0.03831">
        <ele>1048.45</ele>
        <time>2013-02-03T08:59:59Z</time>
      </trkpt>
      <trkpt lat="42.88168" lon="0.03826">
        <ele>1050.38</ele>
        <time>2013-02-03T09:00:09Z</time>
      </trkpt>
      <trkpt lat="42.88157" lon="0.0382">
        <ele>1052.78</ele>
        <time>2013-02-03T09:00:25Z</time>
      </trkpt>
      <trkpt lat="42.88155" lon="0.0382">
        <ele>1052.78</ele>
        <time>2013-02-03T09:00:27Z</time>
      </trkpt>
      <trkpt lat="42.88147" lon="0.03826">
        <ele>1056.63</ele>
        <time>2013-02-03T09:00:40Z</time>
      </trkpt>
      <trkpt lat="42.88141" lon="0.03838">
        <ele>1057.11</ele>
        <time>2013-02-03T09:00:55Z</time>
      </trkpt>
      <trkpt lat="42.88137" lon="0.03851">
        <ele>1059.51</ele>
        <time>2013-02-03T09:01:10Z</time>
      </trkpt>
      <trkpt lat="42.88133" lon="0.03857">
        <ele>1061.91</ele>
        <time>2013-02-03T09:01:24Z</time>
      </trkpt>
      <trkpt lat="42.88127" lon="0.03849">
        <ele>1063.84</ele>
        <time>2013-02-03T09:01:39Z</time>
      </trkpt>
      <trkpt lat="42.88121" lon="0.03839">
        <ele>1066.24</ele>
        <time>2013-02-03T09:01:54Z</time>
      </trkpt>
      <trkpt lat="42.88114" lon="0.03828">
        <ele>1069.12</ele>
        <time>2013-02-03T09:02:12Z</time>
      </trkpt>
      <trkpt lat="42.88106" lon="0.03826">
        <ele>1071.53</ele>
        <time>2013-02-03T09:02:28Z</time>
      </trkpt>
      <trkpt lat="42.88097" lon="0.0383">
        <ele>1074.41</ele>
        <time>2013-02-03T09:02:41Z</time>
      </trkpt>
      <trkpt lat="42.88091" lon="0.03842">
        <ele>1077.29</ele>
        <time>2013-02-03T09:02:57Z</time>
      </trkpt>
      <trkpt lat="42.88089" lon="0.0385">
        <ele>1079.22</ele>
        <time>2013-02-03T09:03:11Z</time>
      </trkpt>
      <trkpt lat="42.88084" lon="0.03843">
        <ele>1081.14</ele>
        <time>2013-02-03T09:03:25Z</time>
      </trkpt>
      <trkpt lat="42.88076" lon="0.03838">
        <ele>1084.02</ele>
        <time>2013-02-03T09:03:41Z</time>
      </trkpt>
      <trkpt lat="42.88074" lon="0.03837">
        <ele>1084.5</ele>
        <time>2013-02-03T09:03:45Z</time>
      </trkpt>
      <trkpt lat="42.88063" lon="0.03837">
        <ele>1087.39</ele>
        <time>2013-02-03T09:04:01Z</time>
      </trkpt>
      <trkpt lat="42.88054" lon="0.0384">
        <ele>1088.83</ele>
        <time>2013-02-03T09:04:15Z</time>
      </trkpt>
      <trkpt lat="42.88046" lon="0.03849">
        <ele>1090.75</ele>
        <time>2013-02-03T09:04:29Z</time>
      </trkpt>
      <trkpt lat="42.88041" lon="0.03859">
        <ele>1094.12</ele>
        <time>2013-02-03T09:04:44Z</time>
      </trkpt>
      <trkpt lat="42.88042" lon="0.03868">
        <ele>1097.48</ele>
        <time>2013-02-03T09:04:56Z</time>
      </trkpt>
      <trkpt lat="42.88042" lon="0.03875">
        <ele>1099.4</ele>
        <time>2013-02-03T09:05:07Z</time>
      </trkpt>
      <trkpt lat="42.88039" lon="0.03886">
        <ele>1102.29</ele>
        <time>2013-02-03T09:05:24Z</time>
      </trkpt>
      <trkpt lat="42.88035" lon="0.03882">
        <ele>1104.21</ele>
        <time>2013-02-03T09:05:37Z</time>
      </trkpt>
      <trkpt lat="42.88028" lon="0.03879">
        <ele>1107.1</ele>
        <time>2013-02-03T09:05:52Z</time>
      </trkpt>
      <trkpt lat="42.88027" lon="0.03892">
        <ele>1108.54</ele>
        <time>2013-02-03T09:06:07Z</time>
      </trkpt>
      <trkpt lat="42.88032" lon="0.03907">
        <ele>1110.94</ele>
        <time>2013-02-03T09:06:22Z</time>
      </trkpt>
      <trkpt lat="42.88035" lon="0.03917">
        <ele>1113.34</ele>
        <time>2013-02-03T09:06:36Z</time>
      </trkpt>
      <trkpt lat="42.88034" lon="0.03927">
        <ele>1116.71</ele>
        <time>2013-02-03T09:06:50Z</time>
      </trkpt>
      <trkpt lat="42.88029" lon="0.03925">
        <ele>1118.63</ele>
        <time>2013-02-03T09:07:03Z</time>
      </trkpt>
      <trkpt lat="42.88023" lon="0.03918">
        <ele>1120.55</ele>
        <time>2013-02-03T09:07:17Z</time>
      </trkpt>
      <trkpt lat="42.88015" lon="0.03913">
        <ele>1122</ele>
        <time>2013-02-03T09:07:32Z</time>
      </trkpt>
      <trkpt lat="42.88008" lon="0.03908">
        <ele>1123.92</ele>
        <time>2013-02-03T09:07:48Z</time>
      </trkpt>
      <trkpt lat="42.87999" lon="0.03901">
        <ele>1127.28</ele>
        <time>2013-02-03T09:08:04Z</time>
      </trkpt>
      <trkpt lat="42.8799" lon="0.03893">
        <ele>1129.69</ele>
        <time>2013-02-03T09:08:19Z</time>
      </trkpt>
      <trkpt lat="42.87984" lon="0.03887">
        <ele>1131.61</ele>
        <time>2013-02-03T09:08:35Z</time>
      </trkpt>
      <trkpt lat="42.87974" lon="0.03886">
        <ele>1134.49</ele>
        <time>2013-02-03T09:08:48Z</time>
      </trkpt>
      <trkpt lat="42.87969" lon="0.03895">
        <ele>1136.9</ele>
        <time>2013-02-03T09:08:59Z</time>
      </trkpt>
      <trkpt lat="42.87964" lon="0.03908">
        <ele>1139.78</ele>
        <time>2013-02-03T09:09:17Z</time>
      </trkpt>
      <trkpt lat="42.87963" lon="0.0392">
        <ele>1142.18</ele>
        <time>2013-02-03T09:09:32Z</time>
      </trkpt>
      <trkpt lat="42.8796" lon="0.03933">
        <ele>1145.07</ele>
        <time>2013-02-03T09:09:50Z</time>
      </trkpt>
      <trkpt lat="42.87959" lon="0.03946">
        <ele>1147.95</ele>
        <time>2013-02-03T09:10:07Z</time>
      </trkpt>
      <trkpt lat="42.87955" lon="0.03949">
        <ele>1151.32</ele>
        <time>2013-02-03T09:10:19Z</time>
      </trkpt>
      <trkpt lat="42.87949" lon="0.03942">
        <ele>1152.76</ele>
        <time>2013-02-03T09:10:35Z</time>
      </trkpt>
      <trkpt lat="42.87943" lon="0.03934">
        <ele>1155.16</ele>
        <time>2013-02-03T09:10:51Z</time>
      </trkpt>
      <trkpt lat="42.87935" lon="0.03928">
        <ele>1158.53</ele>
        <time>2013-02-03T09:11:05Z</time>
      </trkpt>
      <trkpt lat="42.8793" lon="0.0392">
        <ele>1160.93</ele>
        <time>2013-02-03T09:11:19Z</time>
      </trkpt>
      <trkpt lat="42.87923" lon="0.03914">
        <ele>1163.33</ele>
        <time>2013-02-03T09:11:32Z</time>
      </trkpt>
      <trkpt lat="42.87914" lon="0.03912">
        <ele>1165.26</ele>
        <time>2013-02-03T09:11:45Z</time>
      </trkpt>
      <trkpt lat="42.87907" lon="0.03909">
        <ele>1167.18</ele>
        <time>2013-02-03T09:11:59Z</time>
      </trkpt>
      <trkpt lat="42.87898" lon="0.03909">
        <ele>1170.06</ele>
        <time>2013-02-03T09:12:13Z</time>
      </trkpt>
      <trkpt lat="42.8789" lon="0.03913">
        <ele>1172.95</ele>
        <time>2013-02-03T09:12:26Z</time>
      </trkpt>
      <trkpt lat="42.8788" lon="0.03921">
        <ele>1175.83</ele>
        <time>2013-02-03T09:12:42Z</time>
      </trkpt>
      <trkpt lat="42.87875" lon="0.03933">
        <ele>1178.23</ele>
        <time>2013-02-03T09:12:58Z</time>
      </trkpt>
      <trkpt lat="42.87872" lon="0.0393">
        <ele>1181.6</ele>
        <time>2013-02-03T09:13:11Z</time>
      </trkpt>
      <trkpt lat="42.87865" lon="0.03925">
        <ele>1184.48</ele>
        <time>2013-02-03T09:13:26Z</time>
      </trkpt>
      <trkpt lat="42.87857" lon="0.0393">
        <ele>1187.37</ele>
        <time>2013-02-03T09:13:41Z</time>
      </trkpt>
      <trkpt lat="42.87852" lon="0.03937">
        <ele>1188.33</ele>
        <time>2013-02-03T09:13:51Z</time>
      </trkpt>
      <trkpt lat="42.87849" lon="0.03942">
        <ele>1191.21</ele>
        <time>2013-02-03T09:14:02Z</time>
      </trkpt>
      <trkpt lat="42.87847" lon="0.03933">
        <ele>1193.61</ele>
        <time>2013-02-03T09:14:18Z</time>
      </trkpt>
      <trkpt lat="42.87844" lon="0.03926">
        <ele>1196.02</ele>
        <time>2013-02-03T09:14:32Z</time>
      </trkpt>
      <trkpt lat="42.87833" lon="0.03921">
        <ele>1198.42</ele>
        <time>2013-02-03T09:14:47Z</time>
      </trkpt>
      <trkpt lat="42.87825" lon="0.03922">
        <ele>1199.86</ele>
        <time>2013-02-03T09:14:59Z</time>
      </trkpt>
      <trkpt lat="42.87825" lon="0.03924">
        <ele>1198.9</ele>
        <time>2013-02-03T09:15:12Z</time>
      </trkpt>
      <trkpt lat="42.87824" lon="0.03926">
        <ele>1198.9</ele>
        <time>2013-02-03T09:15:32Z</time>
      </trkpt>
      <trkpt lat="42.87825" lon="0.03923">
        <ele>1198.9</ele>
        <time>2013-02-03T09:16:03Z</time>
      </trkpt>
      <trkpt lat="42.87826" lon="0.03925">
        <ele>1198.42</ele>
        <time>2013-02-03T09:16:39Z</time>
      </trkpt>
      <trkpt lat="42.87826" lon="0.03925">
        <ele>1196.98</ele>
        <time>2013-02-03T09:17:01Z</time>
      </trkpt>
      <trkpt lat="42.87825" lon="0.03925">
        <ele>1198.42</ele>
        <time>2013-02-03T09:17:03Z</time>
      </trkpt>
      <trkpt lat="42.87828" lon="0.03926">
        <ele>1198.42</ele>
        <time>2013-02-03T09:17:36Z</time>
      </trkpt>
      <trkpt lat="42.87827" lon="0.03928">
        <ele>1198.42</ele>
        <time>2013-02-03T09:18:19Z</time>
      </trkpt>
      <trkpt lat="42.87827" lon="0.03924">
        <ele>1199.86</ele>
        <time>2013-02-03T09:18:30Z</time>
      </trkpt>
      <trkpt lat="42.87827" lon="0.03921">
        <ele>1198.9</ele>
        <time>2013-02-03T09:18:49Z</time>
      </trkpt>
      <trkpt lat="42.87823" lon="0.03922">
        <ele>1199.86</ele>
        <time>2013-02-03T09:19:03Z</time>
      </trkpt>
      <trkpt lat="42.87824" lon="0.03921">
        <ele>1199.86</ele>
        <time>2013-02-03T09:19:17Z</time>
      </trkpt>
      <trkpt lat="42.87825" lon="0.03923">
        <ele>1198.9</ele>
        <time>2013-02-03T09:19:33Z</time>
      </trkpt>
      <trkpt lat="42.87825" lon="0.03925">
        <ele>1198.42</ele>
        <time>2013-02-03T09:19:59Z</time>
      </trkpt>
      <trkpt lat="42.87826" lon="0.03924">
        <ele>1199.86</ele>
        <time>2013-02-03T09:20:18Z</time>
      </trkpt>
      <trkpt lat="42.87828" lon="0.03926">
        <ele>1199.86</ele>
        <time>2013-02-03T09:20:32Z</time>
      </trkpt>
      <trkpt lat="42.87825" lon="0.03924">
        <ele>1199.38</ele>
        <time>2013-02-03T09:20:45Z</time>
      </trkpt>
      <trkpt lat="42.87826" lon="0.03921">
        <ele>1199.86</ele>
        <time>2013-02-03T09:21:03Z</time>
      </trkpt>
      <trkpt lat="42.87827" lon="0.0392">
        <ele>1199.86</ele>
        <time>2013-02-03T09:21:22Z</time>
      </trkpt>
      <trkpt lat="42.87826" lon="0.03921">
        <ele>1199.38</ele>
        <time>2013-02-03T09:21:37Z</time>
      </trkpt>
      <trkpt lat="42.87821" lon="0.03922">
        <ele>1200.34</ele>
        <time>2013-02-03T09:21:48Z</time>
      </trkpt>
      <trkpt lat="42.87817" lon="0.03921">
        <ele>1200.82</ele>
        <time>2013-02-03T09:21:54Z</time>
      </trkpt>
      <trkpt lat="42.87807" lon="0.03922">
        <ele>1203.71</ele>
        <time>2013-02-03T09:22:08Z</time>
      </trkpt>
      <trkpt lat="42.87798" lon="0.03932">
        <ele>1205.63</ele>
        <time>2013-02-03T09:22:22Z</time>
      </trkpt>
      <trkpt lat="42.87789" lon="0.0394">
        <ele>1207.55</ele>
        <time>2013-02-03T09:22:35Z</time>
      </trkpt>
      <trkpt lat="42.87781" lon="0.03949">
        <ele>1209.48</ele>
        <time>2013-02-03T09:22:50Z</time>
      </trkpt>
      <trkpt lat="42.87774" lon="0.03947">
        <ele>1211.4</ele>
        <time>2013-02-03T09:23:03Z</time>
      </trkpt>
      <trkpt lat="42.87767" lon="0.03941">
        <ele>1214.76</ele>
        <time>2013-02-03T09:23:17Z</time>
      </trkpt>
      <trkpt lat="42.87759" lon="0.03932">
        <ele>1217.17</ele>
        <time>2013-02-03T09:23:32Z</time>
      </trkpt>
      <trkpt lat="42.87754" lon="0.03923">
        <ele>1218.61</ele>
        <time>2013-02-03T09:23:46Z</time>
      </trkpt>
      <trkpt lat="42.8775" lon="0.03908">
        <ele>1220.05</ele>
        <time>2013-02-03T09:24:01Z</time>
      </trkpt>
      <trkpt lat="42.87748" lon="0.03899">
        <ele>1220.53</ele>
        <time>2013-02-03T09:24:11Z</time>
      </trkpt>
      <trkpt lat="42.87743" lon="0.03882">
        <ele>1221.49</ele>
        <time>2013-02-03T09:24:28Z</time>
      </trkpt>
      <trkpt lat="42.87739" lon="0.03868">
        <ele>1222.45</ele>
        <time>2013-02-03T09:24:42Z</time>
      </trkpt>
      <trkpt lat="42.87737" lon="0.03859">
        <ele>1222.93</ele>
        <time>2013-02-03T09:24:53Z</time>
      </trkpt>
      <trkpt lat="42.87725" lon="0.03847">
        <ele>1225.34</ele>
        <time>2013-02-03T09:25:09Z</time>
      </trkpt>
      <trkpt lat="42.87722" lon="0.03843">
        <ele>1226.78</ele>
        <time>2013-02-03T09:25:16Z</time>
      </trkpt>
      <trkpt lat="42.87717" lon="0.0384">
        <ele>1230.14</ele>
        <time>2013-02-03T09:25:28Z</time>
      </trkpt>
      <trkpt lat="42.87713" lon="0.03843">
        <ele>1231.11</ele>
        <time>2013-02-03T09:25:34Z</time>
      </trkpt>
      <trkpt lat="42.87709" lon="0.03858">
        <ele>1232.55</ele>
        <time>2013-02-03T09:25:49Z</time>
      </trkpt>
      <trkpt lat="42.8771" lon="0.0386">
        <ele>1233.51</ele>
        <time>2013-02-03T09:25:52Z</time>
      </trkpt>
      <trkpt lat="42.87708" lon="0.03863">
        <ele>1235.91</ele>
        <time>2013-02-03T09:26:00Z</time>
      </trkpt>
      <trkpt lat="42.87703" lon="0.03856">
        <ele>1237.35</ele>
        <time>2013-02-03T09:26:14Z</time>
      </trkpt>
      <trkpt lat="42.87697" lon="0.03854">
        <ele>1239.76</ele>
        <time>2013-02-03T09:26:27Z</time>
      </trkpt>
      <trkpt lat="42.87692" lon="0.03856">
        <ele>1241.68</ele>
        <time>2013-02-03T09:26:36Z</time>
      </trkpt>
      <trkpt lat="42.87691" lon="0.03856">
        <ele>1242.16</ele>
        <time>2013-02-03T09:26:38Z</time>
      </trkpt>
      <trkpt lat="42.87679" lon="0.03859">
        <ele>1244.56</ele>
        <time>2013-02-03T09:26:55Z</time>
      </trkpt>
      <trkpt lat="42.87678" lon="0.03859">
        <ele>1245.53</ele>
        <time>2013-02-03T09:26:59Z</time>
      </trkpt>
      <trkpt lat="42.87668" lon="0.03851">
        <ele>1246.01</ele>
        <time>2013-02-03T09:27:13Z</time>
      </trkpt>
      <trkpt lat="42.8766" lon="0.03842">
        <ele>1247.93</ele>
        <time>2013-02-03T09:27:27Z</time>
      </trkpt>
      <trkpt lat="42.87657" lon="0.03838">
        <ele>1249.85</ele>
        <time>2013-02-03T09:27:34Z</time>
      </trkpt>
      <trkpt lat="42.87651" lon="0.03831">
        <ele>1252.25</ele>
        <time>2013-02-03T09:27:47Z</time>
      </trkpt>
      <trkpt lat="42.87646" lon="0.0383">
        <ele>1253.7</ele>
        <time>2013-02-03T09:27:57Z</time>
      </trkpt>
      <trkpt lat="42.87637" lon="0.03821">
        <ele>1256.1</ele>
        <time>2013-02-03T09:28:11Z</time>
      </trkpt>
      <trkpt lat="42.87626" lon="0.03815">
        <ele>1258.02</ele>
        <time>2013-02-03T09:28:27Z</time>
      </trkpt>
      <trkpt lat="42.87615" lon="0.0381">
        <ele>1259.94</ele>
        <time>2013-02-03T09:28:42Z</time>
      </trkpt>
      <trkpt lat="42.87606" lon="0.03803">
        <ele>1262.83</ele>
        <time>2013-02-03T09:28:55Z</time>
      </trkpt>
      <trkpt lat="42.87598" lon="0.03799">
        <ele>1265.71</ele>
        <time>2013-02-03T09:29:08Z</time>
      </trkpt>
      <trkpt lat="42.87591" lon="0.03796">
        <ele>1267.16</ele>
        <time>2013-02-03T09:29:22Z</time>
      </trkpt>
      <trkpt lat="42.87584" lon="0.03791">
        <ele>1270.04</ele>
        <time>2013-02-03T09:29:36Z</time>
      </trkpt>
      <trkpt lat="42.87578" lon="0.03786">
        <ele>1271.96</ele>
        <time>2013-02-03T09:29:49Z</time>
      </trkpt>
      <trkpt lat="42.8757" lon="0.03779">
        <ele>1275.33</ele>
        <time>2013-02-03T09:30:04Z</time>
      </trkpt>
      <trkpt lat="42.87561" lon="0.03772">
        <ele>1277.25</ele>
        <time>2013-02-03T09:30:19Z</time>
      </trkpt>
      <trkpt lat="42.87551" lon="0.03761">
        <ele>1279.17</ele>
        <time>2013-02-03T09:30:37Z</time>
      </trkpt>
      <trkpt lat="42.87544" lon="0.03754">
        <ele>1281.09</ele>
        <time>2013-02-03T09:30:52Z</time>
      </trkpt>
      <trkpt lat="42.87535" lon="0.03747">
        <ele>1283.98</ele>
        <time>2013-02-03T09:31:07Z</time>
      </trkpt>
      <trkpt lat="42.87526" lon="0.03738">
        <ele>1286.38</ele>
        <time>2013-02-03T09:31:23Z</time>
      </trkpt>
      <trkpt lat="42.87521" lon="0.03733">
        <ele>1288.78</ele>
        <time>2013-02-03T09:31:36Z</time>
      </trkpt>
      <trkpt lat="42.87514" lon="0.03727">
        <ele>1291.67</ele>
        <time>2013-02-03T09:31:53Z</time>
      </trkpt>
      <trkpt lat="42.8751" lon="0.0372">
        <ele>1295.51</ele>
        <time>2013-02-03T09:32:04Z</time>
      </trkpt>
      <trkpt lat="42.87504" lon="0.03716">
        <ele>1297.92</ele>
        <time>2013-02-03T09:32:16Z</time>
      </trkpt>
      <trkpt lat="42.87498" lon="0.03717">
        <ele>1299.84</ele>
        <time>2013-02-03T09:32:27Z</time>
      </trkpt>
      <trkpt lat="42.87493" lon="0.03716">
        <ele>1301.76</ele>
        <time>2013-02-03T09:32:40Z</time>
      </trkpt>
      <trkpt lat="42.8749" lon="0.03724">
        <ele>1304.17</ele>
        <time>2013-02-03T09:32:53Z</time>
      </trkpt>
      <trkpt lat="42.87483" lon="0.03737">
        <ele>1307.53</ele>
        <time>2013-02-03T09:33:09Z</time>
      </trkpt>
      <trkpt lat="42.87479" lon="0.03734">
        <ele>1309.45</ele>
        <time>2013-02-03T09:33:19Z</time>
      </trkpt>
      <trkpt lat="42.87475" lon="0.03725">
        <ele>1311.86</ele>
        <time>2013-02-03T09:33:33Z</time>
      </trkpt>
      <trkpt lat="42.87475" lon="0.03727">
        <ele>1311.86</ele>
        <time>2013-02-03T09:33:35Z</time>
      </trkpt>
      <trkpt lat="42.8747" lon="0.03736">
        <ele>1313.78</ele>
        <time>2013-02-03T09:33:49Z</time>
      </trkpt>
      <trkpt lat="42.87466" lon="0.03743">
        <ele>1316.18</ele>
        <time>2013-02-03T09:34:01Z</time>
      </trkpt>
      <trkpt lat="42.87462" lon="0.03745">
        <ele>1318.59</ele>
        <time>2013-02-03T09:34:15Z</time>
      </trkpt>
      <trkpt lat="42.87458" lon="0.03739">
        <ele>1321.47</ele>
        <time>2013-02-03T09:34:29Z</time>
      </trkpt>
      <trkpt lat="42.87455" lon="0.03744">
        <ele>1322.43</ele>
        <time>2013-02-03T09:34:40Z</time>
      </trkpt>
      <trkpt lat="42.8745" lon="0.03749">
        <ele>1324.83</ele>
        <time>2013-02-03T09:34:54Z</time>
      </trkpt>
      <trkpt lat="42.87447" lon="0.03741">
        <ele>1327.72</ele>
        <time>2013-02-03T09:35:08Z</time>
      </trkpt>
      <trkpt lat="42.87439" lon="0.0374">
        <ele>1330.6</ele>
        <time>2013-02-03T09:35:20Z</time>
      </trkpt>
      <trkpt lat="42.87437" lon="0.03748">
        <ele>1332.52</ele>
        <time>2013-02-03T09:35:33Z</time>
      </trkpt>
      <trkpt lat="42.87433" lon="0.03756">
        <ele>1335.41</ele>
        <time>2013-02-03T09:35:45Z</time>
      </trkpt>
      <trkpt lat="42.87431" lon="0.03761">
        <ele>1336.37</ele>
        <time>2013-02-03T09:35:56Z</time>
      </trkpt>
      <trkpt lat="42.87427" lon="0.03751">
        <ele>1338.77</ele>
        <time>2013-02-03T09:36:11Z</time>
      </trkpt>
      <trkpt lat="42.87421" lon="0.03743">
        <ele>1341.66</ele>
        <time>2013-02-03T09:36:24Z</time>
      </trkpt>
      <trkpt lat="42.87417" lon="0.03735">
        <ele>1343.1</ele>
        <time>2013-02-03T09:36:36Z</time>
      </trkpt>
      <trkpt lat="42.87415" lon="0.03734">
        <ele>1344.54</ele>
        <time>2013-02-03T09:36:39Z</time>
      </trkpt>
      <trkpt lat="42.87412" lon="0.0373">
        <ele>1345.98</ele>
        <time>2013-02-03T09:36:49Z</time>
      </trkpt>
      <trkpt lat="42.8741" lon="0.03735">
        <ele>1346.94</ele>
        <time>2013-02-03T09:37:00Z</time>
      </trkpt>
      <trkpt lat="42.87406" lon="0.03745">
        <ele>1349.35</ele>
        <time>2013-02-03T09:37:13Z</time>
      </trkpt>
      <trkpt lat="42.87404" lon="0.0374">
        <ele>1350.79</ele>
        <time>2013-02-03T09:37:23Z</time>
      </trkpt>
      <trkpt lat="42.87401" lon="0.03733">
        <ele>1352.71</ele>
        <time>2013-02-03T09:37:36Z</time>
      </trkpt>
      <trkpt lat="42.87394" lon="0.03727">
        <ele>1353.67</ele>
        <time>2013-02-03T09:37:49Z</time>
      </trkpt>
      <trkpt lat="42.87396" lon="0.03726">
        <ele>1353.67</ele>
        <time>2013-02-03T09:38:04Z</time>
      </trkpt>
      <trkpt lat="42.87395" lon="0.03726">
        <ele>1353.67</ele>
        <time>2013-02-03T09:38:11Z</time>
      </trkpt>
      <trkpt lat="42.87394" lon="0.03738">
        <ele>1355.12</ele>
        <time>2013-02-03T09:38:22Z</time>
      </trkpt>
      <trkpt lat="42.87394" lon="0.03755">
        <ele>1357.04</ele>
        <time>2013-02-03T09:38:37Z</time>
      </trkpt>
      <trkpt lat="42.8739" lon="0.03756">
        <ele>1358.96</ele>
        <time>2013-02-03T09:38:46Z</time>
      </trkpt>
      <trkpt lat="42.87386" lon="0.03756">
        <ele>1360.88</ele>
        <time>2013-02-03T09:38:52Z</time>
      </trkpt>
      <trkpt lat="42.87378" lon="0.03766">
        <ele>1361.84</ele>
        <time>2013-02-03T09:39:07Z</time>
      </trkpt>
      <trkpt lat="42.8737" lon="0.03768">
        <ele>1363.77</ele>
        <time>2013-02-03T09:39:19Z</time>
      </trkpt>
      <trkpt lat="42.87361" lon="0.03766">
        <ele>1366.17</ele>
        <time>2013-02-03T09:39:33Z</time>
      </trkpt>
      <trkpt lat="42.87352" lon="0.03763">
        <ele>1369.54</ele>
        <time>2013-02-03T09:39:47Z</time>
      </trkpt>
      <trkpt lat="42.87344" lon="0.0376">
        <ele>1372.42</ele>
        <time>2013-02-03T09:40:02Z</time>
      </trkpt>
      <trkpt lat="42.87336" lon="0.03762">
        <ele>1374.82</ele>
        <time>2013-02-03T09:40:14Z</time>
      </trkpt>
      <trkpt lat="42.87331" lon="0.0377">
        <ele>1377.23</ele>
        <time>2013-02-03T09:40:27Z</time>
      </trkpt>
      <trkpt lat="42.87326" lon="0.03778">
        <ele>1379.63</ele>
        <time>2013-02-03T09:40:41Z</time>
      </trkpt>
      <trkpt lat="42.87322" lon="0.03789">
        <ele>1382.51</ele>
        <time>2013-02-03T09:40:58Z</time>
      </trkpt>
      <trkpt lat="42.87317" lon="0.03802">
        <ele>1385.4</ele>
        <time>2013-02-03T09:41:14Z</time>
      </trkpt>
      <trkpt lat="42.87308" lon="0.03808">
        <ele>1388.28</ele>
        <time>2013-02-03T09:41:29Z</time>
      </trkpt>
      <trkpt lat="42.87298" lon="0.03808">
        <ele>1391.17</ele>
        <time>2013-02-03T09:41:45Z</time>
      </trkpt>
      <trkpt lat="42.87291" lon="0.03817">
        <ele>1393.09</ele>
        <time>2013-02-03T09:42:00Z</time>
      </trkpt>
      <trkpt lat="42.87288" lon="0.03826">
        <ele>1395.97</ele>
        <time>2013-02-03T09:42:13Z</time>
      </trkpt>
      <trkpt lat="42.87286" lon="0.03837">
        <ele>1398.86</ele>
        <time>2013-02-03T09:42:30Z</time>
      </trkpt>
      <trkpt lat="42.87284" lon="0.03851">
        <ele>1401.74</ele>
        <time>2013-02-03T09:42:46Z</time>
      </trkpt>
      <trkpt lat="42.8728" lon="0.03856">
        <ele>1404.14</ele>
        <time>2013-02-03T09:43:00Z</time>
      </trkpt>
      <trkpt lat="42.87273" lon="0.03853">
        <ele>1405.58</ele>
        <time>2013-02-03T09:43:12Z</time>
      </trkpt>
      <trkpt lat="42.87269" lon="0.03853">
        <ele>1406.55</ele>
        <time>2013-02-03T09:43:20Z</time>
      </trkpt>
      <trkpt lat="42.87261" lon="0.03853">
        <ele>1408.95</ele>
        <time>2013-02-03T09:43:34Z</time>
      </trkpt>
      <trkpt lat="42.87252" lon="0.0385">
        <ele>1411.83</ele>
        <time>2013-02-03T09:43:48Z</time>
      </trkpt>
      <trkpt lat="42.87246" lon="0.03847">
        <ele>1413.76</ele>
        <time>2013-02-03T09:44:01Z</time>
      </trkpt>
      <trkpt lat="42.8724" lon="0.03843">
        <ele>1415.68</ele>
        <time>2013-02-03T09:44:16Z</time>
      </trkpt>
      <trkpt lat="42.87239" lon="0.03843">
        <ele>1416.64</ele>
        <time>2013-02-03T09:44:29Z</time>
      </trkpt>
      <trkpt lat="42.87238" lon="0.03846">
        <ele>1417.12</ele>
        <time>2013-02-03T09:44:43Z</time>
      </trkpt>
      <trkpt lat="42.87237" lon="0.03848">
        <ele>1417.12</ele>
        <time>2013-02-03T09:44:49Z</time>
      </trkpt>
      <trkpt lat="42.87237" lon="0.03861">
        <ele>1419.52</ele>
        <time>2013-02-03T09:45:05Z</time>
      </trkpt>
      <trkpt lat="42.87238" lon="0.03866">
        <ele>1421.45</ele>
        <time>2013-02-03T09:45:19Z</time>
      </trkpt>
      <trkpt lat="42.87237" lon="0.03874">
        <ele>1422.89</ele>
        <time>2013-02-03T09:45:34Z</time>
      </trkpt>
      <trkpt lat="42.87237" lon="0.03881">
        <ele>1424.81</ele>
        <time>2013-02-03T09:45:45Z</time>
      </trkpt>
      <trkpt lat="42.87237" lon="0.03889">
        <ele>1427.21</ele>
        <time>2013-02-03T09:45:58Z</time>
      </trkpt>
      <trkpt lat="42.87237" lon="0.03896">
        <ele>1429.14</ele>
        <time>2013-02-03T09:46:10Z</time>
      </trkpt>
      <trkpt lat="42.87237" lon="0.03904">
        <ele>1431.06</ele>
        <time>2013-02-03T09:46:23Z</time>
      </trkpt>
      <trkpt lat="42.87238" lon="0.03912">
        <ele>1432.5</ele>
        <time>2013-02-03T09:46:34Z</time>
      </trkpt>
      <trkpt lat="42.87237" lon="0.0392">
        <ele>1435.87</ele>
        <time>2013-02-03T09:46:47Z</time>
      </trkpt>
      <trkpt lat="42.87239" lon="0.0393">
        <ele>1438.27</ele>
        <time>2013-02-03T09:47:01Z</time>
      </trkpt>
      <trkpt lat="42.87239" lon="0.03936">
        <ele>1438.75</ele>
        <time>2013-02-03T09:47:12Z</time>
      </trkpt>
      <trkpt lat="42.87242" lon="0.03945">
        <ele>1438.75</ele>
        <time>2013-02-03T09:47:26Z</time>
      </trkpt>
      <trkpt lat="42.87241" lon="0.03944">
        <ele>1440.19</ele>
        <time>2013-02-03T09:47:36Z</time>
      </trkpt>
      <trkpt lat="42.8724" lon="0.03947">
        <ele>1440.67</ele>
        <time>2013-02-03T09:47:48Z</time>
      </trkpt>
      <trkpt lat="42.8724" lon="0.0395">
        <ele>1441.15</ele>
        <time>2013-02-03T09:47:52Z</time>
      </trkpt>
      <trkpt lat="42.87239" lon="0.0396">
        <ele>1444.04</ele>
        <time>2013-02-03T09:48:07Z</time>
      </trkpt>
      <trkpt lat="42.87238" lon="0.03972">
        <ele>1446.92</ele>
        <time>2013-02-03T09:48:23Z</time>
      </trkpt>
      <trkpt lat="42.87236" lon="0.03971">
        <ele>1447.88</ele>
        <time>2013-02-03T09:48:34Z</time>
      </trkpt>
      <trkpt lat="42.87231" lon="0.03964">
        <ele>1449.81</ele>
        <time>2013-02-03T09:48:47Z</time>
      </trkpt>
      <trkpt lat="42.87228" lon="0.03964">
        <ele>1451.25</ele>
        <time>2013-02-03T09:48:58Z</time>
      </trkpt>
      <trkpt lat="42.87226" lon="0.03974">
        <ele>1453.65</ele>
        <time>2013-02-03T09:49:11Z</time>
      </trkpt>
      <trkpt lat="42.87225" lon="0.03983">
        <ele>1455.57</ele>
        <time>2013-02-03T09:49:24Z</time>
      </trkpt>
      <trkpt lat="42.87221" lon="0.0399">
        <ele>1458.46</ele>
        <time>2013-02-03T09:49:37Z</time>
      </trkpt>
      <trkpt lat="42.87218" lon="0.03984">
        <ele>1461.34</ele>
        <time>2013-02-03T09:49:50Z</time>
      </trkpt>
      <trkpt lat="42.87212" lon="0.03977">
        <ele>1463.26</ele>
        <time>2013-02-03T09:50:05Z</time>
      </trkpt>
      <trkpt lat="42.87205" lon="0.03969">
        <ele>1466.15</ele>
        <time>2013-02-03T09:50:18Z</time>
      </trkpt>
      <trkpt lat="42.87197" lon="0.03961">
        <ele>1468.55</ele>
        <time>2013-02-03T09:50:34Z</time>
      </trkpt>
      <trkpt lat="42.87196" lon="0.03965">
        <ele>1469.51</ele>
        <time>2013-02-03T09:50:45Z</time>
      </trkpt>
      <trkpt lat="42.87192" lon="0.03971">
        <ele>1471.92</ele>
        <time>2013-02-03T09:50:58Z</time>
      </trkpt>
      <trkpt lat="42.87192" lon="0.0397">
        <ele>1472.88</ele>
        <time>2013-02-03T09:51:00Z</time>
      </trkpt>
      <trkpt lat="42.87187" lon="0.03973">
        <ele>1474.8</ele>
        <time>2013-02-03T09:51:14Z</time>
      </trkpt>
      <trkpt lat="42.87189" lon="0.03988">
        <ele>1476.72</ele>
        <time>2013-02-03T09:51:30Z</time>
      </trkpt>
      <trkpt lat="42.87187" lon="0.03997">
        <ele>1479.61</ele>
        <time>2013-02-03T09:51:45Z</time>
      </trkpt>
      <trkpt lat="42.87186" lon="0.04008">
        <ele>1482.49</ele>
        <time>2013-02-03T09:51:59Z</time>
      </trkpt>
      <trkpt lat="42.87184" lon="0.04018">
        <ele>1485.37</ele>
        <time>2013-02-03T09:52:14Z</time>
      </trkpt>
      <trkpt lat="42.87178" lon="0.04011">
        <ele>1486.82</ele>
        <time>2013-02-03T09:52:28Z</time>
      </trkpt>
      <trkpt lat="42.87172" lon="0.04006">
        <ele>1489.22</ele>
        <time>2013-02-03T09:52:42Z</time>
      </trkpt>
      <trkpt lat="42.87164" lon="0.04">
        <ele>1491.62</ele>
        <time>2013-02-03T09:52:55Z</time>
      </trkpt>
      <trkpt lat="42.87163" lon="0.04005">
        <ele>1493.06</ele>
        <time>2013-02-03T09:53:07Z</time>
      </trkpt>
      <trkpt lat="42.87163" lon="0.04016">
        <ele>1494.51</ele>
        <time>2013-02-03T09:53:21Z</time>
      </trkpt>
      <trkpt lat="42.87163" lon="0.04017">
        <ele>1494.99</ele>
        <time>2013-02-03T09:53:22Z</time>
      </trkpt>
      <trkpt lat="42.87161" lon="0.0402">
        <ele>1497.39</ele>
        <time>2013-02-03T09:53:35Z</time>
      </trkpt>
      <trkpt lat="42.87155" lon="0.04018">
        <ele>1499.79</ele>
        <time>2013-02-03T09:53:49Z</time>
      </trkpt>
      <trkpt lat="42.87146" lon="0.04015">
        <ele>1502.68</ele>
        <time>2013-02-03T09:54:03Z</time>
      </trkpt>
      <trkpt lat="42.87141" lon="0.04013">
        <ele>1505.56</ele>
        <time>2013-02-03T09:54:16Z</time>
      </trkpt>
      <trkpt lat="42.87133" lon="0.04012">
        <ele>1508.45</ele>
        <time>2013-02-03T09:54:31Z</time>
      </trkpt>
      <trkpt lat="42.87132" lon="0.0401">
        <ele>1508.93</ele>
        <time>2013-02-03T09:54:41Z</time>
      </trkpt>
      <trkpt lat="42.87124" lon="0.04">
        <ele>1511.33</ele>
        <time>2013-02-03T09:54:57Z</time>
      </trkpt>
      <trkpt lat="42.87116" lon="0.03989">
        <ele>1513.25</ele>
        <time>2013-02-03T09:55:13Z</time>
      </trkpt>
      <trkpt lat="42.87109" lon="0.03982">
        <ele>1515.66</ele>
        <time>2013-02-03T09:55:26Z</time>
      </trkpt>
      <trkpt lat="42.87103" lon="0.03975">
        <ele>1518.54</ele>
        <time>2013-02-03T09:55:41Z</time>
      </trkpt>
      <trkpt lat="42.87093" lon="0.03964">
        <ele>1520.94</ele>
        <time>2013-02-03T09:55:55Z</time>
      </trkpt>
      <trkpt lat="42.87084" lon="0.03954">
        <ele>1522.39</ele>
        <time>2013-02-03T09:56:09Z</time>
      </trkpt>
      <trkpt lat="42.87075" lon="0.03946">
        <ele>1524.31</ele>
        <time>2013-02-03T09:56:23Z</time>
      </trkpt>
      <trkpt lat="42.87064" lon="0.03935">
        <ele>1526.71</ele>
        <time>2013-02-03T09:56:40Z</time>
      </trkpt>
      <trkpt lat="42.87056" lon="0.03928">
        <ele>1528.15</ele>
        <time>2013-02-03T09:56:52Z</time>
      </trkpt>
      <trkpt lat="42.87048" lon="0.03917">
        <ele>1530.56</ele>
        <time>2013-02-03T09:57:08Z</time>
      </trkpt>
      <trkpt lat="42.87036" lon="0.03907">
        <ele>1532.96</ele>
        <time>2013-02-03T09:57:25Z</time>
      </trkpt>
      <trkpt lat="42.87028" lon="0.039">
        <ele>1534.4</ele>
        <time>2013-02-03T09:57:38Z</time>
      </trkpt>
      <trkpt lat="42.87019" lon="0.03889">
        <ele>1535.84</ele>
        <time>2013-02-03T09:57:54Z</time>
      </trkpt>
      <trkpt lat="42.87012" lon="0.03881">
        <ele>1537.77</ele>
        <time>2013-02-03T09:58:06Z</time>
      </trkpt>
      <trkpt lat="42.87004" lon="0.03873">
        <ele>1539.21</ele>
        <time>2013-02-03T09:58:20Z</time>
      </trkpt>
      <trkpt lat="42.86996" lon="0.03865">
        <ele>1541.61</ele>
        <time>2013-02-03T09:58:35Z</time>
      </trkpt>
      <trkpt lat="42.86987" lon="0.03857">
        <ele>1543.53</ele>
        <time>2013-02-03T09:58:50Z</time>
      </trkpt>
      <trkpt lat="42.86979" lon="0.03851">
        <ele>1544.98</ele>
        <time>2013-02-03T09:59:02Z</time>
      </trkpt>
      <trkpt lat="42.86973" lon="0.03846">
        <ele>1548.34</ele>
        <time>2013-02-03T09:59:16Z</time>
      </trkpt>
      <trkpt lat="42.86965" lon="0.0384">
        <ele>1551.22</ele>
        <time>2013-02-03T09:59:31Z</time>
      </trkpt>
      <trkpt lat="42.86958" lon="0.03834">
        <ele>1553.15</ele>
        <time>2013-02-03T09:59:45Z</time>
      </trkpt>
      <trkpt lat="42.86951" lon="0.03827">
        <ele>1556.03</ele>
        <time>2013-02-03T09:59:58Z</time>
      </trkpt>
      <trkpt lat="42.86944" lon="0.03822">
        <ele>1557.95</ele>
        <time>2013-02-03T10:00:10Z</time>
      </trkpt>
      <trkpt lat="42.86937" lon="0.03817">
        <ele>1560.36</ele>
        <time>2013-02-03T10:00:25Z</time>
      </trkpt>
      <trkpt lat="42.86927" lon="0.03813">
        <ele>1563.24</ele>
        <time>2013-02-03T10:00:42Z</time>
      </trkpt>
      <trkpt lat="42.86926" lon="0.03812">
        <ele>1563.24</ele>
        <time>2013-02-03T10:00:43Z</time>
      </trkpt>
      <trkpt lat="42.86916" lon="0.03808">
        <ele>1566.61</ele>
        <time>2013-02-03T10:00:57Z</time>
      </trkpt>
      <trkpt lat="42.8691" lon="0.03804">
        <ele>1567.57</ele>
        <time>2013-02-03T10:01:10Z</time>
      </trkpt>
      <trkpt lat="42.86907" lon="0.03812">
        <ele>1570.45</ele>
        <time>2013-02-03T10:01:24Z</time>
      </trkpt>
      <trkpt lat="42.86908" lon="0.03824">
        <ele>1572.85</ele>
        <time>2013-02-03T10:01:39Z</time>
      </trkpt>
      <trkpt lat="42.86908" lon="0.03836">
        <ele>1574.78</ele>
        <time>2013-02-03T10:01:53Z</time>
      </trkpt>
      <trkpt lat="42.86906" lon="0.03837">
        <ele>1576.22</ele>
        <time>2013-02-03T10:02:02Z</time>
      </trkpt>
      <trkpt lat="42.86903" lon="0.03834">
        <ele>1577.18</ele>
        <time>2013-02-03T10:02:17Z</time>
      </trkpt>
      <trkpt lat="42.86894" lon="0.03828">
        <ele>1580.54</ele>
        <time>2013-02-03T10:02:33Z</time>
      </trkpt>
      <trkpt lat="42.86892" lon="0.03828">
        <ele>1581.99</ele>
        <time>2013-02-03T10:02:37Z</time>
      </trkpt>
      <trkpt lat="42.86892" lon="0.0384">
        <ele>1583.43</ele>
        <time>2013-02-03T10:02:50Z</time>
      </trkpt>
      <trkpt lat="42.86892" lon="0.03851">
        <ele>1585.83</ele>
        <time>2013-02-03T10:03:04Z</time>
      </trkpt>
      <trkpt lat="42.86892" lon="0.03862">
        <ele>1588.24</ele>
        <time>2013-02-03T10:03:20Z</time>
      </trkpt>
      <trkpt lat="42.86891" lon="0.03863">
        <ele>1589.2</ele>
        <time>2013-02-03T10:03:21Z</time>
      </trkpt>
      <trkpt lat="42.86888" lon="0.03863">
        <ele>1591.12</ele>
        <time>2013-02-03T10:03:33Z</time>
      </trkpt>
      <trkpt lat="42.86881" lon="0.03856">
        <ele>1593.52</ele>
        <time>2013-02-03T10:03:48Z</time>
      </trkpt>
      <trkpt lat="42.86873" lon="0.03849">
        <ele>1595.45</ele>
        <time>2013-02-03T10:04:02Z</time>
      </trkpt>
      <trkpt lat="42.86868" lon="0.03845">
        <ele>1597.85</ele>
        <time>2013-02-03T10:04:15Z</time>
      </trkpt>
      <trkpt lat="42.86861" lon="0.03838">
        <ele>1600.73</ele>
        <time>2013-02-03T10:04:28Z</time>
      </trkpt>
      <trkpt lat="42.86859" lon="0.03841">
        <ele>1601.69</ele>
        <time>2013-02-03T10:04:38Z</time>
      </trkpt>
      <trkpt lat="42.86857" lon="0.03854">
        <ele>1603.62</ele>
        <time>2013-02-03T10:04:53Z</time>
      </trkpt>
      <trkpt lat="42.86856" lon="0.03868">
        <ele>1606.5</ele>
        <time>2013-02-03T10:05:09Z</time>
      </trkpt>
      <trkpt lat="42.86849" lon="0.03865">
        <ele>1608.42</ele>
        <time>2013-02-03T10:05:22Z</time>
      </trkpt>
      <trkpt lat="42.86843" lon="0.03858">
        <ele>1611.31</ele>
        <time>2013-02-03T10:05:37Z</time>
      </trkpt>
      <trkpt lat="42.86836" lon="0.03853">
        <ele>1613.23</ele>
        <time>2013-02-03T10:05:51Z</time>
      </trkpt>
      <trkpt lat="42.86827" lon="0.03847">
        <ele>1615.15</ele>
        <time>2013-02-03T10:06:05Z</time>
      </trkpt>
      <trkpt lat="42.86819" lon="0.03842">
        <ele>1618.04</ele>
        <time>2013-02-03T10:06:21Z</time>
      </trkpt>
      <trkpt lat="42.8681" lon="0.03835">
        <ele>1620.44</ele>
        <time>2013-02-03T10:06:37Z</time>
      </trkpt>
      <trkpt lat="42.86804" lon="0.03831">
        <ele>1623.32</ele>
        <time>2013-02-03T10:06:51Z</time>
      </trkpt>
      <trkpt lat="42.86796" lon="0.03826">
        <ele>1625.73</ele>
        <time>2013-02-03T10:07:05Z</time>
      </trkpt>
      <trkpt lat="42.86788" lon="0.03824">
        <ele>1628.61</ele>
        <time>2013-02-03T10:07:20Z</time>
      </trkpt>
      <trkpt lat="42.86781" lon="0.03817">
        <ele>1631.01</ele>
        <time>2013-02-03T10:07:33Z</time>
      </trkpt>
      <trkpt lat="42.86772" lon="0.03811">
        <ele>1633.42</ele>
        <time>2013-02-03T10:07:48Z</time>
      </trkpt>
      <trkpt lat="42.86765" lon="0.03809">
        <ele>1635.82</ele>
        <time>2013-02-03T10:08:02Z</time>
      </trkpt>
      <trkpt lat="42.86756" lon="0.03805">
        <ele>1638.22</ele>
        <time>2013-02-03T10:08:17Z</time>
      </trkpt>
      <trkpt lat="42.86744" lon="0.038">
        <ele>1640.15</ele>
        <time>2013-02-03T10:08:33Z</time>
      </trkpt>
      <trkpt lat="42.86735" lon="0.03799">
        <ele>1642.07</ele>
        <time>2013-02-03T10:08:47Z</time>
      </trkpt>
      <trkpt lat="42.8673" lon="0.03796">
        <ele>1642.55</ele>
        <time>2013-02-03T10:09:02Z</time>
      </trkpt>
      <trkpt lat="42.8672" lon="0.03794">
        <ele>1643.51</ele>
        <time>2013-02-03T10:09:14Z</time>
      </trkpt>
      <trkpt lat="42.86709" lon="0.03792">
        <ele>1645.43</ele>
        <time>2013-02-03T10:09:29Z</time>
      </trkpt>
      <trkpt lat="42.86701" lon="0.03788">
        <ele>1645.91</ele>
        <time>2013-02-03T10:09:38Z</time>
      </trkpt>
      <trkpt lat="42.86688" lon="0.0378">
        <ele>1649.28</ele>
        <time>2013-02-03T10:09:56Z</time>
      </trkpt>
      <trkpt lat="42.86678" lon="0.03773">
        <ele>1651.68</ele>
        <time>2013-02-03T10:10:11Z</time>
      </trkpt>
      <trkpt lat="42.86669" lon="0.03768">
        <ele>1654.09</ele>
        <time>2013-02-03T10:10:27Z</time>
      </trkpt>
      <trkpt lat="42.8666" lon="0.03764">
        <ele>1655.53</ele>
        <time>2013-02-03T10:10:42Z</time>
      </trkpt>
      <trkpt lat="42.86652" lon="0.03765">
        <ele>1657.45</ele>
        <time>2013-02-03T10:10:56Z</time>
      </trkpt>
      <trkpt lat="42.86651" lon="0.03764">
        <ele>1657.93</ele>
        <time>2013-02-03T10:11:09Z</time>
      </trkpt>
      <trkpt lat="42.86643" lon="0.03767">
        <ele>1659.37</ele>
        <time>2013-02-03T10:11:22Z</time>
      </trkpt>
      <trkpt lat="42.86644" lon="0.03765">
        <ele>1659.37</ele>
        <time>2013-02-03T10:11:36Z</time>
      </trkpt>
      <trkpt lat="42.86641" lon="0.03768">
        <ele>1661.3</ele>
        <time>2013-02-03T10:11:49Z</time>
      </trkpt>
      <trkpt lat="42.86628" lon="0.03775">
        <ele>1664.18</ele>
        <time>2013-02-03T10:12:07Z</time>
      </trkpt>
      <trkpt lat="42.86624" lon="0.03774">
        <ele>1665.14</ele>
        <time>2013-02-03T10:12:24Z</time>
      </trkpt>
      <trkpt lat="42.86615" lon="0.03779">
        <ele>1667.54</ele>
        <time>2013-02-03T10:12:37Z</time>
      </trkpt>
      <trkpt lat="42.86609" lon="0.03782">
        <ele>1669.47</ele>
        <time>2013-02-03T10:12:49Z</time>
      </trkpt>
      <trkpt lat="42.86603" lon="0.03784">
        <ele>1670.91</ele>
        <time>2013-02-03T10:13:02Z</time>
      </trkpt>
      <trkpt lat="42.86594" lon="0.03788">
        <ele>1674.27</ele>
        <time>2013-02-03T10:13:17Z</time>
      </trkpt>
      <trkpt lat="42.86584" lon="0.03792">
        <ele>1677.16</ele>
        <time>2013-02-03T10:13:34Z</time>
      </trkpt>
      <trkpt lat="42.86574" lon="0.03794">
        <ele>1679.56</ele>
        <time>2013-02-03T10:13:49Z</time>
      </trkpt>
      <trkpt lat="42.86571" lon="0.03796">
        <ele>1681.96</ele>
        <time>2013-02-03T10:14:04Z</time>
      </trkpt>
      <trkpt lat="42.8656" lon="0.038">
        <ele>1684.85</ele>
        <time>2013-02-03T10:14:19Z</time>
      </trkpt>
      <trkpt lat="42.86549" lon="0.03804">
        <ele>1686.77</ele>
        <time>2013-02-03T10:14:34Z</time>
      </trkpt>
      <trkpt lat="42.86543" lon="0.03809">
        <ele>1689.65</ele>
        <time>2013-02-03T10:14:50Z</time>
      </trkpt>
      <trkpt lat="42.86535" lon="0.03811">
        <ele>1693.5</ele>
        <time>2013-02-03T10:15:01Z</time>
      </trkpt>
      <trkpt lat="42.86528" lon="0.03813">
        <ele>1695.42</ele>
        <time>2013-02-03T10:15:11Z</time>
      </trkpt>
      <trkpt lat="42.86521" lon="0.03816">
        <ele>1698.31</ele>
        <time>2013-02-03T10:15:23Z</time>
      </trkpt>
      <trkpt lat="42.86514" lon="0.03818">
        <ele>1700.23</ele>
        <time>2013-02-03T10:15:37Z</time>
      </trkpt>
      <trkpt lat="42.86511" lon="0.03819">
        <ele>1701.67</ele>
        <time>2013-02-03T10:15:40Z</time>
      </trkpt>
      <trkpt lat="42.86501" lon="0.03821">
        <ele>1703.59</ele>
        <time>2013-02-03T10:15:54Z</time>
      </trkpt>
      <trkpt lat="42.86492" lon="0.0382">
        <ele>1706</ele>
        <time>2013-02-03T10:16:07Z</time>
      </trkpt>
      <trkpt lat="42.86486" lon="0.03821">
        <ele>1707.44</ele>
        <time>2013-02-03T10:16:21Z</time>
      </trkpt>
      <trkpt lat="42.86477" lon="0.03825">
        <ele>1710.8</ele>
        <time>2013-02-03T10:16:36Z</time>
      </trkpt>
      <trkpt lat="42.86467" lon="0.03827">
        <ele>1713.69</ele>
        <time>2013-02-03T10:16:51Z</time>
      </trkpt>
      <trkpt lat="42.86456" lon="0.03829">
        <ele>1715.13</ele>
        <time>2013-02-03T10:17:07Z</time>
      </trkpt>
      <trkpt lat="42.86447" lon="0.0383">
        <ele>1718.01</ele>
        <time>2013-02-03T10:17:21Z</time>
      </trkpt>
      <trkpt lat="42.86433" lon="0.0383">
        <ele>1719.94</ele>
        <time>2013-02-03T10:17:36Z</time>
      </trkpt>
      <trkpt lat="42.86423" lon="0.03831">
        <ele>1722.34</ele>
        <time>2013-02-03T10:17:49Z</time>
      </trkpt>
      <trkpt lat="42.86421" lon="0.0383">
        <ele>1722.82</ele>
        <time>2013-02-03T10:17:52Z</time>
      </trkpt>
      <trkpt lat="42.86414" lon="0.03831">
        <ele>1724.26</ele>
        <time>2013-02-03T10:18:07Z</time>
      </trkpt>
      <trkpt lat="42.86413" lon="0.03832">
        <ele>1724.74</ele>
        <time>2013-02-03T10:18:26Z</time>
      </trkpt>
      <trkpt lat="42.86414" lon="0.03833">
        <ele>1723.3</ele>
        <time>2013-02-03T10:18:43Z</time>
      </trkpt>
      <trkpt lat="42.86413" lon="0.03831">
        <ele>1722.82</ele>
        <time>2013-02-03T10:19:07Z</time>
      </trkpt>
      <trkpt lat="42.86413" lon="0.03832">
        <ele>1723.78</ele>
        <time>2013-02-03T10:19:28Z</time>
      </trkpt>
      <trkpt lat="42.86412" lon="0.03834">
        <ele>1720.9</ele>
        <time>2013-02-03T10:19:45Z</time>
      </trkpt>
      <trkpt lat="42.86412" lon="0.03834">
        <ele>1725.22</ele>
        <time>2013-02-03T10:19:46Z</time>
      </trkpt>
      <trkpt lat="42.86414" lon="0.03835">
        <ele>1722.34</ele>
        <time>2013-02-03T10:19:51Z</time>
      </trkpt>
      <trkpt lat="42.86413" lon="0.03835">
        <ele>1722.34</ele>
        <time>2013-02-03T10:20:12Z</time>
      </trkpt>
      <trkpt lat="42.86413" lon="0.03836">
        <ele>1722.34</ele>
        <time>2013-02-03T10:20:48Z</time>
      </trkpt>
      <trkpt lat="42.86412" lon="0.03839">
        <ele>1722.34</ele>
        <time>2013-02-03T10:21:22Z</time>
      </trkpt>
      <trkpt lat="42.86412" lon="0.03832">
        <ele>1722.34</ele>
        <time>2013-02-03T10:21:53Z</time>
      </trkpt>
      <trkpt lat="42.86412" lon="0.03834">
        <ele>1722.34</ele>
        <time>2013-02-03T10:22:22Z</time>
      </trkpt>
      <trkpt lat="42.86414" lon="0.03834">
        <ele>1722.34</ele>
        <time>2013-02-03T10:22:56Z</time>
      </trkpt>
      <trkpt lat="42.86414" lon="0.03834">
        <ele>1721.86</ele>
        <time>2013-02-03T10:23:32Z</time>
      </trkpt>
      <trkpt lat="42.86414" lon="0.03834">
        <ele>1721.38</ele>
        <time>2013-02-03T10:23:37Z</time>
      </trkpt>
      <trkpt lat="42.86414" lon="0.03836">
        <ele>1721.38</ele>
        <time>2013-02-03T10:24:03Z</time>
      </trkpt>
      <trkpt lat="42.86414" lon="0.03834">
        <ele>1721.38</ele>
        <time>2013-02-03T10:24:29Z</time>
      </trkpt>
      <trkpt lat="42.86413" lon="0.03835">
        <ele>1722.34</ele>
        <time>2013-02-03T10:24:57Z</time>
      </trkpt>
      <trkpt lat="42.86415" lon="0.03836">
        <ele>1721.38</ele>
        <time>2013-02-03T10:25:33Z</time>
      </trkpt>
      <trkpt lat="42.86415" lon="0.03836">
        <ele>1720.42</ele>
        <time>2013-02-03T10:26:16Z</time>
      </trkpt>
      <trkpt lat="42.86415" lon="0.03835">
        <ele>1719.94</ele>
        <time>2013-02-03T10:26:57Z</time>
      </trkpt>
      <trkpt lat="42.86416" lon="0.03834">
        <ele>1719.46</ele>
        <time>2013-02-03T10:27:25Z</time>
      </trkpt>
      <trkpt lat="42.86415" lon="0.03834">
        <ele>1718.97</ele>
        <time>2013-02-03T10:28:02Z</time>
      </trkpt>
      <trkpt lat="42.86416" lon="0.03834">
        <ele>1719.46</ele>
        <time>2013-02-03T10:28:35Z</time>
      </trkpt>
      <trkpt lat="42.86416" lon="0.03834">
        <ele>1718.97</ele>
        <time>2013-02-03T10:29:02Z</time>
      </trkpt>
      <trkpt lat="42.86416" lon="0.03834">
        <ele>1718.97</ele>
        <time>2013-02-03T10:29:39Z</time>
      </trkpt>
      <trkpt lat="42.86415" lon="0.03834">
        <ele>1717.53</ele>
        <time>2013-02-03T10:30:17Z</time>
      </trkpt>
      <trkpt lat="42.86416" lon="0.03832">
        <ele>1718.49</ele>
        <time>2013-02-03T10:30:30Z</time>
      </trkpt>
      <trkpt lat="42.86414" lon="0.03833">
        <ele>1718.49</ele>
        <time>2013-02-03T10:30:46Z</time>
      </trkpt>
      <trkpt lat="42.86411" lon="0.03845">
        <ele>1718.97</ele>
        <time>2013-02-03T10:31:02Z</time>
      </trkpt>
      <trkpt lat="42.86408" lon="0.03858">
        <ele>1721.86</ele>
        <time>2013-02-03T10:31:17Z</time>
      </trkpt>
      <trkpt lat="42.86404" lon="0.03872">
        <ele>1725.22</ele>
        <time>2013-02-03T10:31:35Z</time>
      </trkpt>
      <trkpt lat="42.86398" lon="0.03888">
        <ele>1727.63</ele>
        <time>2013-02-03T10:31:54Z</time>
      </trkpt>
      <trkpt lat="42.86397" lon="0.03901">
        <ele>1729.07</ele>
        <time>2013-02-03T10:32:09Z</time>
      </trkpt>
      <trkpt lat="42.86396" lon="0.03913">
        <ele>1730.99</ele>
        <time>2013-02-03T10:32:26Z</time>
      </trkpt>
      <trkpt lat="42.86395" lon="0.03926">
        <ele>1733.88</ele>
        <time>2013-02-03T10:32:43Z</time>
      </trkpt>
      <trkpt lat="42.86395" lon="0.03932">
        <ele>1735.32</ele>
        <time>2013-02-03T10:32:51Z</time>
      </trkpt>
      <trkpt lat="42.86393" lon="0.03948">
        <ele>1736.28</ele>
        <time>2013-02-03T10:33:08Z</time>
      </trkpt>
      <trkpt lat="42.86388" lon="0.03954">
        <ele>1739.64</ele>
        <time>2013-02-03T10:33:20Z</time>
      </trkpt>
      <trkpt lat="42.8638" lon="0.03953">
        <ele>1742.05</ele>
        <time>2013-02-03T10:33:36Z</time>
      </trkpt>
      <trkpt lat="42.86372" lon="0.0395">
        <ele>1743.49</ele>
        <time>2013-02-03T10:33:51Z</time>
      </trkpt>
      <trkpt lat="42.86364" lon="0.03949">
        <ele>1745.41</ele>
        <time>2013-02-03T10:34:05Z</time>
      </trkpt>
      <trkpt lat="42.86351" lon="0.0395">
        <ele>1748.29</ele>
        <time>2013-02-03T10:34:23Z</time>
      </trkpt>
      <trkpt lat="42.86343" lon="0.0395">
        <ele>1750.7</ele>
        <time>2013-02-03T10:34:38Z</time>
      </trkpt>
      <trkpt lat="42.86334" lon="0.03951">
        <ele>1753.1</ele>
        <time>2013-02-03T10:34:53Z</time>
      </trkpt>
      <trkpt lat="42.86323" lon="0.03954">
        <ele>1755.99</ele>
        <time>2013-02-03T10:35:11Z</time>
      </trkpt>
      <trkpt lat="42.86315" lon="0.03954">
        <ele>1758.39</ele>
        <time>2013-02-03T10:35:26Z</time>
      </trkpt>
      <trkpt lat="42.86307" lon="0.03955">
        <ele>1760.79</ele>
        <time>2013-02-03T10:35:41Z</time>
      </trkpt>
      <trkpt lat="42.863" lon="0.03955">
        <ele>1763.68</ele>
        <time>2013-02-03T10:36:01Z</time>
      </trkpt>
      <trkpt lat="42.86292" lon="0.03952">
        <ele>1766.08</ele>
        <time>2013-02-03T10:36:16Z</time>
      </trkpt>
      <trkpt lat="42.86285" lon="0.03949">
        <ele>1768</ele>
        <time>2013-02-03T10:36:32Z</time>
      </trkpt>
      <trkpt lat="42.86275" lon="0.03946">
        <ele>1770.89</ele>
        <time>2013-02-03T10:36:47Z</time>
      </trkpt>
      <trkpt lat="42.86266" lon="0.03943">
        <ele>1772.81</ele>
        <time>2013-02-03T10:37:03Z</time>
      </trkpt>
      <trkpt lat="42.8626" lon="0.03942">
        <ele>1775.21</ele>
        <time>2013-02-03T10:37:17Z</time>
      </trkpt>
      <trkpt lat="42.86251" lon="0.03938">
        <ele>1778.1</ele>
        <time>2013-02-03T10:37:33Z</time>
      </trkpt>
      <trkpt lat="42.86242" lon="0.03935">
        <ele>1780.02</ele>
        <time>2013-02-03T10:37:49Z</time>
      </trkpt>
      <trkpt lat="42.86238" lon="0.03935">
        <ele>1782.42</ele>
        <time>2013-02-03T10:37:56Z</time>
      </trkpt>
      <trkpt lat="42.86234" lon="0.03935">
        <ele>1783.38</ele>
        <time>2013-02-03T10:38:02Z</time>
      </trkpt>
      <trkpt lat="42.86227" lon="0.03934">
        <ele>1785.79</ele>
        <time>2013-02-03T10:38:18Z</time>
      </trkpt>
      <trkpt lat="42.8622" lon="0.03934">
        <ele>1787.23</ele>
        <time>2013-02-03T10:38:33Z</time>
      </trkpt>
      <trkpt lat="42.86212" lon="0.03933">
        <ele>1790.11</ele>
        <time>2013-02-03T10:38:47Z</time>
      </trkpt>
      <trkpt lat="42.86205" lon="0.03931">
        <ele>1793</ele>
        <time>2013-02-03T10:39:06Z</time>
      </trkpt>
      <trkpt lat="42.86195" lon="0.03928">
        <ele>1794.92</ele>
        <time>2013-02-03T10:39:19Z</time>
      </trkpt>
      <trkpt lat="42.86186" lon="0.03924">
        <ele>1798.28</ele>
        <time>2013-02-03T10:39:36Z</time>
      </trkpt>
      <trkpt lat="42.86177" lon="0.03921">
        <ele>1800.69</ele>
        <time>2013-02-03T10:39:52Z</time>
      </trkpt>
      <trkpt lat="42.86174" lon="0.0392">
        <ele>1803.09</ele>
        <time>2013-02-03T10:40:03Z</time>
      </trkpt>
      <trkpt lat="42.86163" lon="0.03926">
        <ele>1805.97</ele>
        <time>2013-02-03T10:40:19Z</time>
      </trkpt>
      <trkpt lat="42.86157" lon="0.03936">
        <ele>1808.86</ele>
        <time>2013-02-03T10:40:34Z</time>
      </trkpt>
      <trkpt lat="42.86149" lon="0.03946">
        <ele>1812.22</ele>
        <time>2013-02-03T10:40:52Z</time>
      </trkpt>
      <trkpt lat="42.86141" lon="0.03957">
        <ele>1815.11</ele>
        <time>2013-02-03T10:41:11Z</time>
      </trkpt>
      <trkpt lat="42.86133" lon="0.03969">
        <ele>1818.47</ele>
        <time>2013-02-03T10:41:29Z</time>
      </trkpt>
      <trkpt lat="42.86129" lon="0.03979">
        <ele>1821.35</ele>
        <time>2013-02-03T10:41:45Z</time>
      </trkpt>
      <trkpt lat="42.86121" lon="0.03989">
        <ele>1824.24</ele>
        <time>2013-02-03T10:42:03Z</time>
      </trkpt>
      <trkpt lat="42.86115" lon="0.04002">
        <ele>1828.08</ele>
        <time>2013-02-03T10:42:20Z</time>
      </trkpt>
      <trkpt lat="42.86112" lon="0.03997">
        <ele>1830.01</ele>
        <time>2013-02-03T10:42:35Z</time>
      </trkpt>
      <trkpt lat="42.86107" lon="0.0399">
        <ele>1831.45</ele>
        <time>2013-02-03T10:42:52Z</time>
      </trkpt>
      <trkpt lat="42.86101" lon="0.03979">
        <ele>1834.81</ele>
        <time>2013-02-03T10:43:09Z</time>
      </trkpt>
      <trkpt lat="42.86094" lon="0.0397">
        <ele>1837.22</ele>
        <time>2013-02-03T10:43:25Z</time>
      </trkpt>
      <trkpt lat="42.86088" lon="0.03963">
        <ele>1840.58</ele>
        <time>2013-02-03T10:43:40Z</time>
      </trkpt>
      <trkpt lat="42.8608" lon="0.03956">
        <ele>1842.98</ele>
        <time>2013-02-03T10:43:56Z</time>
      </trkpt>
      <trkpt lat="42.86074" lon="0.0395">
        <ele>1845.39</ele>
        <time>2013-02-03T10:44:11Z</time>
      </trkpt>
      <trkpt lat="42.86071" lon="0.03948">
        <ele>1847.31</ele>
        <time>2013-02-03T10:44:25Z</time>
      </trkpt>
      <trkpt lat="42.86068" lon="0.03951">
        <ele>1848.27</ele>
        <time>2013-02-03T10:44:29Z</time>
      </trkpt>
      <trkpt lat="42.86064" lon="0.03965">
        <ele>1850.68</ele>
        <time>2013-02-03T10:44:46Z</time>
      </trkpt>
      <trkpt lat="42.86061" lon="0.03977">
        <ele>1853.56</ele>
        <time>2013-02-03T10:45:01Z</time>
      </trkpt>
      <trkpt lat="42.86055" lon="0.0399">
        <ele>1856.92</ele>
        <time>2013-02-03T10:45:20Z</time>
      </trkpt>
      <trkpt lat="42.86049" lon="0.04001">
        <ele>1859.33</ele>
        <time>2013-02-03T10:45:38Z</time>
      </trkpt>
      <trkpt lat="42.86047" lon="0.04005">
        <ele>1862.21</ele>
        <time>2013-02-03T10:45:51Z</time>
      </trkpt>
      <trkpt lat="42.86045" lon="0.04001">
        <ele>1863.17</ele>
        <time>2013-02-03T10:45:57Z</time>
      </trkpt>
      <trkpt lat="42.86039" lon="0.03986">
        <ele>1865.58</ele>
        <time>2013-02-03T10:46:16Z</time>
      </trkpt>
      <trkpt lat="42.86035" lon="0.03978">
        <ele>1868.46</ele>
        <time>2013-02-03T10:46:31Z</time>
      </trkpt>
      <trkpt lat="42.86028" lon="0.03969">
        <ele>1871.34</ele>
        <time>2013-02-03T10:46:48Z</time>
      </trkpt>
      <trkpt lat="42.86023" lon="0.03962">
        <ele>1873.75</ele>
        <time>2013-02-03T10:47:04Z</time>
      </trkpt>
      <trkpt lat="42.86017" lon="0.03966">
        <ele>1875.19</ele>
        <time>2013-02-03T10:47:15Z</time>
      </trkpt>
      <trkpt lat="42.86014" lon="0.03978">
        <ele>1877.59</ele>
        <time>2013-02-03T10:47:32Z</time>
      </trkpt>
      <trkpt lat="42.86011" lon="0.0399">
        <ele>1880.96</ele>
        <time>2013-02-03T10:47:48Z</time>
      </trkpt>
      <trkpt lat="42.86007" lon="0.04003">
        <ele>1883.84</ele>
        <time>2013-02-03T10:48:05Z</time>
      </trkpt>
      <trkpt lat="42.86005" lon="0.04017">
        <ele>1887.21</ele>
        <time>2013-02-03T10:48:23Z</time>
      </trkpt>
      <trkpt lat="42.86003" lon="0.04026">
        <ele>1890.09</ele>
        <time>2013-02-03T10:48:38Z</time>
      </trkpt>
      <trkpt lat="42.86" lon="0.04022">
        <ele>1891.53</ele>
        <time>2013-02-03T10:48:57Z</time>
      </trkpt>
      <trkpt lat="42.85993" lon="0.04008">
        <ele>1894.9</ele>
        <time>2013-02-03T10:49:16Z</time>
      </trkpt>
      <trkpt lat="42.85987" lon="0.03999">
        <ele>1897.3</ele>
        <time>2013-02-03T10:49:31Z</time>
      </trkpt>
      <trkpt lat="42.85983" lon="0.03992">
        <ele>1899.22</ele>
        <time>2013-02-03T10:49:52Z</time>
      </trkpt>
      <trkpt lat="42.85977" lon="0.0398">
        <ele>1902.11</ele>
        <time>2013-02-03T10:50:08Z</time>
      </trkpt>
      <trkpt lat="42.8597" lon="0.03971">
        <ele>1904.51</ele>
        <time>2013-02-03T10:50:25Z</time>
      </trkpt>
      <trkpt lat="42.85962" lon="0.03961">
        <ele>1907.39</ele>
        <time>2013-02-03T10:50:43Z</time>
      </trkpt>
      <trkpt lat="42.85959" lon="0.03955">
        <ele>1909.8</ele>
        <time>2013-02-03T10:51:01Z</time>
      </trkpt>
      <trkpt lat="42.85951" lon="0.03944">
        <ele>1911.72</ele>
        <time>2013-02-03T10:51:18Z</time>
      </trkpt>
      <trkpt lat="42.85953" lon="0.03945">
        <ele>1911.24</ele>
        <time>2013-02-03T10:51:45Z</time>
      </trkpt>
      <trkpt lat="42.85951" lon="0.03944">
        <ele>1910.76</ele>
        <time>2013-02-03T10:52:09Z</time>
      </trkpt>
      <trkpt lat="42.8595" lon="0.03945">
        <ele>1909.32</ele>
        <time>2013-02-03T10:52:26Z</time>
      </trkpt>
      <trkpt lat="42.85952" lon="0.03946">
        <ele>1908.83</ele>
        <time>2013-02-03T10:53:04Z</time>
      </trkpt>
      <trkpt lat="42.85951" lon="0.03946">
        <ele>1910.28</ele>
        <time>2013-02-03T10:53:34Z</time>
      </trkpt>
      <trkpt lat="42.85952" lon="0.03943">
        <ele>1910.28</ele>
        <time>2013-02-03T10:53:53Z</time>
      </trkpt>
      <trkpt lat="42.85951" lon="0.03942">
        <ele>1910.76</ele>
        <time>2013-02-03T10:53:55Z</time>
      </trkpt>
      <trkpt lat="42.85944" lon="0.0395">
        <ele>1913.64</ele>
        <time>2013-02-03T10:54:08Z</time>
      </trkpt>
      <trkpt lat="42.85942" lon="0.0395">
        <ele>1915.56</ele>
        <time>2013-02-03T10:54:14Z</time>
      </trkpt>
      <trkpt lat="42.8594" lon="0.03947">
        <ele>1916.04</ele>
        <time>2013-02-03T10:54:19Z</time>
      </trkpt>
      <trkpt lat="42.85932" lon="0.03943">
        <ele>1917.97</ele>
        <time>2013-02-03T10:54:34Z</time>
      </trkpt>
      <trkpt lat="42.85925" lon="0.03939">
        <ele>1920.85</ele>
        <time>2013-02-03T10:54:49Z</time>
      </trkpt>
      <trkpt lat="42.85914" lon="0.03934">
        <ele>1923.25</ele>
        <time>2013-02-03T10:55:06Z</time>
      </trkpt>
      <trkpt lat="42.85907" lon="0.0393">
        <ele>1926.62</ele>
        <time>2013-02-03T10:55:23Z</time>
      </trkpt>
      <trkpt lat="42.85899" lon="0.03925">
        <ele>1928.06</ele>
        <time>2013-02-03T10:55:39Z</time>
      </trkpt>
      <trkpt lat="42.85896" lon="0.03925">
        <ele>1929.98</ele>
        <time>2013-02-03T10:55:49Z</time>
      </trkpt>
      <trkpt lat="42.85886" lon="0.03917">
        <ele>1932.87</ele>
        <time>2013-02-03T10:56:06Z</time>
      </trkpt>
      <trkpt lat="42.85881" lon="0.03915">
        <ele>1935.27</ele>
        <time>2013-02-03T10:56:20Z</time>
      </trkpt>
      <trkpt lat="42.85878" lon="0.03918">
        <ele>1936.23</ele>
        <time>2013-02-03T10:56:33Z</time>
      </trkpt>
      <trkpt lat="42.85875" lon="0.03928">
        <ele>1939.6</ele>
        <time>2013-02-03T10:56:48Z</time>
      </trkpt>
      <trkpt lat="42.85871" lon="0.03937">
        <ele>1942.48</ele>
        <time>2013-02-03T10:57:03Z</time>
      </trkpt>
      <trkpt lat="42.85869" lon="0.03943">
        <ele>1944.4</ele>
        <time>2013-02-03T10:57:16Z</time>
      </trkpt>
      <trkpt lat="42.85866" lon="0.03948">
        <ele>1946.33</ele>
        <time>2013-02-03T10:57:32Z</time>
      </trkpt>
      <trkpt lat="42.85865" lon="0.03953">
        <ele>1948.25</ele>
        <time>2013-02-03T10:57:43Z</time>
      </trkpt>
      <trkpt lat="42.85862" lon="0.03964">
        <ele>1951.13</ele>
        <time>2013-02-03T10:57:58Z</time>
      </trkpt>
      <trkpt lat="42.85863" lon="0.03958">
        <ele>1951.13</ele>
        <time>2013-02-03T10:58:13Z</time>
      </trkpt>
      <trkpt lat="42.85859" lon="0.03951">
        <ele>1954.98</ele>
        <time>2013-02-03T10:58:28Z</time>
      </trkpt>
      <trkpt lat="42.85855" lon="0.03947">
        <ele>1955.46</ele>
        <time>2013-02-03T10:58:47Z</time>
      </trkpt>
      <trkpt lat="42.85854" lon="0.03946">
        <ele>1955.94</ele>
        <time>2013-02-03T10:58:48Z</time>
      </trkpt>
      <trkpt lat="42.85848" lon="0.03938">
        <ele>1959.3</ele>
        <time>2013-02-03T10:59:00Z</time>
      </trkpt>
      <trkpt lat="42.85843" lon="0.03934">
        <ele>1961.23</ele>
        <time>2013-02-03T10:59:14Z</time>
      </trkpt>
      <trkpt lat="42.85837" lon="0.03927">
        <ele>1962.19</ele>
        <time>2013-02-03T10:59:27Z</time>
      </trkpt>
      <trkpt lat="42.85836" lon="0.03927">
        <ele>1963.15</ele>
        <time>2013-02-03T10:59:37Z</time>
      </trkpt>
      <trkpt lat="42.85832" lon="0.03921">
        <ele>1964.59</ele>
        <time>2013-02-03T10:59:49Z</time>
      </trkpt>
      <trkpt lat="42.8583" lon="0.03922">
        <ele>1965.07</ele>
        <time>2013-02-03T11:00:02Z</time>
      </trkpt>
      <trkpt lat="42.85828" lon="0.03932">
        <ele>1967.48</ele>
        <time>2013-02-03T11:00:19Z</time>
      </trkpt>
      <trkpt lat="42.85826" lon="0.03943">
        <ele>1968.92</ele>
        <time>2013-02-03T11:00:33Z</time>
      </trkpt>
      <trkpt lat="42.85824" lon="0.03952">
        <ele>1971.8</ele>
        <time>2013-02-03T11:00:46Z</time>
      </trkpt>
      <trkpt lat="42.85822" lon="0.0396">
        <ele>1974.2</ele>
        <time>2013-02-03T11:01:02Z</time>
      </trkpt>
      <trkpt lat="42.8582" lon="0.03969">
        <ele>1975.65</ele>
        <time>2013-02-03T11:01:23Z</time>
      </trkpt>
      <trkpt lat="42.85818" lon="0.03977">
        <ele>1977.57</ele>
        <time>2013-02-03T11:01:39Z</time>
      </trkpt>
      <trkpt lat="42.85817" lon="0.0398">
        <ele>1978.53</ele>
        <time>2013-02-03T11:01:53Z</time>
      </trkpt>
      <trkpt lat="42.85818" lon="0.0398">
        <ele>1974.69</ele>
        <time>2013-02-03T11:02:03Z</time>
      </trkpt>
      <trkpt lat="42.85819" lon="0.0398">
        <ele>1974.69</ele>
        <time>2013-02-03T11:02:04Z</time>
      </trkpt>
      <trkpt lat="42.85819" lon="0.03981">
        <ele>1977.09</ele>
        <time>2013-02-03T11:02:06Z</time>
      </trkpt>
      <trkpt lat="42.85819" lon="0.03982">
        <ele>1977.09</ele>
        <time>2013-02-03T11:02:35Z</time>
      </trkpt>
      <trkpt lat="42.8582" lon="0.03979">
        <ele>1976.13</ele>
        <time>2013-02-03T11:03:05Z</time>
      </trkpt>
      <trkpt lat="42.85819" lon="0.03979">
        <ele>1978.05</ele>
        <time>2013-02-03T11:03:15Z</time>
      </trkpt>
      <trkpt lat="42.85819" lon="0.03979">
        <ele>1977.09</ele>
        <time>2013-02-03T11:03:34Z</time>
      </trkpt>
      <trkpt lat="42.85819" lon="0.0398">
        <ele>1976.61</ele>
        <time>2013-02-03T11:04:06Z</time>
      </trkpt>
      <trkpt lat="42.85819" lon="0.0398">
        <ele>1976.61</ele>
        <time>2013-02-03T11:04:21Z</time>
      </trkpt>
      <trkpt lat="42.8582" lon="0.03978">
        <ele>1978.53</ele>
        <time>2013-02-03T11:04:38Z</time>
      </trkpt>
      <trkpt lat="42.85817" lon="0.03978">
        <ele>1978.53</ele>
        <time>2013-02-03T11:04:52Z</time>
      </trkpt>
      <trkpt lat="42.85819" lon="0.03976">
        <ele>1979.01</ele>
        <time>2013-02-03T11:05:15Z</time>
      </trkpt>
      <trkpt lat="42.85818" lon="0.03979">
        <ele>1979.01</ele>
        <time>2013-02-03T11:05:35Z</time>
      </trkpt>
      <trkpt lat="42.85819" lon="0.03976">
        <ele>1979.01</ele>
        <time>2013-02-03T11:05:53Z</time>
      </trkpt>
      <trkpt lat="42.8582" lon="0.03975">
        <ele>1979.01</ele>
        <time>2013-02-03T11:06:16Z</time>
      </trkpt>
      <trkpt lat="42.85817" lon="0.03972">
        <ele>1979.01</ele>
        <time>2013-02-03T11:06:40Z</time>
      </trkpt>
      <trkpt lat="42.85813" lon="0.03968">
        <ele>1980.93</ele>
        <time>2013-02-03T11:06:55Z</time>
      </trkpt>
      <trkpt lat="42.85807" lon="0.03966">
        <ele>1984.3</ele>
        <time>2013-02-03T11:07:04Z</time>
      </trkpt>
      <trkpt lat="42.85806" lon="0.03965">
        <ele>1984.3</ele>
        <time>2013-02-03T11:07:05Z</time>
      </trkpt>
      <trkpt lat="42.85798" lon="0.03956">
        <ele>1986.7</ele>
        <time>2013-02-03T11:07:22Z</time>
      </trkpt>
      <trkpt lat="42.85793" lon="0.03951">
        <ele>1989.59</ele>
        <time>2013-02-03T11:07:36Z</time>
      </trkpt>
      <trkpt lat="42.8579" lon="0.03944">
        <ele>1991.51</ele>
        <time>2013-02-03T11:07:51Z</time>
      </trkpt>
      <trkpt lat="42.85784" lon="0.03935">
        <ele>1993.43</ele>
        <time>2013-02-03T11:08:08Z</time>
      </trkpt>
      <trkpt lat="42.85779" lon="0.03925">
        <ele>1996.32</ele>
        <time>2013-02-03T11:08:25Z</time>
      </trkpt>
      <trkpt lat="42.85775" lon="0.03933">
        <ele>1997.76</ele>
        <time>2013-02-03T11:08:40Z</time>
      </trkpt>
      <trkpt lat="42.8577" lon="0.03945">
        <ele>2001.12</ele>
        <time>2013-02-03T11:08:57Z</time>
      </trkpt>
      <trkpt lat="42.85767" lon="0.03955">
        <ele>2002.56</ele>
        <time>2013-02-03T11:09:13Z</time>
      </trkpt>
      <trkpt lat="42.85766" lon="0.03945">
        <ele>2004.49</ele>
        <time>2013-02-03T11:09:28Z</time>
      </trkpt>
      <trkpt lat="42.85762" lon="0.03937">
        <ele>2007.85</ele>
        <time>2013-02-03T11:09:40Z</time>
      </trkpt>
      <trkpt lat="42.8576" lon="0.03932">
        <ele>2007.85</ele>
        <time>2013-02-03T11:09:53Z</time>
      </trkpt>
      <trkpt lat="42.85756" lon="0.03927">
        <ele>2009.77</ele>
        <time>2013-02-03T11:10:13Z</time>
      </trkpt>
      <trkpt lat="42.85753" lon="0.03922">
        <ele>2012.18</ele>
        <time>2013-02-03T11:10:27Z</time>
      </trkpt>
      <trkpt lat="42.85754" lon="0.03922">
        <ele>2012.18</ele>
        <time>2013-02-03T11:10:50Z</time>
      </trkpt>
      <trkpt lat="42.85749" lon="0.03933">
        <ele>2014.1</ele>
        <time>2013-02-03T11:11:06Z</time>
      </trkpt>
      <trkpt lat="42.85746" lon="0.03942">
        <ele>2016.98</ele>
        <time>2013-02-03T11:11:21Z</time>
      </trkpt>
      <trkpt lat="42.85746" lon="0.03944">
        <ele>2017.94</ele>
        <time>2013-02-03T11:11:36Z</time>
      </trkpt>
      <trkpt lat="42.85744" lon="0.03948">
        <ele>2018.43</ele>
        <time>2013-02-03T11:11:53Z</time>
      </trkpt>
      <trkpt lat="42.85743" lon="0.03951">
        <ele>2018.91</ele>
        <time>2013-02-03T11:11:58Z</time>
      </trkpt>
      <trkpt lat="42.85743" lon="0.0395">
        <ele>2020.83</ele>
        <time>2013-02-03T11:12:11Z</time>
      </trkpt>
      <trkpt lat="42.85737" lon="0.0394">
        <ele>2023.71</ele>
        <time>2013-02-03T11:12:26Z</time>
      </trkpt>
      <trkpt lat="42.85732" lon="0.03934">
        <ele>2026.12</ele>
        <time>2013-02-03T11:12:40Z</time>
      </trkpt>
      <trkpt lat="42.8573" lon="0.03932">
        <ele>2026.12</ele>
        <time>2013-02-03T11:12:55Z</time>
      </trkpt>
      <trkpt lat="42.8573" lon="0.03937">
        <ele>2026.12</ele>
        <time>2013-02-03T11:13:16Z</time>
      </trkpt>
      <trkpt lat="42.85726" lon="0.03951">
        <ele>2028.52</ele>
        <time>2013-02-03T11:13:31Z</time>
      </trkpt>
      <trkpt lat="42.85723" lon="0.03959">
        <ele>2031.4</ele>
        <time>2013-02-03T11:13:42Z</time>
      </trkpt>
      <trkpt lat="42.85721" lon="0.03959">
        <ele>2033.33</ele>
        <time>2013-02-03T11:13:55Z</time>
      </trkpt>
      <trkpt lat="42.85714" lon="0.03951">
        <ele>2034.77</ele>
        <time>2013-02-03T11:14:10Z</time>
      </trkpt>
      <trkpt lat="42.8571" lon="0.0395">
        <ele>2036.21</ele>
        <time>2013-02-03T11:14:24Z</time>
      </trkpt>
      <trkpt lat="42.85712" lon="0.03951">
        <ele>2035.73</ele>
        <time>2013-02-03T11:14:50Z</time>
      </trkpt>
      <trkpt lat="42.85711" lon="0.03955">
        <ele>2035.73</ele>
        <time>2013-02-03T11:15:10Z</time>
      </trkpt>
      <trkpt lat="42.85707" lon="0.03963">
        <ele>2037.17</ele>
        <time>2013-02-03T11:15:27Z</time>
      </trkpt>
      <trkpt lat="42.85703" lon="0.03971">
        <ele>2040.54</ele>
        <time>2013-02-03T11:15:39Z</time>
      </trkpt>
      <trkpt lat="42.85702" lon="0.03986">
        <ele>2042.94</ele>
        <time>2013-02-03T11:15:57Z</time>
      </trkpt>
      <trkpt lat="42.85699" lon="0.03999">
        <ele>2045.82</ele>
        <time>2013-02-03T11:16:12Z</time>
      </trkpt>
      <trkpt lat="42.85697" lon="0.03999">
        <ele>2046.78</ele>
        <time>2013-02-03T11:16:15Z</time>
      </trkpt>
      <trkpt lat="42.85694" lon="0.03999">
        <ele>2047.75</ele>
        <time>2013-02-03T11:16:23Z</time>
      </trkpt>
      <trkpt lat="42.85684" lon="0.03999">
        <ele>2050.15</ele>
        <time>2013-02-03T11:16:40Z</time>
      </trkpt>
      <trkpt lat="42.85679" lon="0.03996">
        <ele>2051.59</ele>
        <time>2013-02-03T11:16:49Z</time>
      </trkpt>
      <trkpt lat="42.85674" lon="0.04001">
        <ele>2053.03</ele>
        <time>2013-02-03T11:17:02Z</time>
      </trkpt>
      <trkpt lat="42.85672" lon="0.04015">
        <ele>2056.4</ele>
        <time>2013-02-03T11:17:18Z</time>
      </trkpt>
      <trkpt lat="42.85671" lon="0.04026">
        <ele>2058.32</ele>
        <time>2013-02-03T11:17:33Z</time>
      </trkpt>
      <trkpt lat="42.85671" lon="0.04032">
        <ele>2059.76</ele>
        <time>2013-02-03T11:17:50Z</time>
      </trkpt>
      <trkpt lat="42.8567" lon="0.04034">
        <ele>2058.8</ele>
        <time>2013-02-03T11:18:09Z</time>
      </trkpt>
      <trkpt lat="42.85671" lon="0.04033">
        <ele>2058.32</ele>
        <time>2013-02-03T11:18:38Z</time>
      </trkpt>
      <trkpt lat="42.85671" lon="0.04032">
        <ele>2056.88</ele>
        <time>2013-02-03T11:19:10Z</time>
      </trkpt>
      <trkpt lat="42.8567" lon="0.04033">
        <ele>2056.88</ele>
        <time>2013-02-03T11:19:41Z</time>
      </trkpt>
      <trkpt lat="42.85671" lon="0.04032">
        <ele>2056.88</ele>
        <time>2013-02-03T11:20:28Z</time>
      </trkpt>
      <trkpt lat="42.8567" lon="0.04032">
        <ele>2056.88</ele>
        <time>2013-02-03T11:21:02Z</time>
      </trkpt>
      <trkpt lat="42.85669" lon="0.04032">
        <ele>2056.88</ele>
        <time>2013-02-03T11:21:14Z</time>
      </trkpt>
      <trkpt lat="42.85669" lon="0.04033">
        <ele>2056.88</ele>
        <time>2013-02-03T11:21:33Z</time>
      </trkpt>
      <trkpt lat="42.85669" lon="0.04033">
        <ele>2056.4</ele>
        <time>2013-02-03T11:21:58Z</time>
      </trkpt>
      <trkpt lat="42.85669" lon="0.04044">
        <ele>2059.28</ele>
        <time>2013-02-03T11:22:12Z</time>
      </trkpt>
      <trkpt lat="42.85662" lon="0.04045">
        <ele>2060.72</ele>
        <time>2013-02-03T11:22:25Z</time>
      </trkpt>
      <trkpt lat="42.85661" lon="0.04058">
        <ele>2062.65</ele>
        <time>2013-02-03T11:22:39Z</time>
      </trkpt>
      <trkpt lat="42.85663" lon="0.04069">
        <ele>2065.05</ele>
        <time>2013-02-03T11:22:53Z</time>
      </trkpt>
      <trkpt lat="42.85662" lon="0.04081">
        <ele>2067.45</ele>
        <time>2013-02-03T11:23:08Z</time>
      </trkpt>
      <trkpt lat="42.85663" lon="0.04096">
        <ele>2069.86</ele>
        <time>2013-02-03T11:23:24Z</time>
      </trkpt>
      <trkpt lat="42.85663" lon="0.04098">
        <ele>2071.3</ele>
        <time>2013-02-03T11:23:29Z</time>
      </trkpt>
      <trkpt lat="42.85662" lon="0.04112">
        <ele>2073.7</ele>
        <time>2013-02-03T11:23:45Z</time>
      </trkpt>
      <trkpt lat="42.85661" lon="0.04126">
        <ele>2076.59</ele>
        <time>2013-02-03T11:24:03Z</time>
      </trkpt>
      <trkpt lat="42.85661" lon="0.0414">
        <ele>2078.51</ele>
        <time>2013-02-03T11:24:20Z</time>
      </trkpt>
      <trkpt lat="42.85659" lon="0.04152">
        <ele>2080.91</ele>
        <time>2013-02-03T11:24:35Z</time>
      </trkpt>
      <trkpt lat="42.85656" lon="0.04166">
        <ele>2082.83</ele>
        <time>2013-02-03T11:24:50Z</time>
      </trkpt>
      <trkpt lat="42.85652" lon="0.0418">
        <ele>2084.28</ele>
        <time>2013-02-03T11:25:06Z</time>
      </trkpt>
      <trkpt lat="42.85652" lon="0.04194">
        <ele>2085.72</ele>
        <time>2013-02-03T11:25:20Z</time>
      </trkpt>
      <trkpt lat="42.85655" lon="0.04205">
        <ele>2089.08</ele>
        <time>2013-02-03T11:25:34Z</time>
      </trkpt>
      <trkpt lat="42.85657" lon="0.04217">
        <ele>2091.97</ele>
        <time>2013-02-03T11:25:50Z</time>
      </trkpt>
      <trkpt lat="42.85657" lon="0.04229">
        <ele>2094.85</ele>
        <time>2013-02-03T11:26:06Z</time>
      </trkpt>
      <trkpt lat="42.85655" lon="0.04238">
        <ele>2096.29</ele>
        <time>2013-02-03T11:26:19Z</time>
      </trkpt>
      <trkpt lat="42.85655" lon="0.04246">
        <ele>2098.7</ele>
        <time>2013-02-03T11:26:32Z</time>
      </trkpt>
      <trkpt lat="42.85656" lon="0.0426">
        <ele>2101.1</ele>
        <time>2013-02-03T11:26:50Z</time>
      </trkpt>
      <trkpt lat="42.85655" lon="0.04273">
        <ele>2103.02</ele>
        <time>2013-02-03T11:27:08Z</time>
      </trkpt>
      <trkpt lat="42.85655" lon="0.04289">
        <ele>2105.91</ele>
        <time>2013-02-03T11:27:25Z</time>
      </trkpt>
      <trkpt lat="42.85653" lon="0.04301">
        <ele>2107.83</ele>
        <time>2013-02-03T11:27:42Z</time>
      </trkpt>
      <trkpt lat="42.85652" lon="0.04312">
        <ele>2110.71</ele>
        <time>2013-02-03T11:28:00Z</time>
      </trkpt>
      <trkpt lat="42.85651" lon="0.04322">
        <ele>2112.63</ele>
        <time>2013-02-03T11:28:16Z</time>
      </trkpt>
      <trkpt lat="42.85654" lon="0.04329">
        <ele>2114.08</ele>
        <time>2013-02-03T11:28:28Z</time>
      </trkpt>
      <trkpt lat="42.85657" lon="0.04333">
        <ele>2115.52</ele>
        <time>2013-02-03T11:28:42Z</time>
      </trkpt>
      <trkpt lat="42.85663" lon="0.04338">
        <ele>2117.44</ele>
        <time>2013-02-03T11:28:57Z</time>
      </trkpt>
      <trkpt lat="42.85669" lon="0.04344">
        <ele>2119.84</ele>
        <time>2013-02-03T11:29:11Z</time>
      </trkpt>
      <trkpt lat="42.85668" lon="0.04342">
        <ele>2119.84</ele>
        <time>2013-02-03T11:29:29Z</time>
      </trkpt>
      <trkpt lat="42.85666" lon="0.04351">
        <ele>2120.32</ele>
        <time>2013-02-03T11:29:42Z</time>
      </trkpt>
      <trkpt lat="42.85663" lon="0.04364">
        <ele>2122.73</ele>
        <time>2013-02-03T11:30:01Z</time>
      </trkpt>
      <trkpt lat="42.85662" lon="0.04375">
        <ele>2124.17</ele>
        <time>2013-02-03T11:30:18Z</time>
      </trkpt>
      <trkpt lat="42.85662" lon="0.04391">
        <ele>2126.57</ele>
        <time>2013-02-03T11:30:37Z</time>
      </trkpt>
      <trkpt lat="42.85662" lon="0.04402">
        <ele>2129.46</ele>
        <time>2013-02-03T11:30:55Z</time>
      </trkpt>
      <trkpt lat="42.85663" lon="0.04414">
        <ele>2131.38</ele>
        <time>2013-02-03T11:31:08Z</time>
      </trkpt>
      <trkpt lat="42.85664" lon="0.04425">
        <ele>2133.3</ele>
        <time>2013-02-03T11:31:24Z</time>
      </trkpt>
      <trkpt lat="42.85663" lon="0.04434">
        <ele>2136.67</ele>
        <time>2013-02-03T11:31:38Z</time>
      </trkpt>
      <trkpt lat="42.85658" lon="0.04442">
        <ele>2138.59</ele>
        <time>2013-02-03T11:31:55Z</time>
      </trkpt>
      <trkpt lat="42.85658" lon="0.04452">
        <ele>2141.47</ele>
        <time>2013-02-03T11:32:10Z</time>
      </trkpt>
      <trkpt lat="42.85655" lon="0.04462">
        <ele>2143.4</ele>
        <time>2013-02-03T11:32:24Z</time>
      </trkpt>
      <trkpt lat="42.85654" lon="0.04473">
        <ele>2145.8</ele>
        <time>2013-02-03T11:32:39Z</time>
      </trkpt>
      <trkpt lat="42.85652" lon="0.04474">
        <ele>2145.8</ele>
        <time>2013-02-03T11:32:56Z</time>
      </trkpt>
      <trkpt lat="42.85653" lon="0.04472">
        <ele>2145.32</ele>
        <time>2013-02-03T11:33:13Z</time>
      </trkpt>
      <trkpt lat="42.85654" lon="0.04474">
        <ele>2145.8</ele>
        <time>2013-02-03T11:33:30Z</time>
      </trkpt>
      <trkpt lat="42.85654" lon="0.04473">
        <ele>2145.32</ele>
        <time>2013-02-03T11:33:53Z</time>
      </trkpt>
      <trkpt lat="42.85654" lon="0.04474">
        <ele>2144.84</ele>
        <time>2013-02-03T11:34:11Z</time>
      </trkpt>
      <trkpt lat="42.85654" lon="0.04472">
        <ele>2144.84</ele>
        <time>2013-02-03T11:34:31Z</time>
      </trkpt>
      <trkpt lat="42.85655" lon="0.04474">
        <ele>2143.88</ele>
        <time>2013-02-03T11:34:46Z</time>
      </trkpt>
      <trkpt lat="42.85653" lon="0.04475">
        <ele>2144.84</ele>
        <time>2013-02-03T11:35:08Z</time>
      </trkpt>
      <trkpt lat="42.85653" lon="0.04486">
        <ele>2145.8</ele>
        <time>2013-02-03T11:35:23Z</time>
      </trkpt>
      <trkpt lat="42.85653" lon="0.04487">
        <ele>2146.28</ele>
        <time>2013-02-03T11:35:36Z</time>
      </trkpt>
      <trkpt lat="42.85653" lon="0.04487">
        <ele>2146.28</ele>
        <time>2013-02-03T11:35:56Z</time>
      </trkpt>
      <trkpt lat="42.85654" lon="0.04488">
        <ele>2146.28</ele>
        <time>2013-02-03T11:36:19Z</time>
      </trkpt>
      <trkpt lat="42.85651" lon="0.04501">
        <ele>2148.68</ele>
        <time>2013-02-03T11:36:35Z</time>
      </trkpt>
      <trkpt lat="42.8565" lon="0.04514">
        <ele>2151.57</ele>
        <time>2013-02-03T11:36:50Z</time>
      </trkpt>
      <trkpt lat="42.8565" lon="0.04528">
        <ele>2153.01</ele>
        <time>2013-02-03T11:37:05Z</time>
      </trkpt>
      <trkpt lat="42.85648" lon="0.04544">
        <ele>2155.41</ele>
        <time>2013-02-03T11:37:21Z</time>
      </trkpt>
      <trkpt lat="42.85644" lon="0.0456">
        <ele>2158.3</ele>
        <time>2013-02-03T11:37:36Z</time>
      </trkpt>
      <trkpt lat="42.85641" lon="0.04575">
        <ele>2160.7</ele>
        <time>2013-02-03T11:37:52Z</time>
      </trkpt>
      <trkpt lat="42.85636" lon="0.04591">
        <ele>2162.14</ele>
        <time>2013-02-03T11:38:09Z</time>
      </trkpt>
      <trkpt lat="42.85635" lon="0.04593">
        <ele>2162.14</ele>
        <time>2013-02-03T11:38:11Z</time>
      </trkpt>
      <trkpt lat="42.85629" lon="0.04609">
        <ele>2164.55</ele>
        <time>2013-02-03T11:38:28Z</time>
      </trkpt>
      <trkpt lat="42.85627" lon="0.04618">
        <ele>2165.99</ele>
        <time>2013-02-03T11:38:37Z</time>
      </trkpt>
      <trkpt lat="42.85624" lon="0.04627">
        <ele>2165.99</ele>
        <time>2013-02-03T11:38:45Z</time>
      </trkpt>
      <trkpt lat="42.85617" lon="0.04641">
        <ele>2166.47</ele>
        <time>2013-02-03T11:39:01Z</time>
      </trkpt>
      <trkpt lat="42.85616" lon="0.04643">
        <ele>2166.47</ele>
        <time>2013-02-03T11:39:18Z</time>
      </trkpt>
      <trkpt lat="42.85616" lon="0.04643">
        <ele>2166.47</ele>
        <time>2013-02-03T11:39:34Z</time>
      </trkpt>
      <trkpt lat="42.85617" lon="0.04643">
        <ele>2163.58</ele>
        <time>2013-02-03T11:39:35Z</time>
      </trkpt>
      <trkpt lat="42.85616" lon="0.04644">
        <ele>2165.51</ele>
        <time>2013-02-03T11:39:36Z</time>
      </trkpt>
      <trkpt lat="42.85614" lon="0.04642">
        <ele>2165.03</ele>
        <time>2013-02-03T11:39:54Z</time>
      </trkpt>
      <trkpt lat="42.85614" lon="0.04642">
        <ele>2173.68</ele>
        <time>2013-02-03T11:39:56Z</time>
      </trkpt>
      <trkpt lat="42.85614" lon="0.04643">
        <ele>2166.47</ele>
        <time>2013-02-03T11:39:57Z</time>
      </trkpt>
      <trkpt lat="42.85614" lon="0.04642">
        <ele>2165.99</ele>
        <time>2013-02-03T11:40:13Z</time>
      </trkpt>
      <trkpt lat="42.85615" lon="0.04642">
        <ele>2165.99</ele>
        <time>2013-02-03T11:40:24Z</time>
      </trkpt>
      <trkpt lat="42.85615" lon="0.04644">
        <ele>2165.51</ele>
        <time>2013-02-03T11:40:40Z</time>
      </trkpt>
      <trkpt lat="42.85615" lon="0.04646">
        <ele>2165.99</ele>
        <time>2013-02-03T11:41:12Z</time>
      </trkpt>
      <trkpt lat="42.85616" lon="0.04644">
        <ele>2165.51</ele>
        <time>2013-02-03T11:41:46Z</time>
      </trkpt>
      <trkpt lat="42.85615" lon="0.04646">
        <ele>2165.51</ele>
        <time>2013-02-03T11:42:25Z</time>
      </trkpt>
      <trkpt lat="42.85615" lon="0.04644">
        <ele>2164.55</ele>
        <time>2013-02-03T11:43:05Z</time>
      </trkpt>
      <trkpt lat="42.85614" lon="0.04643">
        <ele>2164.55</ele>
        <time>2013-02-03T11:43:48Z</time>
      </trkpt>
      <trkpt lat="42.85613" lon="0.04641">
        <ele>2164.06</ele>
        <time>2013-02-03T11:44:22Z</time>
      </trkpt>
      <trkpt lat="42.85616" lon="0.04643">
        <ele>2164.06</ele>
        <time>2013-02-03T11:44:58Z</time>
      </trkpt>
      <trkpt lat="42.85615" lon="0.04643">
        <ele>2164.06</ele>
        <time>2013-02-03T11:45:45Z</time>
      </trkpt>
      <trkpt lat="42.85615" lon="0.04645">
        <ele>2163.58</ele>
        <time>2013-02-03T11:46:35Z</time>
      </trkpt>
      <trkpt lat="42.85615" lon="0.04645">
        <ele>2164.06</ele>
        <time>2013-02-03T11:47:16Z</time>
      </trkpt>
      <trkpt lat="42.85617" lon="0.04646">
        <ele>2163.58</ele>
        <time>2013-02-03T11:47:57Z</time>
      </trkpt>
      <trkpt lat="42.85615" lon="0.04644">
        <ele>2163.58</ele>
        <time>2013-02-03T11:48:40Z</time>
      </trkpt>
      <trkpt lat="42.85617" lon="0.04644">
        <ele>2164.06</ele>
        <time>2013-02-03T11:49:22Z</time>
      </trkpt>
      <trkpt lat="42.85616" lon="0.04644">
        <ele>2163.1</ele>
        <time>2013-02-03T11:50:09Z</time>
      </trkpt>
      <trkpt lat="42.85617" lon="0.04644">
        <ele>2163.1</ele>
        <time>2013-02-03T11:50:52Z</time>
      </trkpt>
      <trkpt lat="42.85618" lon="0.04643">
        <ele>2163.58</ele>
        <time>2013-02-03T11:51:42Z</time>
      </trkpt>
      <trkpt lat="42.85617" lon="0.04646">
        <ele>2163.1</ele>
        <time>2013-02-03T11:52:29Z</time>
      </trkpt>
      <trkpt lat="42.85617" lon="0.04645">
        <ele>2164.06</ele>
        <time>2013-02-03T11:53:12Z</time>
      </trkpt>
      <trkpt lat="42.85616" lon="0.04644">
        <ele>2164.55</ele>
        <time>2013-02-03T11:53:46Z</time>
      </trkpt>
      <trkpt lat="42.85615" lon="0.04643">
        <ele>2164.55</ele>
        <time>2013-02-03T11:54:11Z</time>
      </trkpt>
      <trkpt lat="42.85617" lon="0.04642">
        <ele>2164.55</ele>
        <time>2013-02-03T11:54:44Z</time>
      </trkpt>
      <trkpt lat="42.85615" lon="0.04643">
        <ele>2163.58</ele>
        <time>2013-02-03T11:55:24Z</time>
      </trkpt>
      <trkpt lat="42.85617" lon="0.04645">
        <ele>2164.55</ele>
        <time>2013-02-03T11:55:59Z</time>
      </trkpt>
      <trkpt lat="42.85617" lon="0.04646">
        <ele>2165.99</ele>
        <time>2013-02-03T11:56:01Z</time>
      </trkpt>
      <trkpt lat="42.85615" lon="0.04645">
        <ele>2165.99</ele>
        <time>2013-02-03T11:56:10Z</time>
      </trkpt>
      <trkpt lat="42.85616" lon="0.04642">
        <ele>2164.55</ele>
        <time>2013-02-03T11:56:19Z</time>
      </trkpt>
      <trkpt lat="42.85612" lon="0.04641">
        <ele>2164.55</ele>
        <time>2013-02-03T11:57:01Z</time>
      </trkpt>
      <trkpt lat="42.85613" lon="0.0464">
        <ele>2163.58</ele>
        <time>2013-02-03T11:57:45Z</time>
      </trkpt>
      <trkpt lat="42.85614" lon="0.04641">
        <ele>2165.03</ele>
        <time>2013-02-03T11:57:48Z</time>
      </trkpt>
      <trkpt lat="42.85615" lon="0.04645">
        <ele>2164.55</ele>
        <time>2013-02-03T11:58:08Z</time>
      </trkpt>
      <trkpt lat="42.85615" lon="0.04644">
        <ele>2164.55</ele>
        <time>2013-02-03T11:58:24Z</time>
      </trkpt>
      <trkpt lat="42.85615" lon="0.04643">
        <ele>2165.03</ele>
        <time>2013-02-03T11:58:45Z</time>
      </trkpt>
      <trkpt lat="42.85613" lon="0.04641">
        <ele>2164.55</ele>
        <time>2013-02-03T11:59:11Z</time>
      </trkpt>
      <trkpt lat="42.85613" lon="0.04641">
        <ele>2164.06</ele>
        <time>2013-02-03T11:59:36Z</time>
      </trkpt>
      <trkpt lat="42.85614" lon="0.04639">
        <ele>2165.03</ele>
        <time>2013-02-03T12:00:03Z</time>
      </trkpt>
      <trkpt lat="42.85615" lon="0.04641">
        <ele>2164.06</ele>
        <time>2013-02-03T12:00:25Z</time>
      </trkpt>
      <trkpt lat="42.85612" lon="0.04639">
        <ele>2165.03</ele>
        <time>2013-02-03T12:00:54Z</time>
      </trkpt>
      <trkpt lat="42.85615" lon="0.04638">
        <ele>2165.03</ele>
        <time>2013-02-03T12:00:58Z</time>
      </trkpt>
      <trkpt lat="42.8562" lon="0.04634">
        <ele>2165.03</ele>
        <time>2013-02-03T12:01:03Z</time>
      </trkpt>
      <trkpt lat="42.85628" lon="0.04615">
        <ele>2163.58</ele>
        <time>2013-02-03T12:01:09Z</time>
      </trkpt>
      <trkpt lat="42.85638" lon="0.04587">
        <ele>2160.7</ele>
        <time>2013-02-03T12:01:15Z</time>
      </trkpt>
      <trkpt lat="42.85644" lon="0.04577">
        <ele>2159.26</ele>
        <time>2013-02-03T12:01:18Z</time>
      </trkpt>
      <trkpt lat="42.85647" lon="0.04565">
        <ele>2157.82</ele>
        <time>2013-02-03T12:01:21Z</time>
      </trkpt>
      <trkpt lat="42.85649" lon="0.04542">
        <ele>2153.97</ele>
        <time>2013-02-03T12:01:26Z</time>
      </trkpt>
      <trkpt lat="42.85652" lon="0.04534">
        <ele>2152.53</ele>
        <time>2013-02-03T12:01:28Z</time>
      </trkpt>
      <trkpt lat="42.85651" lon="0.04516">
        <ele>2149.16</ele>
        <time>2013-02-03T12:01:32Z</time>
      </trkpt>
      <trkpt lat="42.85653" lon="0.04507">
        <ele>2148.2</ele>
        <time>2013-02-03T12:01:34Z</time>
      </trkpt>
      <trkpt lat="42.85655" lon="0.04478">
        <ele>2141.95</ele>
        <time>2013-02-03T12:01:40Z</time>
      </trkpt>
      <trkpt lat="42.85653" lon="0.04477">
        <ele>2140.51</ele>
        <time>2013-02-03T12:01:49Z</time>
      </trkpt>
      <trkpt lat="42.85653" lon="0.04476">
        <ele>2140.99</ele>
        <time>2013-02-03T12:01:50Z</time>
      </trkpt>
      <trkpt lat="42.85652" lon="0.04473">
        <ele>2140.99</ele>
        <time>2013-02-03T12:01:52Z</time>
      </trkpt>
      <trkpt lat="42.85653" lon="0.04462">
        <ele>2138.59</ele>
        <time>2013-02-03T12:01:56Z</time>
      </trkpt>
      <trkpt lat="42.85656" lon="0.04457">
        <ele>2137.63</ele>
        <time>2013-02-03T12:01:58Z</time>
      </trkpt>
      <trkpt lat="42.85658" lon="0.04451">
        <ele>2137.15</ele>
        <time>2013-02-03T12:02:00Z</time>
      </trkpt>
      <trkpt lat="42.85659" lon="0.04432">
        <ele>2131.86</ele>
        <time>2013-02-03T12:02:04Z</time>
      </trkpt>
      <trkpt lat="42.85659" lon="0.04419">
        <ele>2127.53</ele>
        <time>2013-02-03T12:02:07Z</time>
      </trkpt>
      <trkpt lat="42.85657" lon="0.04402">
        <ele>2124.17</ele>
        <time>2013-02-03T12:02:10Z</time>
      </trkpt>
      <trkpt lat="42.85664" lon="0.04386">
        <ele>2120.81</ele>
        <time>2013-02-03T12:02:14Z</time>
      </trkpt>
      <trkpt lat="42.85663" lon="0.0437">
        <ele>2118.88</ele>
        <time>2013-02-03T12:02:18Z</time>
      </trkpt>
      <trkpt lat="42.85663" lon="0.04351">
        <ele>2116</ele>
        <time>2013-02-03T12:02:23Z</time>
      </trkpt>
      <trkpt lat="42.85656" lon="0.04338">
        <ele>2111.19</ele>
        <time>2013-02-03T12:02:27Z</time>
      </trkpt>
      <trkpt lat="42.85658" lon="0.04318">
        <ele>2106.87</ele>
        <time>2013-02-03T12:02:31Z</time>
      </trkpt>
      <trkpt lat="42.8565" lon="0.04306">
        <ele>2103.02</ele>
        <time>2013-02-03T12:02:34Z</time>
      </trkpt>
      <trkpt lat="42.85654" lon="0.04295">
        <ele>2099.18</ele>
        <time>2013-02-03T12:02:37Z</time>
      </trkpt>
      <trkpt lat="42.85656" lon="0.04292">
        <ele>2099.18</ele>
        <time>2013-02-03T12:02:38Z</time>
      </trkpt>
      <trkpt lat="42.85658" lon="0.04274">
        <ele>2095.81</ele>
        <time>2013-02-03T12:02:42Z</time>
      </trkpt>
      <trkpt lat="42.85658" lon="0.04258">
        <ele>2092.45</ele>
        <time>2013-02-03T12:02:45Z</time>
      </trkpt>
      <trkpt lat="42.8566" lon="0.04256">
        <ele>2091</ele>
        <time>2013-02-03T12:02:48Z</time>
      </trkpt>
      <trkpt lat="42.85658" lon="0.04258">
        <ele>2091.49</ele>
        <time>2013-02-03T12:03:12Z</time>
      </trkpt>
      <trkpt lat="42.85659" lon="0.04257">
        <ele>2091.97</ele>
        <time>2013-02-03T12:03:15Z</time>
      </trkpt>
      <trkpt lat="42.85659" lon="0.04248">
        <ele>2090.52</ele>
        <time>2013-02-03T12:03:19Z</time>
      </trkpt>
      <trkpt lat="42.85657" lon="0.04232">
        <ele>2088.12</ele>
        <time>2013-02-03T12:03:24Z</time>
      </trkpt>
      <trkpt lat="42.85658" lon="0.04227">
        <ele>2087.64</ele>
        <time>2013-02-03T12:03:25Z</time>
      </trkpt>
      <trkpt lat="42.85658" lon="0.04204">
        <ele>2083.31</ele>
        <time>2013-02-03T12:03:28Z</time>
      </trkpt>
      <trkpt lat="42.85661" lon="0.04189">
        <ele>2078.99</ele>
        <time>2013-02-03T12:03:30Z</time>
      </trkpt>
      <trkpt lat="42.8566" lon="0.04176">
        <ele>2077.55</ele>
        <time>2013-02-03T12:03:32Z</time>
      </trkpt>
      <trkpt lat="42.85667" lon="0.04162">
        <ele>2076.1</ele>
        <time>2013-02-03T12:03:36Z</time>
      </trkpt>
      <trkpt lat="42.85676" lon="0.04151">
        <ele>2074.66</ele>
        <time>2013-02-03T12:03:43Z</time>
      </trkpt>
      <trkpt lat="42.8567" lon="0.04128">
        <ele>2070.82</ele>
        <time>2013-02-03T12:03:48Z</time>
      </trkpt>
      <trkpt lat="42.85668" lon="0.0412">
        <ele>2070.82</ele>
        <time>2013-02-03T12:03:49Z</time>
      </trkpt>
      <trkpt lat="42.85669" lon="0.04103">
        <ele>2066.49</ele>
        <time>2013-02-03T12:03:52Z</time>
      </trkpt>
      <trkpt lat="42.85674" lon="0.04087">
        <ele>2062.17</ele>
        <time>2013-02-03T12:03:55Z</time>
      </trkpt>
      <trkpt lat="42.85677" lon="0.04078">
        <ele>2059.28</ele>
        <time>2013-02-03T12:03:57Z</time>
      </trkpt>
      <trkpt lat="42.85681" lon="0.04062">
        <ele>2055.92</ele>
        <time>2013-02-03T12:04:00Z</time>
      </trkpt>
      <trkpt lat="42.8568" lon="0.04056">
        <ele>2054.47</ele>
        <time>2013-02-03T12:04:01Z</time>
      </trkpt>
      <trkpt lat="42.85675" lon="0.04037">
        <ele>2052.07</ele>
        <time>2013-02-03T12:04:05Z</time>
      </trkpt>
      <trkpt lat="42.85674" lon="0.04024">
        <ele>2050.15</ele>
        <time>2013-02-03T12:04:08Z</time>
      </trkpt>
      <trkpt lat="42.85684" lon="0.04014">
        <ele>2045.82</ele>
        <time>2013-02-03T12:04:13Z</time>
      </trkpt>
      <trkpt lat="42.85686" lon="0.04006">
        <ele>2043.9</ele>
        <time>2013-02-03T12:04:15Z</time>
      </trkpt>
      <trkpt lat="42.85687" lon="0.03979">
        <ele>2038.61</ele>
        <time>2013-02-03T12:04:20Z</time>
      </trkpt>
      <trkpt lat="42.85694" lon="0.03965">
        <ele>2032.84</ele>
        <time>2013-02-03T12:04:25Z</time>
      </trkpt>
      <trkpt lat="42.85692" lon="0.03966">
        <ele>2032.84</ele>
        <time>2013-02-03T12:04:38Z</time>
      </trkpt>
      <trkpt lat="42.85692" lon="0.03967">
        <ele>2032.84</ele>
        <time>2013-02-03T12:04:49Z</time>
      </trkpt>
      <trkpt lat="42.85696" lon="0.03953">
        <ele>2030.44</ele>
        <time>2013-02-03T12:04:53Z</time>
      </trkpt>
      <trkpt lat="42.85706" lon="0.0391">
        <ele>2029.96</ele>
        <time>2013-02-03T12:05:05Z</time>
      </trkpt>
      <trkpt lat="42.85707" lon="0.03909">
        <ele>2029.96</ele>
        <time>2013-02-03T12:05:06Z</time>
      </trkpt>
      <trkpt lat="42.85709" lon="0.03901">
        <ele>2029.96</ele>
        <time>2013-02-03T12:05:17Z</time>
      </trkpt>
      <trkpt lat="42.85709" lon="0.03901">
        <ele>2030.44</ele>
        <time>2013-02-03T12:05:33Z</time>
      </trkpt>
      <trkpt lat="42.8571" lon="0.0392">
        <ele>2026.6</ele>
        <time>2013-02-03T12:05:41Z</time>
      </trkpt>
      <trkpt lat="42.8571" lon="0.03925">
        <ele>2025.64</ele>
        <time>2013-02-03T12:05:43Z</time>
      </trkpt>
      <trkpt lat="42.85712" lon="0.03932">
        <ele>2024.67</ele>
        <time>2013-02-03T12:05:45Z</time>
      </trkpt>
      <trkpt lat="42.85712" lon="0.03935">
        <ele>2023.71</ele>
        <time>2013-02-03T12:05:46Z</time>
      </trkpt>
      <trkpt lat="42.85721" lon="0.03949">
        <ele>2019.39</ele>
        <time>2013-02-03T12:05:53Z</time>
      </trkpt>
      <trkpt lat="42.85722" lon="0.0395">
        <ele>2019.39</ele>
        <time>2013-02-03T12:05:54Z</time>
      </trkpt>
      <trkpt lat="42.85723" lon="0.03951">
        <ele>2018.91</ele>
        <time>2013-02-03T12:05:55Z</time>
      </trkpt>
      <trkpt lat="42.85729" lon="0.03941">
        <ele>2014.58</ele>
        <time>2013-02-03T12:06:00Z</time>
      </trkpt>
      <trkpt lat="42.85735" lon="0.03929">
        <ele>2010.73</ele>
        <time>2013-02-03T12:06:06Z</time>
      </trkpt>
      <trkpt lat="42.85737" lon="0.03927">
        <ele>2010.73</ele>
        <time>2013-02-03T12:06:07Z</time>
      </trkpt>
      <trkpt lat="42.85745" lon="0.03938">
        <ele>2005.93</ele>
        <time>2013-02-03T12:06:12Z</time>
      </trkpt>
      <trkpt lat="42.85746" lon="0.03942">
        <ele>2004.49</ele>
        <time>2013-02-03T12:06:14Z</time>
      </trkpt>
      <trkpt lat="42.85748" lon="0.03947">
        <ele>2004.49</ele>
        <time>2013-02-03T12:06:16Z</time>
      </trkpt>
      <trkpt lat="42.85751" lon="0.03953">
        <ele>2002.56</ele>
        <time>2013-02-03T12:06:18Z</time>
      </trkpt>
      <trkpt lat="42.85755" lon="0.03961">
        <ele>2001.6</ele>
        <time>2013-02-03T12:06:20Z</time>
      </trkpt>
      <trkpt lat="42.85764" lon="0.03981">
        <ele>1996.8</ele>
        <time>2013-02-03T12:06:25Z</time>
      </trkpt>
      <trkpt lat="42.85765" lon="0.03982">
        <ele>1996.32</ele>
        <time>2013-02-03T12:06:26Z</time>
      </trkpt>
      <trkpt lat="42.85767" lon="0.0398">
        <ele>1996.32</ele>
        <time>2013-02-03T12:06:27Z</time>
      </trkpt>
      <trkpt lat="42.85768" lon="0.03976">
        <ele>1995.35</ele>
        <time>2013-02-03T12:06:28Z</time>
      </trkpt>
      <trkpt lat="42.85769" lon="0.03972">
        <ele>1993.91</ele>
        <time>2013-02-03T12:06:29Z</time>
      </trkpt>
      <trkpt lat="42.85769" lon="0.03969">
        <ele>1992.95</ele>
        <time>2013-02-03T12:06:30Z</time>
      </trkpt>
      <trkpt lat="42.85771" lon="0.03966">
        <ele>1991.99</ele>
        <time>2013-02-03T12:06:31Z</time>
      </trkpt>
      <trkpt lat="42.85772" lon="0.03965">
        <ele>1990.55</ele>
        <time>2013-02-03T12:06:32Z</time>
      </trkpt>
      <trkpt lat="42.85777" lon="0.03971">
        <ele>1988.14</ele>
        <time>2013-02-03T12:06:35Z</time>
      </trkpt>
      <trkpt lat="42.85785" lon="0.03984">
        <ele>1984.3</ele>
        <time>2013-02-03T12:06:40Z</time>
      </trkpt>
      <trkpt lat="42.85784" lon="0.03984">
        <ele>1983.82</ele>
        <time>2013-02-03T12:06:56Z</time>
      </trkpt>
      <trkpt lat="42.85784" lon="0.03984">
        <ele>1984.3</ele>
        <time>2013-02-03T12:06:57Z</time>
      </trkpt>
      <trkpt lat="42.85791" lon="0.03986">
        <ele>1982.38</ele>
        <time>2013-02-03T12:07:00Z</time>
      </trkpt>
      <trkpt lat="42.85801" lon="0.03984">
        <ele>1978.05</ele>
        <time>2013-02-03T12:07:03Z</time>
      </trkpt>
      <trkpt lat="42.85808" lon="0.03983">
        <ele>1972.28</ele>
        <time>2013-02-03T12:07:05Z</time>
      </trkpt>
      <trkpt lat="42.85811" lon="0.03988">
        <ele>1971.32</ele>
        <time>2013-02-03T12:07:07Z</time>
      </trkpt>
      <trkpt lat="42.8581" lon="0.03991">
        <ele>1970.84</ele>
        <time>2013-02-03T12:07:20Z</time>
      </trkpt>
      <trkpt lat="42.85813" lon="0.03993">
        <ele>1969.88</ele>
        <time>2013-02-03T12:07:27Z</time>
      </trkpt>
      <trkpt lat="42.85826" lon="0.04013">
        <ele>1966.03</ele>
        <time>2013-02-03T12:07:37Z</time>
      </trkpt>
      <trkpt lat="42.85836" lon="0.04033">
        <ele>1963.15</ele>
        <time>2013-02-03T12:07:40Z</time>
      </trkpt>
      <trkpt lat="42.85846" lon="0.04052">
        <ele>1958.82</ele>
        <time>2013-02-03T12:07:43Z</time>
      </trkpt>
      <trkpt lat="42.85855" lon="0.04072">
        <ele>1955.94</ele>
        <time>2013-02-03T12:07:46Z</time>
      </trkpt>
      <trkpt lat="42.85862" lon="0.04091">
        <ele>1954.02</ele>
        <time>2013-02-03T12:07:49Z</time>
      </trkpt>
      <trkpt lat="42.85871" lon="0.04114">
        <ele>1951.13</ele>
        <time>2013-02-03T12:07:52Z</time>
      </trkpt>
      <trkpt lat="42.85881" lon="0.04134">
        <ele>1946.81</ele>
        <time>2013-02-03T12:07:55Z</time>
      </trkpt>
      <trkpt lat="42.85886" lon="0.04143">
        <ele>1943.92</ele>
        <time>2013-02-03T12:07:57Z</time>
      </trkpt>
      <trkpt lat="42.85892" lon="0.04141">
        <ele>1940.08</ele>
        <time>2013-02-03T12:08:00Z</time>
      </trkpt>
      <trkpt lat="42.85898" lon="0.04148">
        <ele>1936.71</ele>
        <time>2013-02-03T12:08:02Z</time>
      </trkpt>
      <trkpt lat="42.8591" lon="0.04174">
        <ele>1932.87</ele>
        <time>2013-02-03T12:08:06Z</time>
      </trkpt>
      <trkpt lat="42.8592" lon="0.04198">
        <ele>1929.02</ele>
        <time>2013-02-03T12:08:10Z</time>
      </trkpt>
      <trkpt lat="42.85929" lon="0.04219">
        <ele>1927.1</ele>
        <time>2013-02-03T12:08:13Z</time>
      </trkpt>
      <trkpt lat="42.85943" lon="0.04242">
        <ele>1923.25</ele>
        <time>2013-02-03T12:08:18Z</time>
      </trkpt>
      <trkpt lat="42.85957" lon="0.04262">
        <ele>1919.41</ele>
        <time>2013-02-03T12:08:24Z</time>
      </trkpt>
      <trkpt lat="42.85959" lon="0.04265">
        <ele>1918.93</ele>
        <time>2013-02-03T12:08:25Z</time>
      </trkpt>
      <trkpt lat="42.8596" lon="0.04269">
        <ele>1918.93</ele>
        <time>2013-02-03T12:08:29Z</time>
      </trkpt>
      <trkpt lat="42.85967" lon="0.04264">
        <ele>1915.56</ele>
        <time>2013-02-03T12:08:33Z</time>
      </trkpt>
      <trkpt lat="42.85974" lon="0.04259">
        <ele>1910.76</ele>
        <time>2013-02-03T12:08:36Z</time>
      </trkpt>
      <trkpt lat="42.85982" lon="0.04254">
        <ele>1905.95</ele>
        <time>2013-02-03T12:08:39Z</time>
      </trkpt>
      <trkpt lat="42.85987" lon="0.0425">
        <ele>1903.07</ele>
        <time>2013-02-03T12:08:41Z</time>
      </trkpt>
      <trkpt lat="42.85991" lon="0.04247">
        <ele>1899.7</ele>
        <time>2013-02-03T12:08:43Z</time>
      </trkpt>
      <trkpt lat="42.85996" lon="0.04244">
        <ele>1896.82</ele>
        <time>2013-02-03T12:08:45Z</time>
      </trkpt>
      <trkpt lat="42.85999" lon="0.04239">
        <ele>1893.45</ele>
        <time>2013-02-03T12:08:47Z</time>
      </trkpt>
      <trkpt lat="42.85996" lon="0.04237">
        <ele>1892.01</ele>
        <time>2013-02-03T12:08:52Z</time>
      </trkpt>
      <trkpt lat="42.86002" lon="0.04227">
        <ele>1888.65</ele>
        <time>2013-02-03T12:08:57Z</time>
      </trkpt>
      <trkpt lat="42.8601" lon="0.0422">
        <ele>1885.28</ele>
        <time>2013-02-03T12:09:00Z</time>
      </trkpt>
      <trkpt lat="42.86018" lon="0.04213">
        <ele>1880.48</ele>
        <time>2013-02-03T12:09:03Z</time>
      </trkpt>
      <trkpt lat="42.86021" lon="0.0421">
        <ele>1879.51</ele>
        <time>2013-02-03T12:09:04Z</time>
      </trkpt>
      <trkpt lat="42.86031" lon="0.04204">
        <ele>1874.23</ele>
        <time>2013-02-03T12:09:07Z</time>
      </trkpt>
      <trkpt lat="42.86037" lon="0.04199">
        <ele>1870.86</ele>
        <time>2013-02-03T12:09:09Z</time>
      </trkpt>
      <trkpt lat="42.86043" lon="0.04193">
        <ele>1867.02</ele>
        <time>2013-02-03T12:09:11Z</time>
      </trkpt>
      <trkpt lat="42.86053" lon="0.04183">
        <ele>1862.21</ele>
        <time>2013-02-03T12:09:14Z</time>
      </trkpt>
      <trkpt lat="42.86056" lon="0.0418">
        <ele>1860.77</ele>
        <time>2013-02-03T12:09:15Z</time>
      </trkpt>
      <trkpt lat="42.86059" lon="0.04178">
        <ele>1858.85</ele>
        <time>2013-02-03T12:09:16Z</time>
      </trkpt>
      <trkpt lat="42.86063" lon="0.04176">
        <ele>1857.4</ele>
        <time>2013-02-03T12:09:17Z</time>
      </trkpt>
      <trkpt lat="42.86065" lon="0.04175">
        <ele>1855.96</ele>
        <time>2013-02-03T12:09:18Z</time>
      </trkpt>
      <trkpt lat="42.86065" lon="0.04175">
        <ele>1855.96</ele>
        <time>2013-02-03T12:09:19Z</time>
      </trkpt>
      <trkpt lat="42.86062" lon="0.04176">
        <ele>1856.44</ele>
        <time>2013-02-03T12:09:29Z</time>
      </trkpt>
      <trkpt lat="42.86063" lon="0.04176">
        <ele>1856.44</ele>
        <time>2013-02-03T12:09:53Z</time>
      </trkpt>
      <trkpt lat="42.86073" lon="0.04172">
        <ele>1852.12</ele>
        <time>2013-02-03T12:09:56Z</time>
      </trkpt>
      <trkpt lat="42.86081" lon="0.04168">
        <ele>1849.23</ele>
        <time>2013-02-03T12:09:58Z</time>
      </trkpt>
      <trkpt lat="42.86087" lon="0.04162">
        <ele>1845.87</ele>
        <time>2013-02-03T12:10:00Z</time>
      </trkpt>
      <trkpt lat="42.86091" lon="0.0416">
        <ele>1845.87</ele>
        <time>2013-02-03T12:10:01Z</time>
      </trkpt>
      <trkpt lat="42.86098" lon="0.04154">
        <ele>1841.54</ele>
        <time>2013-02-03T12:10:03Z</time>
      </trkpt>
      <trkpt lat="42.86105" lon="0.0415">
        <ele>1837.7</ele>
        <time>2013-02-03T12:10:05Z</time>
      </trkpt>
      <trkpt lat="42.86113" lon="0.04145">
        <ele>1833.37</ele>
        <time>2013-02-03T12:10:08Z</time>
      </trkpt>
      <trkpt lat="42.8612" lon="0.0414">
        <ele>1830.01</ele>
        <time>2013-02-03T12:10:10Z</time>
      </trkpt>
      <trkpt lat="42.86129" lon="0.0413">
        <ele>1826.16</ele>
        <time>2013-02-03T12:10:13Z</time>
      </trkpt>
      <trkpt lat="42.86142" lon="0.0412">
        <ele>1821.84</ele>
        <time>2013-02-03T12:10:17Z</time>
      </trkpt>
      <trkpt lat="42.86155" lon="0.04126">
        <ele>1817.99</ele>
        <time>2013-02-03T12:10:21Z</time>
      </trkpt>
      <trkpt lat="42.86157" lon="0.04128">
        <ele>1817.99</ele>
        <time>2013-02-03T12:10:22Z</time>
      </trkpt>
      <trkpt lat="42.86158" lon="0.0413">
        <ele>1816.55</ele>
        <time>2013-02-03T12:10:24Z</time>
      </trkpt>
      <trkpt lat="42.86158" lon="0.04129">
        <ele>1817.99</ele>
        <time>2013-02-03T12:10:32Z</time>
      </trkpt>
      <trkpt lat="42.86172" lon="0.04118">
        <ele>1813.66</ele>
        <time>2013-02-03T12:10:37Z</time>
      </trkpt>
      <trkpt lat="42.8618" lon="0.04112">
        <ele>1809.34</ele>
        <time>2013-02-03T12:10:39Z</time>
      </trkpt>
      <trkpt lat="42.86184" lon="0.0411">
        <ele>1805.97</ele>
        <time>2013-02-03T12:10:40Z</time>
      </trkpt>
      <trkpt lat="42.86187" lon="0.04109">
        <ele>1805.01</ele>
        <time>2013-02-03T12:10:41Z</time>
      </trkpt>
      <trkpt lat="42.86198" lon="0.041">
        <ele>1800.21</ele>
        <time>2013-02-03T12:10:44Z</time>
      </trkpt>
      <trkpt lat="42.86209" lon="0.04092">
        <ele>1795.88</ele>
        <time>2013-02-03T12:10:47Z</time>
      </trkpt>
      <trkpt lat="42.86217" lon="0.04093">
        <ele>1791.07</ele>
        <time>2013-02-03T12:10:49Z</time>
      </trkpt>
      <trkpt lat="42.86221" lon="0.04096">
        <ele>1789.63</ele>
        <time>2013-02-03T12:10:50Z</time>
      </trkpt>
      <trkpt lat="42.86229" lon="0.04088">
        <ele>1787.71</ele>
        <time>2013-02-03T12:10:53Z</time>
      </trkpt>
      <trkpt lat="42.86236" lon="0.04082">
        <ele>1784.34</ele>
        <time>2013-02-03T12:10:55Z</time>
      </trkpt>
      <trkpt lat="42.86245" lon="0.04075">
        <ele>1780.5</ele>
        <time>2013-02-03T12:10:57Z</time>
      </trkpt>
      <trkpt lat="42.86252" lon="0.0407">
        <ele>1777.13</ele>
        <time>2013-02-03T12:10:59Z</time>
      </trkpt>
      <trkpt lat="42.86258" lon="0.04064">
        <ele>1773.29</ele>
        <time>2013-02-03T12:11:01Z</time>
      </trkpt>
      <trkpt lat="42.86265" lon="0.04059">
        <ele>1769.44</ele>
        <time>2013-02-03T12:11:03Z</time>
      </trkpt>
      <trkpt lat="42.86268" lon="0.0405">
        <ele>1766.08</ele>
        <time>2013-02-03T12:11:05Z</time>
      </trkpt>
      <trkpt lat="42.86267" lon="0.04047">
        <ele>1766.08</ele>
        <time>2013-02-03T12:11:06Z</time>
      </trkpt>
      <trkpt lat="42.86262" lon="0.04045">
        <ele>1766.08</ele>
        <time>2013-02-03T12:11:17Z</time>
      </trkpt>
      <trkpt lat="42.86263" lon="0.04044">
        <ele>1765.12</ele>
        <time>2013-02-03T12:11:21Z</time>
      </trkpt>
      <trkpt lat="42.86275" lon="0.04026">
        <ele>1759.83</ele>
        <time>2013-02-03T12:11:26Z</time>
      </trkpt>
      <trkpt lat="42.8628" lon="0.04015">
        <ele>1756.47</ele>
        <time>2013-02-03T12:11:28Z</time>
      </trkpt>
      <trkpt lat="42.86287" lon="0.04008">
        <ele>1750.7</ele>
        <time>2013-02-03T12:11:30Z</time>
      </trkpt>
      <trkpt lat="42.86296" lon="0.04004">
        <ele>1747.81</ele>
        <time>2013-02-03T12:11:32Z</time>
      </trkpt>
      <trkpt lat="42.86306" lon="0.04001">
        <ele>1744.45</ele>
        <time>2013-02-03T12:11:34Z</time>
      </trkpt>
      <trkpt lat="42.8631" lon="0.03998">
        <ele>1743.49</ele>
        <time>2013-02-03T12:11:35Z</time>
      </trkpt>
      <trkpt lat="42.86327" lon="0.03989">
        <ele>1737.24</ele>
        <time>2013-02-03T12:11:39Z</time>
      </trkpt>
      <trkpt lat="42.86336" lon="0.03984">
        <ele>1733.88</ele>
        <time>2013-02-03T12:11:41Z</time>
      </trkpt>
      <trkpt lat="42.86341" lon="0.0397">
        <ele>1730.99</ele>
        <time>2013-02-03T12:11:44Z</time>
      </trkpt>
      <trkpt lat="42.86341" lon="0.03964">
        <ele>1731.47</ele>
        <time>2013-02-03T12:11:45Z</time>
      </trkpt>
      <trkpt lat="42.86341" lon="0.03944">
        <ele>1728.11</ele>
        <time>2013-02-03T12:11:48Z</time>
      </trkpt>
      <trkpt lat="42.86341" lon="0.03936">
        <ele>1727.63</ele>
        <time>2013-02-03T12:11:49Z</time>
      </trkpt>
      <trkpt lat="42.86347" lon="0.03926">
        <ele>1723.78</ele>
        <time>2013-02-03T12:11:51Z</time>
      </trkpt>
      <trkpt lat="42.86356" lon="0.03921">
        <ele>1719.94</ele>
        <time>2013-02-03T12:11:53Z</time>
      </trkpt>
      <trkpt lat="42.86371" lon="0.03911">
        <ele>1714.65</ele>
        <time>2013-02-03T12:11:56Z</time>
      </trkpt>
      <trkpt lat="42.8638" lon="0.03904">
        <ele>1711.28</ele>
        <time>2013-02-03T12:11:58Z</time>
      </trkpt>
      <trkpt lat="42.86393" lon="0.03891">
        <ele>1706.96</ele>
        <time>2013-02-03T12:12:01Z</time>
      </trkpt>
      <trkpt lat="42.864" lon="0.03882">
        <ele>1703.59</ele>
        <time>2013-02-03T12:12:03Z</time>
      </trkpt>
      <trkpt lat="42.86408" lon="0.0386">
        <ele>1698.31</ele>
        <time>2013-02-03T12:12:08Z</time>
      </trkpt>
      <trkpt lat="42.86403" lon="0.03844">
        <ele>1696.86</ele>
        <time>2013-02-03T12:12:16Z</time>
      </trkpt>
      <trkpt lat="42.86403" lon="0.03844">
        <ele>1695.9</ele>
        <time>2013-02-03T12:12:17Z</time>
      </trkpt>
      <trkpt lat="42.86414" lon="0.03832">
        <ele>1693.5</ele>
        <time>2013-02-03T12:12:22Z</time>
      </trkpt>
      <trkpt lat="42.86417" lon="0.03833">
        <ele>1693.02</ele>
        <time>2013-02-03T12:12:28Z</time>
      </trkpt>
      <trkpt lat="42.86418" lon="0.03831">
        <ele>1693.02</ele>
        <time>2013-02-03T12:12:43Z</time>
      </trkpt>
      <trkpt lat="42.86417" lon="0.03832">
        <ele>1693.02</ele>
        <time>2013-02-03T12:13:06Z</time>
      </trkpt>
      <trkpt lat="42.86416" lon="0.03832">
        <ele>1693.02</ele>
        <time>2013-02-03T12:13:43Z</time>
      </trkpt>
      <trkpt lat="42.86417" lon="0.03832">
        <ele>1692.06</ele>
        <time>2013-02-03T12:14:01Z</time>
      </trkpt>
      <trkpt lat="42.86415" lon="0.03833">
        <ele>1693.5</ele>
        <time>2013-02-03T12:14:34Z</time>
      </trkpt>
      <trkpt lat="42.86413" lon="0.03833">
        <ele>1693.5</ele>
        <time>2013-02-03T12:15:02Z</time>
      </trkpt>
      <trkpt lat="42.86419" lon="0.03832">
        <ele>1694.46</ele>
        <time>2013-02-03T12:15:30Z</time>
      </trkpt>
      <trkpt lat="42.86421" lon="0.03833">
        <ele>1693.98</ele>
        <time>2013-02-03T12:16:06Z</time>
      </trkpt>
      <trkpt lat="42.86423" lon="0.03833">
        <ele>1694.94</ele>
        <time>2013-02-03T12:16:37Z</time>
      </trkpt>
      <trkpt lat="42.86419" lon="0.03832">
        <ele>1695.42</ele>
        <time>2013-02-03T12:17:11Z</time>
      </trkpt>
      <trkpt lat="42.86418" lon="0.03831">
        <ele>1695.9</ele>
        <time>2013-02-03T12:17:46Z</time>
      </trkpt>
      <trkpt lat="42.86417" lon="0.03832">
        <ele>1695.9</ele>
        <time>2013-02-03T12:18:19Z</time>
      </trkpt>
      <trkpt lat="42.86417" lon="0.03832">
        <ele>1695.9</ele>
        <time>2013-02-03T12:18:52Z</time>
      </trkpt>
      <trkpt lat="42.86417" lon="0.03833">
        <ele>1695.9</ele>
        <time>2013-02-03T12:19:24Z</time>
      </trkpt>
      <trkpt lat="42.86417" lon="0.03835">
        <ele>1695.9</ele>
        <time>2013-02-03T12:19:56Z</time>
      </trkpt>
      <trkpt lat="42.86415" lon="0.03835">
        <ele>1695.9</ele>
        <time>2013-02-03T12:20:28Z</time>
      </trkpt>
      <trkpt lat="42.86415" lon="0.03831">
        <ele>1696.38</ele>
        <time>2013-02-03T12:21:09Z</time>
      </trkpt>
      <trkpt lat="42.86415" lon="0.03831">
        <ele>1696.86</ele>
        <time>2013-02-03T12:21:38Z</time>
      </trkpt>
      <trkpt lat="42.86416" lon="0.03831">
        <ele>1696.86</ele>
        <time>2013-02-03T12:22:20Z</time>
      </trkpt>
      <trkpt lat="42.86416" lon="0.03831">
        <ele>1697.83</ele>
        <time>2013-02-03T12:22:52Z</time>
      </trkpt>
      <trkpt lat="42.86415" lon="0.0383">
        <ele>1697.83</ele>
        <time>2013-02-03T12:23:25Z</time>
      </trkpt>
      <trkpt lat="42.86414" lon="0.0383">
        <ele>1698.31</ele>
        <time>2013-02-03T12:24:00Z</time>
      </trkpt>
      <trkpt lat="42.86415" lon="0.03831">
        <ele>1698.31</ele>
        <time>2013-02-03T12:24:31Z</time>
      </trkpt>
      <trkpt lat="42.86415" lon="0.03832">
        <ele>1698.31</ele>
        <time>2013-02-03T12:25:08Z</time>
      </trkpt>
      <trkpt lat="42.86415" lon="0.03832">
        <ele>1697.83</ele>
        <time>2013-02-03T12:25:52Z</time>
      </trkpt>
      <trkpt lat="42.86415" lon="0.03831">
        <ele>1697.34</ele>
        <time>2013-02-03T12:26:40Z</time>
      </trkpt>
      <trkpt lat="42.86414" lon="0.03831">
        <ele>1698.79</ele>
        <time>2013-02-03T12:26:51Z</time>
      </trkpt>
      <trkpt lat="42.86415" lon="0.0383">
        <ele>1699.27</ele>
        <time>2013-02-03T12:27:12Z</time>
      </trkpt>
      <trkpt lat="42.86415" lon="0.03831">
        <ele>1698.79</ele>
        <time>2013-02-03T12:27:28Z</time>
      </trkpt>
      <trkpt lat="42.86416" lon="0.03831">
        <ele>1699.27</ele>
        <time>2013-02-03T12:27:56Z</time>
      </trkpt>
      <trkpt lat="42.86415" lon="0.03832">
        <ele>1699.27</ele>
        <time>2013-02-03T12:28:16Z</time>
      </trkpt>
      <trkpt lat="42.86415" lon="0.03832">
        <ele>1699.27</ele>
        <time>2013-02-03T12:28:50Z</time>
      </trkpt>
      <trkpt lat="42.86416" lon="0.03832">
        <ele>1699.27</ele>
        <time>2013-02-03T12:29:23Z</time>
      </trkpt>
      <trkpt lat="42.86416" lon="0.03834">
        <ele>1699.75</ele>
        <time>2013-02-03T12:29:55Z</time>
      </trkpt>
      <trkpt lat="42.86433" lon="0.03841">
        <ele>1697.83</ele>
        <time>2013-02-03T12:30:10Z</time>
      </trkpt>
      <trkpt lat="42.8645" lon="0.03847">
        <ele>1694.94</ele>
        <time>2013-02-03T12:30:14Z</time>
      </trkpt>
      <trkpt lat="42.86455" lon="0.03849">
        <ele>1694.94</ele>
        <time>2013-02-03T12:30:15Z</time>
      </trkpt>
      <trkpt lat="42.86473" lon="0.0386">
        <ele>1691.58</ele>
        <time>2013-02-03T12:30:19Z</time>
      </trkpt>
      <trkpt lat="42.86478" lon="0.03863">
        <ele>1691.1</ele>
        <time>2013-02-03T12:30:20Z</time>
      </trkpt>
      <trkpt lat="42.86496" lon="0.03872">
        <ele>1688.21</ele>
        <time>2013-02-03T12:30:24Z</time>
      </trkpt>
      <trkpt lat="42.86516" lon="0.03873">
        <ele>1683.89</ele>
        <time>2013-02-03T12:30:28Z</time>
      </trkpt>
      <trkpt lat="42.86529" lon="0.03867">
        <ele>1679.56</ele>
        <time>2013-02-03T12:30:31Z</time>
      </trkpt>
      <trkpt lat="42.86537" lon="0.03862">
        <ele>1676.2</ele>
        <time>2013-02-03T12:30:33Z</time>
      </trkpt>
      <trkpt lat="42.8655" lon="0.03858">
        <ele>1671.87</ele>
        <time>2013-02-03T12:30:36Z</time>
      </trkpt>
      <trkpt lat="42.86565" lon="0.03858">
        <ele>1668.51</ele>
        <time>2013-02-03T12:30:39Z</time>
      </trkpt>
      <trkpt lat="42.86578" lon="0.03855">
        <ele>1664.18</ele>
        <time>2013-02-03T12:30:42Z</time>
      </trkpt>
      <trkpt lat="42.86588" lon="0.03859">
        <ele>1659.85</ele>
        <time>2013-02-03T12:30:46Z</time>
      </trkpt>
      <trkpt lat="42.86588" lon="0.0386">
        <ele>1660.81</ele>
        <time>2013-02-03T12:31:04Z</time>
      </trkpt>
      <trkpt lat="42.86609" lon="0.03851">
        <ele>1656.49</ele>
        <time>2013-02-03T12:31:10Z</time>
      </trkpt>
      <trkpt lat="42.8662" lon="0.03847">
        <ele>1653.12</ele>
        <time>2013-02-03T12:31:12Z</time>
      </trkpt>
      <trkpt lat="42.86632" lon="0.03843">
        <ele>1648.8</ele>
        <time>2013-02-03T12:31:14Z</time>
      </trkpt>
      <trkpt lat="42.86641" lon="0.03838">
        <ele>1645.43</ele>
        <time>2013-02-03T12:31:16Z</time>
      </trkpt>
      <trkpt lat="42.86656" lon="0.03828">
        <ele>1640.15</ele>
        <time>2013-02-03T12:31:19Z</time>
      </trkpt>
      <trkpt lat="42.86667" lon="0.03826">
        <ele>1636.3</ele>
        <time>2013-02-03T12:31:21Z</time>
      </trkpt>
      <trkpt lat="42.86674" lon="0.03828">
        <ele>1635.82</ele>
        <time>2013-02-03T12:31:22Z</time>
      </trkpt>
      <trkpt lat="42.86685" lon="0.03833">
        <ele>1634.38</ele>
        <time>2013-02-03T12:31:24Z</time>
      </trkpt>
      <trkpt lat="42.86703" lon="0.03838">
        <ele>1631.01</ele>
        <time>2013-02-03T12:31:27Z</time>
      </trkpt>
      <trkpt lat="42.86723" lon="0.03844">
        <ele>1627.17</ele>
        <time>2013-02-03T12:31:30Z</time>
      </trkpt>
      <trkpt lat="42.86736" lon="0.03852">
        <ele>1625.25</ele>
        <time>2013-02-03T12:31:32Z</time>
      </trkpt>
      <trkpt lat="42.8675" lon="0.0385">
        <ele>1621.4</ele>
        <time>2013-02-03T12:31:35Z</time>
      </trkpt>
      <trkpt lat="42.86755" lon="0.03849">
        <ele>1619.48</ele>
        <time>2013-02-03T12:31:36Z</time>
      </trkpt>
      <trkpt lat="42.8677" lon="0.03849">
        <ele>1614.67</ele>
        <time>2013-02-03T12:31:39Z</time>
      </trkpt>
      <trkpt lat="42.86776" lon="0.03849">
        <ele>1612.75</ele>
        <time>2013-02-03T12:31:40Z</time>
      </trkpt>
      <trkpt lat="42.86794" lon="0.03862">
        <ele>1605.06</ele>
        <time>2013-02-03T12:31:48Z</time>
      </trkpt>
      <trkpt lat="42.86793" lon="0.03862">
        <ele>1605.06</ele>
        <time>2013-02-03T12:31:55Z</time>
      </trkpt>
      <trkpt lat="42.86794" lon="0.0386">
        <ele>1605.54</ele>
        <time>2013-02-03T12:32:15Z</time>
      </trkpt>
      <trkpt lat="42.86794" lon="0.03862">
        <ele>1605.54</ele>
        <time>2013-02-03T12:32:25Z</time>
      </trkpt>
      <trkpt lat="42.86806" lon="0.03869">
        <ele>1602.66</ele>
        <time>2013-02-03T12:32:29Z</time>
      </trkpt>
      <trkpt lat="42.86826" lon="0.03882">
        <ele>1598.33</ele>
        <time>2013-02-03T12:32:33Z</time>
      </trkpt>
      <trkpt lat="42.86835" lon="0.03878">
        <ele>1594</ele>
        <time>2013-02-03T12:32:35Z</time>
      </trkpt>
      <trkpt lat="42.86843" lon="0.03868">
        <ele>1588.72</ele>
        <time>2013-02-03T12:32:37Z</time>
      </trkpt>
      <trkpt lat="42.86854" lon="0.03875">
        <ele>1583.43</ele>
        <time>2013-02-03T12:32:39Z</time>
      </trkpt>
      <trkpt lat="42.86873" lon="0.039">
        <ele>1578.14</ele>
        <time>2013-02-03T12:32:43Z</time>
      </trkpt>
      <trkpt lat="42.86881" lon="0.03913">
        <ele>1574.78</ele>
        <time>2013-02-03T12:32:46Z</time>
      </trkpt>
      <trkpt lat="42.86883" lon="0.03916">
        <ele>1574.3</ele>
        <time>2013-02-03T12:32:47Z</time>
      </trkpt>
      <trkpt lat="42.86893" lon="0.03914">
        <ele>1570.93</ele>
        <time>2013-02-03T12:32:50Z</time>
      </trkpt>
      <trkpt lat="42.86902" lon="0.03908">
        <ele>1565.16</ele>
        <time>2013-02-03T12:32:52Z</time>
      </trkpt>
      <trkpt lat="42.86912" lon="0.03901">
        <ele>1560.36</ele>
        <time>2013-02-03T12:32:54Z</time>
      </trkpt>
      <trkpt lat="42.86917" lon="0.03899">
        <ele>1556.51</ele>
        <time>2013-02-03T12:32:55Z</time>
      </trkpt>
      <trkpt lat="42.86923" lon="0.03902">
        <ele>1554.59</ele>
        <time>2013-02-03T12:32:56Z</time>
      </trkpt>
      <trkpt lat="42.86928" lon="0.03907">
        <ele>1552.67</ele>
        <time>2013-02-03T12:32:57Z</time>
      </trkpt>
      <trkpt lat="42.86932" lon="0.0391">
        <ele>1551.22</ele>
        <time>2013-02-03T12:32:58Z</time>
      </trkpt>
      <trkpt lat="42.86937" lon="0.03911">
        <ele>1550.26</ele>
        <time>2013-02-03T12:32:59Z</time>
      </trkpt>
      <trkpt lat="42.86949" lon="0.03897">
        <ele>1544.98</ele>
        <time>2013-02-03T12:33:02Z</time>
      </trkpt>
      <trkpt lat="42.86952" lon="0.03896">
        <ele>1541.13</ele>
        <time>2013-02-03T12:33:03Z</time>
      </trkpt>
      <trkpt lat="42.86955" lon="0.039">
        <ele>1539.21</ele>
        <time>2013-02-03T12:33:04Z</time>
      </trkpt>
      <trkpt lat="42.86976" lon="0.03924">
        <ele>1534.4</ele>
        <time>2013-02-03T12:33:10Z</time>
      </trkpt>
      <trkpt lat="42.8698" lon="0.03928">
        <ele>1532.96</ele>
        <time>2013-02-03T12:33:11Z</time>
      </trkpt>
      <trkpt lat="42.87002" lon="0.03943">
        <ele>1527.19</ele>
        <time>2013-02-03T12:33:16Z</time>
      </trkpt>
      <trkpt lat="42.87006" lon="0.03947">
        <ele>1526.23</ele>
        <time>2013-02-03T12:33:17Z</time>
      </trkpt>
      <trkpt lat="42.87014" lon="0.03958">
        <ele>1522.39</ele>
        <time>2013-02-03T12:33:25Z</time>
      </trkpt>
      <trkpt lat="42.87014" lon="0.03958">
        <ele>1522.87</ele>
        <time>2013-02-03T12:33:31Z</time>
      </trkpt>
      <trkpt lat="42.87027" lon="0.03968">
        <ele>1519.98</ele>
        <time>2013-02-03T12:33:38Z</time>
      </trkpt>
      <trkpt lat="42.87027" lon="0.03969">
        <ele>1519.98</ele>
        <time>2013-02-03T12:33:54Z</time>
      </trkpt>
      <trkpt lat="42.87026" lon="0.03969">
        <ele>1519.98</ele>
        <time>2013-02-03T12:34:20Z</time>
      </trkpt>
      <trkpt lat="42.87025" lon="0.03968">
        <ele>1519.98</ele>
        <time>2013-02-03T12:34:47Z</time>
      </trkpt>
      <trkpt lat="42.87025" lon="0.03969">
        <ele>1520.46</ele>
        <time>2013-02-03T12:35:19Z</time>
      </trkpt>
      <trkpt lat="42.87025" lon="0.03969">
        <ele>1520.94</ele>
        <time>2013-02-03T12:35:41Z</time>
      </trkpt>
      <trkpt lat="42.87026" lon="0.0397">
        <ele>1520.94</ele>
        <time>2013-02-03T12:36:11Z</time>
      </trkpt>
      <trkpt lat="42.87041" lon="0.03978">
        <ele>1518.06</ele>
        <time>2013-02-03T12:36:17Z</time>
      </trkpt>
      <trkpt lat="42.87046" lon="0.03968">
        <ele>1513.73</ele>
        <time>2013-02-03T12:36:21Z</time>
      </trkpt>
      <trkpt lat="42.8705" lon="0.03969">
        <ele>1511.33</ele>
        <time>2013-02-03T12:36:23Z</time>
      </trkpt>
      <trkpt lat="42.87061" lon="0.03975">
        <ele>1507.97</ele>
        <time>2013-02-03T12:36:29Z</time>
      </trkpt>
      <trkpt lat="42.87065" lon="0.03977">
        <ele>1507</ele>
        <time>2013-02-03T12:36:32Z</time>
      </trkpt>
      <trkpt lat="42.87069" lon="0.03963">
        <ele>1503.16</ele>
        <time>2013-02-03T12:36:36Z</time>
      </trkpt>
      <trkpt lat="42.87068" lon="0.03959">
        <ele>1502.2</ele>
        <time>2013-02-03T12:36:37Z</time>
      </trkpt>
      <trkpt lat="42.87067" lon="0.03956">
        <ele>1501.72</ele>
        <time>2013-02-03T12:36:38Z</time>
      </trkpt>
      <trkpt lat="42.87066" lon="0.03954">
        <ele>1501.24</ele>
        <time>2013-02-03T12:36:39Z</time>
      </trkpt>
      <trkpt lat="42.87072" lon="0.03951">
        <ele>1498.35</ele>
        <time>2013-02-03T12:36:42Z</time>
      </trkpt>
      <trkpt lat="42.87073" lon="0.03947">
        <ele>1497.39</ele>
        <time>2013-02-03T12:36:43Z</time>
      </trkpt>
      <trkpt lat="42.87073" lon="0.03942">
        <ele>1495.95</ele>
        <time>2013-02-03T12:36:44Z</time>
      </trkpt>
      <trkpt lat="42.87073" lon="0.03937">
        <ele>1494.51</ele>
        <time>2013-02-03T12:36:45Z</time>
      </trkpt>
      <trkpt lat="42.87079" lon="0.03934">
        <ele>1490.66</ele>
        <time>2013-02-03T12:36:47Z</time>
      </trkpt>
      <trkpt lat="42.87086" lon="0.03938">
        <ele>1489.22</ele>
        <time>2013-02-03T12:36:49Z</time>
      </trkpt>
      <trkpt lat="42.87099" lon="0.03953">
        <ele>1485.37</ele>
        <time>2013-02-03T12:36:56Z</time>
      </trkpt>
      <trkpt lat="42.87114" lon="0.03965">
        <ele>1481.05</ele>
        <time>2013-02-03T12:37:01Z</time>
      </trkpt>
      <trkpt lat="42.87118" lon="0.03967">
        <ele>1479.13</ele>
        <time>2013-02-03T12:37:02Z</time>
      </trkpt>
      <trkpt lat="42.87126" lon="0.03962">
        <ele>1475.76</ele>
        <time>2013-02-03T12:37:04Z</time>
      </trkpt>
      <trkpt lat="42.87132" lon="0.03961">
        <ele>1471.44</ele>
        <time>2013-02-03T12:37:06Z</time>
      </trkpt>
      <trkpt lat="42.87133" lon="0.03961">
        <ele>1462.78</ele>
        <time>2013-02-03T12:37:07Z</time>
      </trkpt>
      <trkpt lat="42.87134" lon="0.03961">
        <ele>1468.55</ele>
        <time>2013-02-03T12:37:08Z</time>
      </trkpt>
      <trkpt lat="42.87133" lon="0.03961">
        <ele>1469.03</ele>
        <time>2013-02-03T12:37:10Z</time>
      </trkpt>
      <trkpt lat="42.87131" lon="0.03962">
        <ele>1469.51</ele>
        <time>2013-02-03T12:37:24Z</time>
      </trkpt>
      <trkpt lat="42.8713" lon="0.03963">
        <ele>1469.51</ele>
        <time>2013-02-03T12:37:33Z</time>
      </trkpt>
      <trkpt lat="42.87138" lon="0.03964">
        <ele>1466.63</ele>
        <time>2013-02-03T12:37:40Z</time>
      </trkpt>
      <trkpt lat="42.87138" lon="0.03962">
        <ele>1467.11</ele>
        <time>2013-02-03T12:38:01Z</time>
      </trkpt>
      <trkpt lat="42.87136" lon="0.03964">
        <ele>1467.11</ele>
        <time>2013-02-03T12:38:19Z</time>
      </trkpt>
      <trkpt lat="42.87137" lon="0.03964">
        <ele>1467.59</ele>
        <time>2013-02-03T12:38:40Z</time>
      </trkpt>
      <trkpt lat="42.87138" lon="0.03964">
        <ele>1468.07</ele>
        <time>2013-02-03T12:38:57Z</time>
      </trkpt>
      <trkpt lat="42.87142" lon="0.03954">
        <ele>1465.19</ele>
        <time>2013-02-03T12:39:01Z</time>
      </trkpt>
      <trkpt lat="42.87151" lon="0.03954">
        <ele>1460.86</ele>
        <time>2013-02-03T12:39:04Z</time>
      </trkpt>
      <trkpt lat="42.87156" lon="0.03947">
        <ele>1457.02</ele>
        <time>2013-02-03T12:39:06Z</time>
      </trkpt>
      <trkpt lat="42.87162" lon="0.03942">
        <ele>1453.17</ele>
        <time>2013-02-03T12:39:08Z</time>
      </trkpt>
      <trkpt lat="42.87166" lon="0.03936">
        <ele>1448.36</ele>
        <time>2013-02-03T12:39:10Z</time>
      </trkpt>
      <trkpt lat="42.87172" lon="0.0393">
        <ele>1444.52</ele>
        <time>2013-02-03T12:39:12Z</time>
      </trkpt>
      <trkpt lat="42.87174" lon="0.03917">
        <ele>1439.71</ele>
        <time>2013-02-03T12:39:14Z</time>
      </trkpt>
      <trkpt lat="42.87178" lon="0.03914">
        <ele>1435.87</ele>
        <time>2013-02-03T12:39:16Z</time>
      </trkpt>
      <trkpt lat="42.87179" lon="0.03916">
        <ele>1435.39</ele>
        <time>2013-02-03T12:39:17Z</time>
      </trkpt>
      <trkpt lat="42.87192" lon="0.03922">
        <ele>1432.02</ele>
        <time>2013-02-03T12:39:23Z</time>
      </trkpt>
      <trkpt lat="42.87197" lon="0.03925">
        <ele>1429.14</ele>
        <time>2013-02-03T12:39:25Z</time>
      </trkpt>
      <trkpt lat="42.87202" lon="0.03929">
        <ele>1427.21</ele>
        <time>2013-02-03T12:39:29Z</time>
      </trkpt>
      <trkpt lat="42.87203" lon="0.03929">
        <ele>1427.7</ele>
        <time>2013-02-03T12:39:35Z</time>
      </trkpt>
      <trkpt lat="42.87207" lon="0.03927">
        <ele>1424.81</ele>
        <time>2013-02-03T12:39:37Z</time>
      </trkpt>
      <trkpt lat="42.87212" lon="0.0392">
        <ele>1422.41</ele>
        <time>2013-02-03T12:39:39Z</time>
      </trkpt>
      <trkpt lat="42.87213" lon="0.03916">
        <ele>1420.49</ele>
        <time>2013-02-03T12:39:40Z</time>
      </trkpt>
      <trkpt lat="42.87217" lon="0.03917">
        <ele>1417.6</ele>
        <time>2013-02-03T12:39:46Z</time>
      </trkpt>
      <trkpt lat="42.87216" lon="0.03919">
        <ele>1417.6</ele>
        <time>2013-02-03T12:40:03Z</time>
      </trkpt>
      <trkpt lat="42.87217" lon="0.03918">
        <ele>1418.08</ele>
        <time>2013-02-03T12:40:22Z</time>
      </trkpt>
      <trkpt lat="42.87216" lon="0.0392">
        <ele>1417.6</ele>
        <time>2013-02-03T12:40:45Z</time>
      </trkpt>
      <trkpt lat="42.87213" lon="0.03916">
        <ele>1418.08</ele>
        <time>2013-02-03T12:41:11Z</time>
      </trkpt>
      <trkpt lat="42.87211" lon="0.03918">
        <ele>1418.56</ele>
        <time>2013-02-03T12:41:41Z</time>
      </trkpt>
      <trkpt lat="42.87213" lon="0.03918">
        <ele>1418.56</ele>
        <time>2013-02-03T12:42:00Z</time>
      </trkpt>
      <trkpt lat="42.87213" lon="0.03918">
        <ele>1419.04</ele>
        <time>2013-02-03T12:42:28Z</time>
      </trkpt>
      <trkpt lat="42.87215" lon="0.03918">
        <ele>1419.52</ele>
        <time>2013-02-03T12:42:54Z</time>
      </trkpt>
      <trkpt lat="42.87215" lon="0.03918">
        <ele>1419.04</ele>
        <time>2013-02-03T12:43:15Z</time>
      </trkpt>
      <trkpt lat="42.87216" lon="0.03916">
        <ele>1418.56</ele>
        <time>2013-02-03T12:43:17Z</time>
      </trkpt>
      <trkpt lat="42.87217" lon="0.03913">
        <ele>1417.6</ele>
        <time>2013-02-03T12:43:18Z</time>
      </trkpt>
      <trkpt lat="42.87217" lon="0.03911">
        <ele>1416.64</ele>
        <time>2013-02-03T12:43:19Z</time>
      </trkpt>
      <trkpt lat="42.87217" lon="0.03909">
        <ele>1416.16</ele>
        <time>2013-02-03T12:43:20Z</time>
      </trkpt>
      <trkpt lat="42.87217" lon="0.03906">
        <ele>1415.68</ele>
        <time>2013-02-03T12:43:21Z</time>
      </trkpt>
      <trkpt lat="42.87218" lon="0.03898">
        <ele>1414.72</ele>
        <time>2013-02-03T12:43:23Z</time>
      </trkpt>
      <trkpt lat="42.8722" lon="0.03894">
        <ele>1409.43</ele>
        <time>2013-02-03T12:43:25Z</time>
      </trkpt>
      <trkpt lat="42.87219" lon="0.03894">
        <ele>1409.91</ele>
        <time>2013-02-03T12:43:35Z</time>
      </trkpt>
      <trkpt lat="42.87219" lon="0.03894">
        <ele>1409.43</ele>
        <time>2013-02-03T12:43:36Z</time>
      </trkpt>
      <trkpt lat="42.87229" lon="0.039">
        <ele>1406.07</ele>
        <time>2013-02-03T12:43:40Z</time>
      </trkpt>
      <trkpt lat="42.87234" lon="0.03905">
        <ele>1405.1</ele>
        <time>2013-02-03T12:43:42Z</time>
      </trkpt>
      <trkpt lat="42.87237" lon="0.03908">
        <ele>1403.66</ele>
        <time>2013-02-03T12:43:43Z</time>
      </trkpt>
      <trkpt lat="42.87246" lon="0.03918">
        <ele>1401.26</ele>
        <time>2013-02-03T12:43:46Z</time>
      </trkpt>
      <trkpt lat="42.87257" lon="0.03933">
        <ele>1398.86</ele>
        <time>2013-02-03T12:43:57Z</time>
      </trkpt>
      <trkpt lat="42.87265" lon="0.03941">
        <ele>1396.45</ele>
        <time>2013-02-03T12:44:01Z</time>
      </trkpt>
      <trkpt lat="42.87268" lon="0.03944">
        <ele>1395.01</ele>
        <time>2013-02-03T12:44:11Z</time>
      </trkpt>
      <trkpt lat="42.87268" lon="0.03944">
        <ele>1394.53</ele>
        <time>2013-02-03T12:44:15Z</time>
      </trkpt>
      <trkpt lat="42.87275" lon="0.0395">
        <ele>1392.13</ele>
        <time>2013-02-03T12:44:20Z</time>
      </trkpt>
      <trkpt lat="42.87272" lon="0.0395">
        <ele>1392.13</ele>
        <time>2013-02-03T12:44:38Z</time>
      </trkpt>
      <trkpt lat="42.87273" lon="0.03951">
        <ele>1392.13</ele>
        <time>2013-02-03T12:45:03Z</time>
      </trkpt>
      <trkpt lat="42.87272" lon="0.0395">
        <ele>1392.13</ele>
        <time>2013-02-03T12:45:22Z</time>
      </trkpt>
      <trkpt lat="42.87276" lon="0.0395">
        <ele>1392.13</ele>
        <time>2013-02-03T12:45:44Z</time>
      </trkpt>
      <trkpt lat="42.87275" lon="0.03952">
        <ele>1392.13</ele>
        <time>2013-02-03T12:46:05Z</time>
      </trkpt>
      <trkpt lat="42.87279" lon="0.03943">
        <ele>1390.68</ele>
        <time>2013-02-03T12:46:09Z</time>
      </trkpt>
      <trkpt lat="42.87288" lon="0.03932">
        <ele>1385.4</ele>
        <time>2013-02-03T12:46:12Z</time>
      </trkpt>
      <trkpt lat="42.87293" lon="0.03929">
        <ele>1385.4</ele>
        <time>2013-02-03T12:46:13Z</time>
      </trkpt>
      <trkpt lat="42.87298" lon="0.03925">
        <ele>1382.99</ele>
        <time>2013-02-03T12:46:14Z</time>
      </trkpt>
      <trkpt lat="42.873" lon="0.03922">
        <ele>1380.59</ele>
        <time>2013-02-03T12:46:15Z</time>
      </trkpt>
      <trkpt lat="42.873" lon="0.03923">
        <ele>1379.15</ele>
        <time>2013-02-03T12:46:24Z</time>
      </trkpt>
      <trkpt lat="42.87302" lon="0.03921">
        <ele>1379.15</ele>
        <time>2013-02-03T12:46:46Z</time>
      </trkpt>
      <trkpt lat="42.87293" lon="0.03882">
        <ele>1376.75</ele>
        <time>2013-02-03T12:46:57Z</time>
      </trkpt>
      <trkpt lat="42.87289" lon="0.03874">
        <ele>1376.26</ele>
        <time>2013-02-03T12:46:59Z</time>
      </trkpt>
      <trkpt lat="42.87287" lon="0.03868">
        <ele>1375.78</ele>
        <time>2013-02-03T12:47:00Z</time>
      </trkpt>
      <trkpt lat="42.87286" lon="0.03863">
        <ele>1375.3</ele>
        <time>2013-02-03T12:47:01Z</time>
      </trkpt>
      <trkpt lat="42.87286" lon="0.03857">
        <ele>1373.86</ele>
        <time>2013-02-03T12:47:02Z</time>
      </trkpt>
      <trkpt lat="42.87288" lon="0.03851">
        <ele>1372.42</ele>
        <time>2013-02-03T12:47:03Z</time>
      </trkpt>
      <trkpt lat="42.87289" lon="0.03845">
        <ele>1371.46</ele>
        <time>2013-02-03T12:47:04Z</time>
      </trkpt>
      <trkpt lat="42.8729" lon="0.03838">
        <ele>1369.54</ele>
        <time>2013-02-03T12:47:05Z</time>
      </trkpt>
      <trkpt lat="42.87292" lon="0.0383">
        <ele>1368.57</ele>
        <time>2013-02-03T12:47:06Z</time>
      </trkpt>
      <trkpt lat="42.87293" lon="0.03822">
        <ele>1367.61</ele>
        <time>2013-02-03T12:47:07Z</time>
      </trkpt>
      <trkpt lat="42.87292" lon="0.03813">
        <ele>1366.17</ele>
        <time>2013-02-03T12:47:08Z</time>
      </trkpt>
      <trkpt lat="42.8729" lon="0.03789">
        <ele>1362.81</ele>
        <time>2013-02-03T12:47:11Z</time>
      </trkpt>
      <trkpt lat="42.87288" lon="0.03776">
        <ele>1361.36</ele>
        <time>2013-02-03T12:47:13Z</time>
      </trkpt>
      <trkpt lat="42.87283" lon="0.03741">
        <ele>1357.52</ele>
        <time>2013-02-03T12:47:20Z</time>
      </trkpt>
      <trkpt lat="42.87284" lon="0.03733">
        <ele>1356.56</ele>
        <time>2013-02-03T12:47:21Z</time>
      </trkpt>
      <trkpt lat="42.87285" lon="0.03726">
        <ele>1356.56</ele>
        <time>2013-02-03T12:47:22Z</time>
      </trkpt>
      <trkpt lat="42.87286" lon="0.03721">
        <ele>1356.08</ele>
        <time>2013-02-03T12:47:23Z</time>
      </trkpt>
      <trkpt lat="42.87286" lon="0.03719">
        <ele>1355.12</ele>
        <time>2013-02-03T12:47:24Z</time>
      </trkpt>
      <trkpt lat="42.87286" lon="0.03718">
        <ele>1356.08</ele>
        <time>2013-02-03T12:47:34Z</time>
      </trkpt>
      <trkpt lat="42.87284" lon="0.03719">
        <ele>1356.08</ele>
        <time>2013-02-03T12:48:02Z</time>
      </trkpt>
      <trkpt lat="42.87287" lon="0.0372">
        <ele>1355.6</ele>
        <time>2013-02-03T12:48:07Z</time>
      </trkpt>
      <trkpt lat="42.87291" lon="0.03721">
        <ele>1355.12</ele>
        <time>2013-02-03T12:48:09Z</time>
      </trkpt>
      <trkpt lat="42.87294" lon="0.03719">
        <ele>1354.15</ele>
        <time>2013-02-03T12:48:10Z</time>
      </trkpt>
      <trkpt lat="42.87295" lon="0.03717">
        <ele>1353.67</ele>
        <time>2013-02-03T12:48:11Z</time>
      </trkpt>
      <trkpt lat="42.87296" lon="0.03714">
        <ele>1353.19</ele>
        <time>2013-02-03T12:48:12Z</time>
      </trkpt>
      <trkpt lat="42.87296" lon="0.03712">
        <ele>1353.19</ele>
        <time>2013-02-03T12:48:13Z</time>
      </trkpt>
      <trkpt lat="42.87299" lon="0.03712">
        <ele>1353.19</ele>
        <time>2013-02-03T12:48:28Z</time>
      </trkpt>
      <trkpt lat="42.87297" lon="0.03711">
        <ele>1353.19</ele>
        <time>2013-02-03T12:48:51Z</time>
      </trkpt>
      <trkpt lat="42.87297" lon="0.03708">
        <ele>1352.71</ele>
        <time>2013-02-03T12:49:01Z</time>
      </trkpt>
      <trkpt lat="42.87314" lon="0.03705">
        <ele>1349.35</ele>
        <time>2013-02-03T12:49:06Z</time>
      </trkpt>
      <trkpt lat="42.87327" lon="0.03699">
        <ele>1344.54</ele>
        <time>2013-02-03T12:49:09Z</time>
      </trkpt>
      <trkpt lat="42.87336" lon="0.03693">
        <ele>1341.18</ele>
        <time>2013-02-03T12:49:11Z</time>
      </trkpt>
      <trkpt lat="42.87344" lon="0.03689">
        <ele>1337.81</ele>
        <time>2013-02-03T12:49:13Z</time>
      </trkpt>
      <trkpt lat="42.87349" lon="0.03687">
        <ele>1336.37</ele>
        <time>2013-02-03T12:49:14Z</time>
      </trkpt>
      <trkpt lat="42.87358" lon="0.03685">
        <ele>1332.52</ele>
        <time>2013-02-03T12:49:16Z</time>
      </trkpt>
      <trkpt lat="42.87363" lon="0.03678">
        <ele>1330.12</ele>
        <time>2013-02-03T12:49:18Z</time>
      </trkpt>
      <trkpt lat="42.87367" lon="0.0367">
        <ele>1329.16</ele>
        <time>2013-02-03T12:49:20Z</time>
      </trkpt>
      <trkpt lat="42.87371" lon="0.03648">
        <ele>1325.8</ele>
        <time>2013-02-03T12:49:25Z</time>
      </trkpt>
      <trkpt lat="42.87371" lon="0.03647">
        <ele>1325.31</ele>
        <time>2013-02-03T12:49:26Z</time>
      </trkpt>
      <trkpt lat="42.87372" lon="0.03647">
        <ele>1326.28</ele>
        <time>2013-02-03T12:49:27Z</time>
      </trkpt>
      <trkpt lat="42.87372" lon="0.03644">
        <ele>1325.8</ele>
        <time>2013-02-03T12:49:38Z</time>
      </trkpt>
      <trkpt lat="42.87372" lon="0.03646">
        <ele>1326.28</ele>
        <time>2013-02-03T12:49:41Z</time>
      </trkpt>
      <trkpt lat="42.87371" lon="0.03663">
        <ele>1326.76</ele>
        <time>2013-02-03T12:49:53Z</time>
      </trkpt>
      <trkpt lat="42.87372" lon="0.03667">
        <ele>1326.76</ele>
        <time>2013-02-03T12:49:57Z</time>
      </trkpt>
      <trkpt lat="42.87375" lon="0.03686">
        <ele>1323.39</ele>
        <time>2013-02-03T12:50:06Z</time>
      </trkpt>
      <trkpt lat="42.87375" lon="0.03696">
        <ele>1322.43</ele>
        <time>2013-02-03T12:50:10Z</time>
      </trkpt>
      <trkpt lat="42.87375" lon="0.03703">
        <ele>1321.95</ele>
        <time>2013-02-03T12:50:11Z</time>
      </trkpt>
      <trkpt lat="42.87375" lon="0.03707">
        <ele>1320.99</ele>
        <time>2013-02-03T12:50:12Z</time>
      </trkpt>
      <trkpt lat="42.87374" lon="0.03709">
        <ele>1320.03</ele>
        <time>2013-02-03T12:50:17Z</time>
      </trkpt>
      <trkpt lat="42.87376" lon="0.0371">
        <ele>1319.55</ele>
        <time>2013-02-03T12:50:18Z</time>
      </trkpt>
      <trkpt lat="42.87379" lon="0.0371">
        <ele>1319.07</ele>
        <time>2013-02-03T12:50:20Z</time>
      </trkpt>
      <trkpt lat="42.8738" lon="0.03707">
        <ele>1318.59</ele>
        <time>2013-02-03T12:50:21Z</time>
      </trkpt>
      <trkpt lat="42.87381" lon="0.03704">
        <ele>1317.62</ele>
        <time>2013-02-03T12:50:22Z</time>
      </trkpt>
      <trkpt lat="42.87382" lon="0.03702">
        <ele>1316.66</ele>
        <time>2013-02-03T12:50:23Z</time>
      </trkpt>
      <trkpt lat="42.87383" lon="0.03701">
        <ele>1316.18</ele>
        <time>2013-02-03T12:50:24Z</time>
      </trkpt>
      <trkpt lat="42.87384" lon="0.037">
        <ele>1316.18</ele>
        <time>2013-02-03T12:50:25Z</time>
      </trkpt>
      <trkpt lat="42.87388" lon="0.03694">
        <ele>1314.26</ele>
        <time>2013-02-03T12:50:28Z</time>
      </trkpt>
      <trkpt lat="42.8739" lon="0.0369">
        <ele>1312.82</ele>
        <time>2013-02-03T12:50:31Z</time>
      </trkpt>
      <trkpt lat="42.87391" lon="0.03689">
        <ele>1311.86</ele>
        <time>2013-02-03T12:50:32Z</time>
      </trkpt>
      <trkpt lat="42.87393" lon="0.03688">
        <ele>1311.38</ele>
        <time>2013-02-03T12:50:33Z</time>
      </trkpt>
      <trkpt lat="42.87403" lon="0.03681">
        <ele>1307.05</ele>
        <time>2013-02-03T12:50:40Z</time>
      </trkpt>
      <trkpt lat="42.87423" lon="0.03671">
        <ele>1301.28</ele>
        <time>2013-02-03T12:50:43Z</time>
      </trkpt>
      <trkpt lat="42.87432" lon="0.03667">
        <ele>1297.44</ele>
        <time>2013-02-03T12:50:44Z</time>
      </trkpt>
      <trkpt lat="42.87437" lon="0.03665">
        <ele>1296.48</ele>
        <time>2013-02-03T12:50:49Z</time>
      </trkpt>
      <trkpt lat="42.87435" lon="0.03662">
        <ele>1296.96</ele>
        <time>2013-02-03T12:51:07Z</time>
      </trkpt>
      <trkpt lat="42.87435" lon="0.0366">
        <ele>1296.48</ele>
        <time>2013-02-03T12:51:11Z</time>
      </trkpt>
      <trkpt lat="42.87439" lon="0.03645">
        <ele>1294.55</ele>
        <time>2013-02-03T12:51:22Z</time>
      </trkpt>
      <trkpt lat="42.87439" lon="0.03642">
        <ele>1295.99</ele>
        <time>2013-02-03T12:51:35Z</time>
      </trkpt>
      <trkpt lat="42.87435" lon="0.03643">
        <ele>1295.51</ele>
        <time>2013-02-03T12:52:05Z</time>
      </trkpt>
      <trkpt lat="42.87439" lon="0.03642">
        <ele>1296.48</ele>
        <time>2013-02-03T12:52:33Z</time>
      </trkpt>
      <trkpt lat="42.8744" lon="0.03642">
        <ele>1297.44</ele>
        <time>2013-02-03T12:53:06Z</time>
      </trkpt>
      <trkpt lat="42.8744" lon="0.03643">
        <ele>1297.44</ele>
        <time>2013-02-03T12:53:33Z</time>
      </trkpt>
      <trkpt lat="42.87439" lon="0.03644">
        <ele>1297.44</ele>
        <time>2013-02-03T12:54:00Z</time>
      </trkpt>
      <trkpt lat="42.87447" lon="0.03641">
        <ele>1295.99</ele>
        <time>2013-02-03T12:54:04Z</time>
      </trkpt>
      <trkpt lat="42.87458" lon="0.03646">
        <ele>1291.67</ele>
        <time>2013-02-03T12:54:07Z</time>
      </trkpt>
      <trkpt lat="42.87467" lon="0.03642">
        <ele>1288.3</ele>
        <time>2013-02-03T12:54:09Z</time>
      </trkpt>
      <trkpt lat="42.87475" lon="0.03642">
        <ele>1284.46</ele>
        <time>2013-02-03T12:54:11Z</time>
      </trkpt>
      <trkpt lat="42.87479" lon="0.03643">
        <ele>1282.06</ele>
        <time>2013-02-03T12:54:12Z</time>
      </trkpt>
      <trkpt lat="42.87483" lon="0.03642">
        <ele>1279.65</ele>
        <time>2013-02-03T12:54:13Z</time>
      </trkpt>
      <trkpt lat="42.87487" lon="0.03639">
        <ele>1278.21</ele>
        <time>2013-02-03T12:54:14Z</time>
      </trkpt>
      <trkpt lat="42.87491" lon="0.03637">
        <ele>1277.73</ele>
        <time>2013-02-03T12:54:15Z</time>
      </trkpt>
      <trkpt lat="42.87495" lon="0.03636">
        <ele>1274.85</ele>
        <time>2013-02-03T12:54:16Z</time>
      </trkpt>
      <trkpt lat="42.875" lon="0.03633">
        <ele>1272.44</ele>
        <time>2013-02-03T12:54:17Z</time>
      </trkpt>
      <trkpt lat="42.87504" lon="0.03628">
        <ele>1271</ele>
        <time>2013-02-03T12:54:18Z</time>
      </trkpt>
      <trkpt lat="42.87513" lon="0.03617">
        <ele>1268.12</ele>
        <time>2013-02-03T12:54:20Z</time>
      </trkpt>
      <trkpt lat="42.87522" lon="0.03615">
        <ele>1263.31</ele>
        <time>2013-02-03T12:54:22Z</time>
      </trkpt>
      <trkpt lat="42.87535" lon="0.03611">
        <ele>1259.46</ele>
        <time>2013-02-03T12:54:25Z</time>
      </trkpt>
      <trkpt lat="42.87547" lon="0.03616">
        <ele>1255.62</ele>
        <time>2013-02-03T12:54:28Z</time>
      </trkpt>
      <trkpt lat="42.87555" lon="0.03619">
        <ele>1251.77</ele>
        <time>2013-02-03T12:54:30Z</time>
      </trkpt>
      <trkpt lat="42.8756" lon="0.03615">
        <ele>1249.37</ele>
        <time>2013-02-03T12:54:32Z</time>
      </trkpt>
      <trkpt lat="42.87562" lon="0.03607">
        <ele>1246.01</ele>
        <time>2013-02-03T12:54:34Z</time>
      </trkpt>
      <trkpt lat="42.87566" lon="0.03605">
        <ele>1243.12</ele>
        <time>2013-02-03T12:54:37Z</time>
      </trkpt>
      <trkpt lat="42.87569" lon="0.03609">
        <ele>1241.68</ele>
        <time>2013-02-03T12:54:39Z</time>
      </trkpt>
      <trkpt lat="42.87574" lon="0.03602">
        <ele>1238.32</ele>
        <time>2013-02-03T12:54:43Z</time>
      </trkpt>
      <trkpt lat="42.87575" lon="0.03598">
        <ele>1237.83</ele>
        <time>2013-02-03T12:54:44Z</time>
      </trkpt>
      <trkpt lat="42.87581" lon="0.03588">
        <ele>1231.59</ele>
        <time>2013-02-03T12:54:48Z</time>
      </trkpt>
      <trkpt lat="42.87593" lon="0.03602">
        <ele>1228.22</ele>
        <time>2013-02-03T12:54:51Z</time>
      </trkpt>
      <trkpt lat="42.87596" lon="0.03608">
        <ele>1227.26</ele>
        <time>2013-02-03T12:54:53Z</time>
      </trkpt>
      <trkpt lat="42.87595" lon="0.03613">
        <ele>1227.74</ele>
        <time>2013-02-03T12:55:06Z</time>
      </trkpt>
      <trkpt lat="42.87595" lon="0.03613">
        <ele>1227.74</ele>
        <time>2013-02-03T12:55:29Z</time>
      </trkpt>
      <trkpt lat="42.87596" lon="0.03613">
        <ele>1227.74</ele>
        <time>2013-02-03T12:55:46Z</time>
      </trkpt>
      <trkpt lat="42.8761" lon="0.0362">
        <ele>1223.42</ele>
        <time>2013-02-03T12:55:51Z</time>
      </trkpt>
      <trkpt lat="42.87616" lon="0.03613">
        <ele>1220.05</ele>
        <time>2013-02-03T12:55:53Z</time>
      </trkpt>
      <trkpt lat="42.87624" lon="0.03615">
        <ele>1218.61</ele>
        <time>2013-02-03T12:55:55Z</time>
      </trkpt>
      <trkpt lat="42.8763" lon="0.03598">
        <ele>1213.8</ele>
        <time>2013-02-03T12:55:58Z</time>
      </trkpt>
      <trkpt lat="42.87629" lon="0.03586">
        <ele>1212.84</ele>
        <time>2013-02-03T12:56:00Z</time>
      </trkpt>
      <trkpt lat="42.87629" lon="0.03567">
        <ele>1209.96</ele>
        <time>2013-02-03T12:56:03Z</time>
      </trkpt>
      <trkpt lat="42.87631" lon="0.03565">
        <ele>1206.59</ele>
        <time>2013-02-03T12:56:04Z</time>
      </trkpt>
      <trkpt lat="42.87634" lon="0.03564">
        <ele>1206.59</ele>
        <time>2013-02-03T12:56:05Z</time>
      </trkpt>
      <trkpt lat="42.87632" lon="0.03554">
        <ele>1203.71</ele>
        <time>2013-02-03T12:56:12Z</time>
      </trkpt>
      <trkpt lat="42.87632" lon="0.03552">
        <ele>1202.75</ele>
        <time>2013-02-03T12:56:16Z</time>
      </trkpt>
      <trkpt lat="42.87632" lon="0.03547">
        <ele>1202.75</ele>
        <time>2013-02-03T12:56:26Z</time>
      </trkpt>
      <trkpt lat="42.87633" lon="0.0355">
        <ele>1202.27</ele>
        <time>2013-02-03T12:56:41Z</time>
      </trkpt>
      <trkpt lat="42.87638" lon="0.0355">
        <ele>1202.27</ele>
        <time>2013-02-03T12:56:51Z</time>
      </trkpt>
      <trkpt lat="42.87654" lon="0.03579">
        <ele>1199.38</ele>
        <time>2013-02-03T12:57:03Z</time>
      </trkpt>
      <trkpt lat="42.87658" lon="0.03584">
        <ele>1198.42</ele>
        <time>2013-02-03T12:57:06Z</time>
      </trkpt>
      <trkpt lat="42.87659" lon="0.03583">
        <ele>1197.94</ele>
        <time>2013-02-03T12:57:07Z</time>
      </trkpt>
      <trkpt lat="42.87661" lon="0.03581">
        <ele>1197.46</ele>
        <time>2013-02-03T12:57:08Z</time>
      </trkpt>
      <trkpt lat="42.87661" lon="0.03579">
        <ele>1197.46</ele>
        <time>2013-02-03T12:57:09Z</time>
      </trkpt>
      <trkpt lat="42.87662" lon="0.03576">
        <ele>1196.98</ele>
        <time>2013-02-03T12:57:10Z</time>
      </trkpt>
      <trkpt lat="42.87661" lon="0.03572">
        <ele>1196.5</ele>
        <time>2013-02-03T12:57:11Z</time>
      </trkpt>
      <trkpt lat="42.87661" lon="0.03569">
        <ele>1196.5</ele>
        <time>2013-02-03T12:57:12Z</time>
      </trkpt>
      <trkpt lat="42.8766" lon="0.03566">
        <ele>1194.58</ele>
        <time>2013-02-03T12:57:14Z</time>
      </trkpt>
      <trkpt lat="42.87661" lon="0.03565">
        <ele>1195.06</ele>
        <time>2013-02-03T12:57:19Z</time>
      </trkpt>
      <trkpt lat="42.87661" lon="0.03563">
        <ele>1195.06</ele>
        <time>2013-02-03T12:57:20Z</time>
      </trkpt>
      <trkpt lat="42.8766" lon="0.0356">
        <ele>1194.58</ele>
        <time>2013-02-03T12:57:21Z</time>
      </trkpt>
      <trkpt lat="42.87659" lon="0.03557">
        <ele>1194.09</ele>
        <time>2013-02-03T12:57:22Z</time>
      </trkpt>
      <trkpt lat="42.87658" lon="0.03553">
        <ele>1193.61</ele>
        <time>2013-02-03T12:57:23Z</time>
      </trkpt>
      <trkpt lat="42.87657" lon="0.03548">
        <ele>1193.13</ele>
        <time>2013-02-03T12:57:24Z</time>
      </trkpt>
      <trkpt lat="42.87657" lon="0.03545">
        <ele>1192.65</ele>
        <time>2013-02-03T12:57:25Z</time>
      </trkpt>
      <trkpt lat="42.87656" lon="0.03541">
        <ele>1191.69</ele>
        <time>2013-02-03T12:57:26Z</time>
      </trkpt>
      <trkpt lat="42.87655" lon="0.03538">
        <ele>1190.73</ele>
        <time>2013-02-03T12:57:27Z</time>
      </trkpt>
      <trkpt lat="42.87655" lon="0.03537">
        <ele>1190.73</ele>
        <time>2013-02-03T12:57:28Z</time>
      </trkpt>
      <trkpt lat="42.87653" lon="0.03539">
        <ele>1191.21</ele>
        <time>2013-02-03T12:57:43Z</time>
      </trkpt>
      <trkpt lat="42.87654" lon="0.03534">
        <ele>1191.21</ele>
        <time>2013-02-03T12:57:53Z</time>
      </trkpt>
      <trkpt lat="42.87654" lon="0.0353">
        <ele>1190.25</ele>
        <time>2013-02-03T12:57:54Z</time>
      </trkpt>
      <trkpt lat="42.87653" lon="0.03524">
        <ele>1190.25</ele>
        <time>2013-02-03T12:57:55Z</time>
      </trkpt>
      <trkpt lat="42.87652" lon="0.03518">
        <ele>1188.33</ele>
        <time>2013-02-03T12:57:56Z</time>
      </trkpt>
      <trkpt lat="42.87661" lon="0.03514">
        <ele>1183.04</ele>
        <time>2013-02-03T12:57:59Z</time>
      </trkpt>
      <trkpt lat="42.87664" lon="0.03517">
        <ele>1182.08</ele>
        <time>2013-02-03T12:58:00Z</time>
      </trkpt>
      <trkpt lat="42.87668" lon="0.03521">
        <ele>1180.16</ele>
        <time>2013-02-03T12:58:02Z</time>
      </trkpt>
      <trkpt lat="42.87671" lon="0.03523">
        <ele>1179.67</ele>
        <time>2013-02-03T12:58:05Z</time>
      </trkpt>
      <trkpt lat="42.87664" lon="0.03498">
        <ele>1176.31</ele>
        <time>2013-02-03T12:58:14Z</time>
      </trkpt>
      <trkpt lat="42.87671" lon="0.03483">
        <ele>1170.54</ele>
        <time>2013-02-03T12:58:18Z</time>
      </trkpt>
      <trkpt lat="42.87676" lon="0.03487">
        <ele>1167.66</ele>
        <time>2013-02-03T12:58:20Z</time>
      </trkpt>
      <trkpt lat="42.87678" lon="0.03486">
        <ele>1168.14</ele>
        <time>2013-02-03T12:58:23Z</time>
      </trkpt>
      <trkpt lat="42.87676" lon="0.03478">
        <ele>1166.7</ele>
        <time>2013-02-03T12:58:26Z</time>
      </trkpt>
      <trkpt lat="42.87673" lon="0.03458">
        <ele>1164.77</ele>
        <time>2013-02-03T12:58:34Z</time>
      </trkpt>
      <trkpt lat="42.87672" lon="0.03458">
        <ele>1164.29</ele>
        <time>2013-02-03T12:58:48Z</time>
      </trkpt>
      <trkpt lat="42.87673" lon="0.0346">
        <ele>1164.29</ele>
        <time>2013-02-03T12:59:02Z</time>
      </trkpt>
      <trkpt lat="42.87674" lon="0.03461">
        <ele>1163.81</ele>
        <time>2013-02-03T12:59:03Z</time>
      </trkpt>
      <trkpt lat="42.87675" lon="0.03464">
        <ele>1163.33</ele>
        <time>2013-02-03T12:59:04Z</time>
      </trkpt>
      <trkpt lat="42.87683" lon="0.03473">
        <ele>1162.37</ele>
        <time>2013-02-03T12:59:08Z</time>
      </trkpt>
      <trkpt lat="42.8769" lon="0.03479">
        <ele>1161.41</ele>
        <time>2013-02-03T12:59:20Z</time>
      </trkpt>
      <trkpt lat="42.87704" lon="0.03492">
        <ele>1159.01</ele>
        <time>2013-02-03T12:59:27Z</time>
      </trkpt>
      <trkpt lat="42.87722" lon="0.03511">
        <ele>1157.08</ele>
        <time>2013-02-03T12:59:40Z</time>
      </trkpt>
      <trkpt lat="42.87735" lon="0.03523">
        <ele>1154.2</ele>
        <time>2013-02-03T12:59:53Z</time>
      </trkpt>
      <trkpt lat="42.87734" lon="0.03522">
        <ele>1155.16</ele>
        <time>2013-02-03T13:00:11Z</time>
      </trkpt>
      <trkpt lat="42.87733" lon="0.03522">
        <ele>1155.16</ele>
        <time>2013-02-03T13:00:29Z</time>
      </trkpt>
      <trkpt lat="42.87734" lon="0.03523">
        <ele>1155.16</ele>
        <time>2013-02-03T13:00:30Z</time>
      </trkpt>
      <trkpt lat="42.87739" lon="0.03531">
        <ele>1153.72</ele>
        <time>2013-02-03T13:00:35Z</time>
      </trkpt>
      <trkpt lat="42.87753" lon="0.03566">
        <ele>1150.84</ele>
        <time>2013-02-03T13:00:47Z</time>
      </trkpt>
      <trkpt lat="42.87754" lon="0.03603">
        <ele>1146.99</ele>
        <time>2013-02-03T13:00:59Z</time>
      </trkpt>
      <trkpt lat="42.87754" lon="0.03606">
        <ele>1146.99</ele>
        <time>2013-02-03T13:01:00Z</time>
      </trkpt>
      <trkpt lat="42.87757" lon="0.03607">
        <ele>1146.51</ele>
        <time>2013-02-03T13:01:03Z</time>
      </trkpt>
      <trkpt lat="42.87758" lon="0.03605">
        <ele>1146.03</ele>
        <time>2013-02-03T13:01:04Z</time>
      </trkpt>
      <trkpt lat="42.87759" lon="0.03603">
        <ele>1145.55</ele>
        <time>2013-02-03T13:01:05Z</time>
      </trkpt>
      <trkpt lat="42.87761" lon="0.03601">
        <ele>1145.55</ele>
        <time>2013-02-03T13:01:06Z</time>
      </trkpt>
      <trkpt lat="42.87763" lon="0.03598">
        <ele>1145.55</ele>
        <time>2013-02-03T13:01:07Z</time>
      </trkpt>
      <trkpt lat="42.87765" lon="0.03595">
        <ele>1145.07</ele>
        <time>2013-02-03T13:01:08Z</time>
      </trkpt>
      <trkpt lat="42.8777" lon="0.03588">
        <ele>1143.63</ele>
        <time>2013-02-03T13:01:11Z</time>
      </trkpt>
      <trkpt lat="42.87774" lon="0.03584">
        <ele>1143.14</ele>
        <time>2013-02-03T13:01:18Z</time>
      </trkpt>
      <trkpt lat="42.87778" lon="0.03576">
        <ele>1141.22</ele>
        <time>2013-02-03T13:01:20Z</time>
      </trkpt>
      <trkpt lat="42.87782" lon="0.03563">
        <ele>1138.34</ele>
        <time>2013-02-03T13:01:22Z</time>
      </trkpt>
      <trkpt lat="42.87784" lon="0.03556">
        <ele>1137.38</ele>
        <time>2013-02-03T13:01:23Z</time>
      </trkpt>
      <trkpt lat="42.8779" lon="0.03558">
        <ele>1134.01</ele>
        <time>2013-02-03T13:01:25Z</time>
      </trkpt>
      <trkpt lat="42.87793" lon="0.03565">
        <ele>1130.65</ele>
        <time>2013-02-03T13:01:27Z</time>
      </trkpt>
      <trkpt lat="42.87793" lon="0.03566">
        <ele>1131.13</ele>
        <time>2013-02-03T13:01:28Z</time>
      </trkpt>
      <trkpt lat="42.87792" lon="0.03567">
        <ele>1130.65</ele>
        <time>2013-02-03T13:01:31Z</time>
      </trkpt>
      <trkpt lat="42.87794" lon="0.03572">
        <ele>1129.69</ele>
        <time>2013-02-03T13:01:35Z</time>
      </trkpt>
      <trkpt lat="42.87798" lon="0.03571">
        <ele>1124.88</ele>
        <time>2013-02-03T13:01:39Z</time>
      </trkpt>
      <trkpt lat="42.87805" lon="0.03563">
        <ele>1121.03</ele>
        <time>2013-02-03T13:01:41Z</time>
      </trkpt>
      <trkpt lat="42.87811" lon="0.03553">
        <ele>1118.15</ele>
        <time>2013-02-03T13:01:43Z</time>
      </trkpt>
      <trkpt lat="42.87814" lon="0.03549">
        <ele>1118.15</ele>
        <time>2013-02-03T13:01:44Z</time>
      </trkpt>
      <trkpt lat="42.87823" lon="0.03541">
        <ele>1113.82</ele>
        <time>2013-02-03T13:01:47Z</time>
      </trkpt>
      <trkpt lat="42.87831" lon="0.03547">
        <ele>1112.86</ele>
        <time>2013-02-03T13:01:55Z</time>
      </trkpt>
      <trkpt lat="42.87835" lon="0.03543">
        <ele>1112.38</ele>
        <time>2013-02-03T13:02:07Z</time>
      </trkpt>
      <trkpt lat="42.87834" lon="0.03533">
        <ele>1111.42</ele>
        <time>2013-02-03T13:02:11Z</time>
      </trkpt>
      <trkpt lat="42.87834" lon="0.03526">
        <ele>1110.94</ele>
        <time>2013-02-03T13:02:13Z</time>
      </trkpt>
      <trkpt lat="42.8784" lon="0.03511">
        <ele>1106.13</ele>
        <time>2013-02-03T13:02:17Z</time>
      </trkpt>
      <trkpt lat="42.87844" lon="0.03514">
        <ele>1104.69</ele>
        <time>2013-02-03T13:02:18Z</time>
      </trkpt>
      <trkpt lat="42.87855" lon="0.03503">
        <ele>1098.92</ele>
        <time>2013-02-03T13:02:23Z</time>
      </trkpt>
      <trkpt lat="42.87861" lon="0.03502">
        <ele>1095.56</ele>
        <time>2013-02-03T13:02:25Z</time>
      </trkpt>
      <trkpt lat="42.87868" lon="0.03503">
        <ele>1092.2</ele>
        <time>2013-02-03T13:02:27Z</time>
      </trkpt>
      <trkpt lat="42.87873" lon="0.03495">
        <ele>1089.31</ele>
        <time>2013-02-03T13:02:30Z</time>
      </trkpt>
      <trkpt lat="42.87875" lon="0.03498">
        <ele>1089.31</ele>
        <time>2013-02-03T13:02:32Z</time>
      </trkpt>
      <trkpt lat="42.87882" lon="0.03511">
        <ele>1087.87</ele>
        <time>2013-02-03T13:02:37Z</time>
      </trkpt>
      <trkpt lat="42.87891" lon="0.03509">
        <ele>1083.06</ele>
        <time>2013-02-03T13:02:40Z</time>
      </trkpt>
      <trkpt lat="42.87902" lon="0.03513">
        <ele>1079.7</ele>
        <time>2013-02-03T13:02:43Z</time>
      </trkpt>
      <trkpt lat="42.87908" lon="0.03503">
        <ele>1075.37</ele>
        <time>2013-02-03T13:02:46Z</time>
      </trkpt>
      <trkpt lat="42.87917" lon="0.0351">
        <ele>1072.01</ele>
        <time>2013-02-03T13:02:49Z</time>
      </trkpt>
      <trkpt lat="42.87921" lon="0.03517">
        <ele>1071.05</ele>
        <time>2013-02-03T13:02:50Z</time>
      </trkpt>
      <trkpt lat="42.87936" lon="0.03519">
        <ele>1065.76</ele>
        <time>2013-02-03T13:02:55Z</time>
      </trkpt>
      <trkpt lat="42.8794" lon="0.03498">
        <ele>1061.91</ele>
        <time>2013-02-03T13:02:58Z</time>
      </trkpt>
      <trkpt lat="42.87939" lon="0.03487">
        <ele>1060.47</ele>
        <time>2013-02-03T13:03:06Z</time>
      </trkpt>
      <trkpt lat="42.87943" lon="0.03464">
        <ele>1057.11</ele>
        <time>2013-02-03T13:03:11Z</time>
      </trkpt>
      <trkpt lat="42.87943" lon="0.03458">
        <ele>1056.15</ele>
        <time>2013-02-03T13:03:12Z</time>
      </trkpt>
      <trkpt lat="42.87941" lon="0.03451">
        <ele>1055.67</ele>
        <time>2013-02-03T13:03:14Z</time>
      </trkpt>
      <trkpt lat="42.87946" lon="0.03448">
        <ele>1052.3</ele>
        <time>2013-02-03T13:03:19Z</time>
      </trkpt>
      <trkpt lat="42.87945" lon="0.03448">
        <ele>1052.78</ele>
        <time>2013-02-03T13:03:29Z</time>
      </trkpt>
      <trkpt lat="42.87953" lon="0.03456">
        <ele>1050.86</ele>
        <time>2013-02-03T13:03:33Z</time>
      </trkpt>
      <trkpt lat="42.8796" lon="0.03455">
        <ele>1047.97</ele>
        <time>2013-02-03T13:03:35Z</time>
      </trkpt>
      <trkpt lat="42.87977" lon="0.03454">
        <ele>1041.73</ele>
        <time>2013-02-03T13:03:39Z</time>
      </trkpt>
      <trkpt lat="42.87982" lon="0.03459">
        <ele>1038.36</ele>
        <time>2013-02-03T13:03:42Z</time>
      </trkpt>
      <trkpt lat="42.87993" lon="0.03433">
        <ele>1033.55</ele>
        <time>2013-02-03T13:03:47Z</time>
      </trkpt>
      <trkpt lat="42.87995" lon="0.03418">
        <ele>1032.11</ele>
        <time>2013-02-03T13:03:49Z</time>
      </trkpt>
      <trkpt lat="42.88003" lon="0.03402">
        <ele>1027.79</ele>
        <time>2013-02-03T13:03:52Z</time>
      </trkpt>
      <trkpt lat="42.88012" lon="0.03384">
        <ele>1022.02</ele>
        <time>2013-02-03T13:03:55Z</time>
      </trkpt>
      <trkpt lat="42.88024" lon="0.03367">
        <ele>1018.17</ele>
        <time>2013-02-03T13:03:58Z</time>
      </trkpt>
      <trkpt lat="42.88037" lon="0.03353">
        <ele>1012.89</ele>
        <time>2013-02-03T13:04:01Z</time>
      </trkpt>
      <trkpt lat="42.88045" lon="0.03344">
        <ele>1009.52</ele>
        <time>2013-02-03T13:04:03Z</time>
      </trkpt>
      <trkpt lat="42.88055" lon="0.03336">
        <ele>1006.16</ele>
        <time>2013-02-03T13:04:05Z</time>
      </trkpt>
      <trkpt lat="42.88066" lon="0.03333">
        <ele>1003.27</ele>
        <time>2013-02-03T13:04:07Z</time>
      </trkpt>
      <trkpt lat="42.8808" lon="0.03322">
        <ele>999.43</ele>
        <time>2013-02-03T13:04:10Z</time>
      </trkpt>
      <trkpt lat="42.88084" lon="0.03319">
        <ele>997.51</ele>
        <time>2013-02-03T13:04:11Z</time>
      </trkpt>
      <trkpt lat="42.88109" lon="0.03311">
        <ele>990.3</ele>
        <time>2013-02-03T13:04:16Z</time>
      </trkpt>
      <trkpt lat="42.88124" lon="0.03308">
        <ele>986.93</ele>
        <time>2013-02-03T13:04:19Z</time>
      </trkpt>
      <trkpt lat="42.88129" lon="0.03314">
        <ele>986.45</ele>
        <time>2013-02-03T13:04:26Z</time>
      </trkpt>
      <trkpt lat="42.88129" lon="0.03314">
        <ele>985.97</ele>
        <time>2013-02-03T13:04:41Z</time>
      </trkpt>
      <trkpt lat="42.88131" lon="0.03316">
        <ele>986.45</ele>
        <time>2013-02-03T13:04:59Z</time>
      </trkpt>
      <trkpt lat="42.88131" lon="0.03316">
        <ele>985.97</ele>
        <time>2013-02-03T13:05:12Z</time>
      </trkpt>
      <trkpt lat="42.88132" lon="0.03314">
        <ele>985.49</ele>
        <time>2013-02-03T13:05:30Z</time>
      </trkpt>
      <trkpt lat="42.88132" lon="0.03313">
        <ele>985.49</ele>
        <time>2013-02-03T13:05:46Z</time>
      </trkpt>
      <trkpt lat="42.88131" lon="0.03314">
        <ele>985.01</ele>
        <time>2013-02-03T13:05:59Z</time>
      </trkpt>
      <trkpt lat="42.8813" lon="0.03314">
        <ele>984.53</ele>
        <time>2013-02-03T13:06:21Z</time>
      </trkpt>
      <trkpt lat="42.88131" lon="0.03315">
        <ele>984.53</ele>
        <time>2013-02-03T13:06:53Z</time>
      </trkpt>
      <trkpt lat="42.8813" lon="0.03314">
        <ele>985.97</ele>
        <time>2013-02-03T13:07:17Z</time>
      </trkpt>
      <trkpt lat="42.8813" lon="0.03313">
        <ele>985.97</ele>
        <time>2013-02-03T13:07:30Z</time>
      </trkpt>
      <trkpt lat="42.8813" lon="0.03311">
        <ele>986.93</ele>
        <time>2013-02-03T13:07:50Z</time>
      </trkpt>
      <trkpt lat="42.8813" lon="0.03312">
        <ele>986.45</ele>
        <time>2013-02-03T13:08:14Z</time>
      </trkpt>
      <trkpt lat="42.88131" lon="0.03314">
        <ele>987.41</ele>
        <time>2013-02-03T13:08:34Z</time>
      </trkpt>
      <trkpt lat="42.88131" lon="0.03313">
        <ele>987.41</ele>
        <time>2013-02-03T13:08:52Z</time>
      </trkpt>
      <trkpt lat="42.8813" lon="0.03313">
        <ele>987.41</ele>
        <time>2013-02-03T13:09:17Z</time>
      </trkpt>
      <trkpt lat="42.88131" lon="0.03312">
        <ele>987.89</ele>
        <time>2013-02-03T13:09:45Z</time>
      </trkpt>
      <trkpt lat="42.8813" lon="0.03312">
        <ele>988.37</ele>
        <time>2013-02-03T13:10:02Z</time>
      </trkpt>
      <trkpt lat="42.88131" lon="0.03312">
        <ele>988.37</ele>
        <time>2013-02-03T13:10:21Z</time>
      </trkpt>
      <trkpt lat="42.8813" lon="0.03312">
        <ele>988.85</ele>
        <time>2013-02-03T13:10:53Z</time>
      </trkpt>
      <trkpt lat="42.88129" lon="0.03312">
        <ele>989.33</ele>
        <time>2013-02-03T13:11:21Z</time>
      </trkpt>
      <trkpt lat="42.88134" lon="0.0331">
        <ele>988.85</ele>
        <time>2013-02-03T13:11:46Z</time>
      </trkpt>
      <trkpt lat="42.88136" lon="0.03313">
        <ele>987.89</ele>
        <time>2013-02-03T13:12:00Z</time>
      </trkpt>
      <trkpt lat="42.88134" lon="0.03314">
        <ele>987.89</ele>
        <time>2013-02-03T13:12:31Z</time>
      </trkpt>
      <trkpt lat="42.88134" lon="0.03319">
        <ele>987.89</ele>
        <time>2013-02-03T13:12:43Z</time>
      </trkpt>
      <trkpt lat="42.88133" lon="0.03327">
        <ele>987.89</ele>
        <time>2013-02-03T13:12:55Z</time>
      </trkpt>
      <trkpt lat="42.88128" lon="0.0334">
        <ele>987.41</ele>
        <time>2013-02-03T13:13:10Z</time>
      </trkpt>
      <trkpt lat="42.88132" lon="0.03344">
        <ele>986.45</ele>
        <time>2013-02-03T13:13:29Z</time>
      </trkpt>
      <trkpt lat="42.88136" lon="0.03343">
        <ele>985.97</ele>
        <time>2013-02-03T13:13:38Z</time>
      </trkpt>
      <trkpt lat="42.88143" lon="0.03344">
        <ele>984.05</ele>
        <time>2013-02-03T13:13:51Z</time>
      </trkpt>
      <trkpt lat="42.88158" lon="0.03336">
        <ele>981.64</ele>
        <time>2013-02-03T13:14:07Z</time>
      </trkpt>
      <trkpt lat="42.88163" lon="0.03336">
        <ele>981.64</ele>
        <time>2013-02-03T13:14:11Z</time>
      </trkpt>
      <trkpt lat="42.88173" lon="0.03335">
        <ele>978.76</ele>
        <time>2013-02-03T13:14:23Z</time>
      </trkpt>
      <trkpt lat="42.88192" lon="0.03334">
        <ele>976.84</ele>
        <time>2013-02-03T13:14:39Z</time>
      </trkpt>
      <trkpt lat="42.88208" lon="0.03332">
        <ele>976.84</ele>
        <time>2013-02-03T13:14:54Z</time>
      </trkpt>
      <trkpt lat="42.88228" lon="0.03346">
        <ele>975.39</ele>
        <time>2013-02-03T13:15:10Z</time>
      </trkpt>
      <trkpt lat="42.88235" lon="0.03373">
        <ele>972.99</ele>
        <time>2013-02-03T13:15:28Z</time>
      </trkpt>
      <trkpt lat="42.88234" lon="0.03409">
        <ele>972.03</ele>
        <time>2013-02-03T13:15:49Z</time>
      </trkpt>
      <trkpt lat="42.88239" lon="0.03435">
        <ele>971.07</ele>
        <time>2013-02-03T13:16:07Z</time>
      </trkpt>
      <trkpt lat="42.88245" lon="0.0347">
        <ele>968.18</ele>
        <time>2013-02-03T13:16:27Z</time>
      </trkpt>
      <trkpt lat="42.88242" lon="0.03497">
        <ele>965.78</ele>
        <time>2013-02-03T13:16:47Z</time>
      </trkpt>
      <trkpt lat="42.88236" lon="0.03527">
        <ele>963.38</ele>
        <time>2013-02-03T13:17:08Z</time>
      </trkpt>
      <trkpt lat="42.88228" lon="0.0355">
        <ele>962.42</ele>
        <time>2013-02-03T13:17:25Z</time>
      </trkpt>
      <trkpt lat="42.88231" lon="0.03577">
        <ele>960.98</ele>
        <time>2013-02-03T13:17:43Z</time>
      </trkpt>
      <trkpt lat="42.88229" lon="0.03606">
        <ele>960.49</ele>
        <time>2013-02-03T13:18:02Z</time>
      </trkpt>
      <trkpt lat="42.8823" lon="0.03607">
        <ele>960.01</ele>
        <time>2013-02-03T13:18:03Z</time>
      </trkpt>
      <trkpt lat="42.8823" lon="0.03634">
        <ele>958.57</ele>
        <time>2013-02-03T13:18:21Z</time>
      </trkpt>
      <trkpt lat="42.88232" lon="0.0366">
        <ele>958.09</ele>
        <time>2013-02-03T13:18:38Z</time>
      </trkpt>
      <trkpt lat="42.88242" lon="0.03684">
        <ele>956.17</ele>
        <time>2013-02-03T13:18:55Z</time>
      </trkpt>
      <trkpt lat="42.88252" lon="0.03709">
        <ele>954.73</ele>
        <time>2013-02-03T13:19:13Z</time>
      </trkpt>
      <trkpt lat="42.88258" lon="0.03722">
        <ele>953.77</ele>
        <time>2013-02-03T13:19:22Z</time>
      </trkpt>
      <trkpt lat="42.88265" lon="0.03749">
        <ele>953.77</ele>
        <time>2013-02-03T13:19:40Z</time>
      </trkpt>
      <trkpt lat="42.88275" lon="0.03773">
        <ele>954.73</ele>
        <time>2013-02-03T13:19:57Z</time>
      </trkpt>
      <trkpt lat="42.88286" lon="0.03782">
        <ele>954.25</ele>
        <time>2013-02-03T13:20:13Z</time>
      </trkpt>
      <trkpt lat="42.88286" lon="0.03779">
        <ele>954.73</ele>
        <time>2013-02-03T13:20:15Z</time>
      </trkpt>
    </trkseg>
  </trk>
</gpx>